<?xml version="1.0" encoding="UTF-8" standalone="no" ?><gpx xmlns="http://www.topografix.com/GPX/1/1" xmlns:gpxx="http://www.garmin.com/xmlschemas/GpxExtensions/v3" xmlns:wptx1="http://www.garmin.com/xmlschemas/WaypointExtension/v1" xmlns:gpxtpx="http://www.garmin.com/xmlschemas/TrackPointExtension/v1" creator="GuideVTT.com" version="1.1" xmlns:xsi="http://www.w3.org/2001/XMLSchema-instance" xsi:schemaLocation="http://www.topografix.com/GPX/1/1 http://www.topografix.com/GPX/1/1/gpx.xsd http://www.garmin.com/xmlschemas/GpxExtensions/v3 http://www8.garmin.com/xmlschemas/GpxExtensionsv3.xsd http://www.garmin.com/xmlschemas/WaypointExtension/v1 http://www8.garmin.com/xmlschemas/WaypointExtensionv1.xsd http://www.garmin.com/xmlschemas/TrackPointExtension/v1 http://www.garmin.com/xmlschemas/TrackPointExtensionv1.xsd">
<metadata><link href="http://www.garmin.com"><text>Garmin International</text></link><time>2013-06-22T15:13:50Z</time></metadata>
<trk><name>transvo1.gpx</name><extensions><gpxx:TrackExtension><gpxx:DisplayColor>Cyan</gpxx:DisplayColor></gpxx:TrackExtension></extensions><trkseg>
<trkpt lat="45.82224240" lon="3.07825696"><ele></ele><time>2014-4-15T14:31:10Z</time></trkpt>
<trkpt lat="45.82224240" lon="3.07825696"><ele></ele><time>2014-4-15T14:31:13Z</time></trkpt>
<trkpt lat="45.82223956" lon="3.07827422"><ele></ele><time>2014-4-15T14:31:16Z</time></trkpt>
<trkpt lat="45.82226839" lon="3.07837145"><ele></ele><time>2014-4-15T14:31:19Z</time></trkpt>
<trkpt lat="45.82232597" lon="3.07850020"><ele></ele><time>2014-4-15T14:31:22Z</time></trkpt>
<trkpt lat="45.82233955" lon="3.07853297"><ele></ele><time>2014-4-15T14:31:25Z</time></trkpt>
<trkpt lat="45.82238725" lon="3.07861813"><ele></ele><time>2014-4-15T14:31:28Z</time></trkpt>
<trkpt lat="45.82247701" lon="3.07884495"><ele></ele><time>2014-4-15T14:31:31Z</time></trkpt>
<trkpt lat="45.82257944" lon="3.07911786"><ele></ele><time>2014-4-15T14:31:34Z</time></trkpt>
<trkpt lat="45.82279352" lon="3.07960058"><ele></ele><time>2014-4-15T14:31:37Z</time></trkpt>
<trkpt lat="45.82304128" lon="3.08027909"><ele></ele><time>2014-4-15T14:31:40Z</time></trkpt>
<trkpt lat="45.82328612" lon="3.08088502"><ele></ele><time>2014-4-15T14:31:43Z</time></trkpt>
<trkpt lat="45.82344227" lon="3.08128417"><ele></ele><time>2014-4-15T14:31:46Z</time></trkpt>
<trkpt lat="45.82363824" lon="3.08172631"><ele></ele><time>2014-4-15T14:31:49Z</time></trkpt>
<trkpt lat="45.82376791" lon="3.08214868"><ele></ele><time>2014-4-15T14:31:52Z</time></trkpt>
<trkpt lat="45.82398282" lon="3.08283356"><ele></ele><time>2014-4-15T14:31:55Z</time></trkpt>
<trkpt lat="45.82455858" lon="3.08375347"><ele></ele><time>2014-4-15T14:31:58Z</time></trkpt>
<trkpt lat="45.82508362" lon="3.08464296"><ele></ele><time>2014-4-15T14:32:1Z</time></trkpt>
<trkpt lat="45.82539199" lon="3.08506625"><ele></ele><time>2014-4-15T14:32:4Z</time></trkpt>
<trkpt lat="45.82550975" lon="3.08515711"><ele></ele><time>2014-4-15T14:32:7Z</time></trkpt>
<trkpt lat="45.82561051" lon="3.08517613"><ele></ele><time>2014-4-15T14:32:10Z</time></trkpt>
<trkpt lat="45.82600420" lon="3.08520715"><ele></ele><time>2014-4-15T14:32:13Z</time></trkpt>
<trkpt lat="45.82631442" lon="3.08525995"><ele></ele><time>2014-4-15T14:32:16Z</time></trkpt>
<trkpt lat="45.82673309" lon="3.08514386"><ele></ele><time>2014-4-15T14:32:19Z</time></trkpt>
<trkpt lat="45.82692646" lon="3.08488168"><ele></ele><time>2014-4-15T14:32:22Z</time></trkpt>
<trkpt lat="45.82698807" lon="3.08467582"><ele></ele><time>2014-4-15T14:32:25Z</time></trkpt>
<trkpt lat="45.82712872" lon="3.08449611"><ele></ele><time>2014-4-15T14:32:28Z</time></trkpt>
<trkpt lat="45.82753264" lon="3.08449460"><ele></ele><time>2014-4-15T14:32:31Z</time></trkpt>
<trkpt lat="45.82786633" lon="3.08449326"><ele></ele><time>2014-4-15T14:32:34Z</time></trkpt>
<trkpt lat="45.82818727" lon="3.08430408"><ele></ele><time>2014-4-15T14:32:37Z</time></trkpt>
<trkpt lat="45.82854459" lon="3.08415832"><ele></ele><time>2014-4-15T14:32:40Z</time></trkpt>
<trkpt lat="45.82919863" lon="3.08379212"><ele></ele><time>2014-4-15T14:32:43Z</time></trkpt>
<trkpt lat="45.82973675" lon="3.08313715"><ele></ele><time>2014-4-15T14:32:46Z</time></trkpt>
<trkpt lat="45.82956609" lon="3.08277958"><ele></ele><time>2014-4-15T14:32:49Z</time></trkpt>
<trkpt lat="45.82915069" lon="3.08214423"><ele></ele><time>2014-4-15T14:32:52Z</time></trkpt>
<trkpt lat="45.82908539" lon="3.08206829"><ele></ele><time>2014-4-15T14:32:55Z</time></trkpt>
<trkpt lat="45.82887551" lon="3.08204088"><ele></ele><time>2014-4-15T14:32:58Z</time></trkpt>
<trkpt lat="45.82857653" lon="3.08222922"><ele></ele><time>2014-4-15T14:33:1Z</time></trkpt>
<trkpt lat="45.82844216" lon="3.08229435"><ele></ele><time>2014-4-15T14:33:4Z</time></trkpt>
<trkpt lat="45.82811711" lon="3.08220534"><ele></ele><time>2014-4-15T14:33:7Z</time></trkpt>
<trkpt lat="45.82734229" lon="3.08139967"><ele></ele><time>2014-4-15T14:33:10Z</time></trkpt>
<trkpt lat="45.82730818" lon="3.08135650"><ele></ele><time>2014-4-15T14:33:13Z</time></trkpt>
<trkpt lat="45.82720290" lon="3.08100882"><ele></ele><time>2014-4-15T14:33:16Z</time></trkpt>
<trkpt lat="45.82709678" lon="3.07970518"><ele></ele><time>2014-4-15T14:33:19Z</time></trkpt>
<trkpt lat="45.82707784" lon="3.07950343"><ele></ele><time>2014-4-15T14:33:22Z</time></trkpt>
<trkpt lat="45.82693392" lon="3.07916782"><ele></ele><time>2014-4-15T14:33:25Z</time></trkpt>
<trkpt lat="45.82639111" lon="3.07871285"><ele></ele><time>2014-4-15T14:33:28Z</time></trkpt>
<trkpt lat="45.82627242" lon="3.07860045"><ele></ele><time>2014-4-15T14:33:31Z</time></trkpt>
<trkpt lat="45.82614359" lon="3.07832343"><ele></ele><time>2014-4-15T14:33:34Z</time></trkpt>
<trkpt lat="45.82589155" lon="3.07716848"><ele></ele><time>2014-4-15T14:33:37Z</time></trkpt>
<trkpt lat="45.82559307" lon="3.07578539"><ele></ele><time>2014-4-15T14:33:40Z</time></trkpt>
<trkpt lat="45.82534731" lon="3.07452424"><ele></ele><time>2014-4-15T14:33:43Z</time></trkpt>
<trkpt lat="45.82551931" lon="3.07359913"><ele></ele><time>2014-4-15T14:33:46Z</time></trkpt>
<trkpt lat="45.82553700" lon="3.07302925"><ele></ele><time>2014-4-15T14:33:49Z</time></trkpt>
<trkpt lat="45.82553205" lon="3.07294509"><ele></ele><time>2014-4-15T14:33:52Z</time></trkpt>
<trkpt lat="45.82553691" lon="3.07290561"><ele></ele><time>2014-4-15T14:33:55Z</time></trkpt>
<trkpt lat="45.82565560" lon="3.07286882"><ele></ele><time>2014-4-15T14:33:58Z</time></trkpt>
<trkpt lat="45.82602122" lon="3.07285834"><ele></ele><time>2014-4-15T14:34:1Z</time></trkpt>
<trkpt lat="45.82660477" lon="3.07258249"><ele></ele><time>2014-4-15T14:34:4Z</time></trkpt>
<trkpt lat="45.82676570" lon="3.07255081"><ele></ele><time>2014-4-15T14:34:7Z</time></trkpt>
<trkpt lat="45.82698891" lon="3.07256347"><ele></ele><time>2014-4-15T14:34:10Z</time></trkpt>
<trkpt lat="45.82717080" lon="3.07249256"><ele></ele><time>2014-4-15T14:34:13Z</time></trkpt>
<trkpt lat="45.82731522" lon="3.07226197"><ele></ele><time>2014-4-15T14:34:16Z</time></trkpt>
<trkpt lat="45.82737833" lon="3.07159041"><ele></ele><time>2014-4-15T14:34:19Z</time></trkpt>
<trkpt lat="45.82730784" lon="3.07110686"><ele></ele><time>2014-4-15T14:34:22Z</time></trkpt>
<trkpt lat="45.82714540" lon="3.07038668"><ele></ele><time>2014-4-15T14:34:25Z</time></trkpt>
<trkpt lat="45.82695421" lon="3.06987640"><ele></ele><time>2014-4-15T14:34:28Z</time></trkpt>
<trkpt lat="45.82704364" lon="3.06941430"><ele></ele><time>2014-4-15T14:34:31Z</time></trkpt>
<trkpt lat="45.82720659" lon="3.06910627"><ele></ele><time>2014-4-15T14:34:34Z</time></trkpt>
<trkpt lat="45.82747422" lon="3.06871617"><ele></ele><time>2014-4-15T14:34:37Z</time></trkpt>
<trkpt lat="45.82760506" lon="3.06854837"><ele></ele><time>2014-4-15T14:34:40Z</time></trkpt>
<trkpt lat="45.82792743" lon="3.06792936"><ele></ele><time>2014-4-15T14:34:43Z</time></trkpt>
<trkpt lat="45.82824896" lon="3.06717080"><ele></ele><time>2014-4-15T14:34:46Z</time></trkpt>
<trkpt lat="45.82848743" lon="3.06664350"><ele></ele><time>2014-4-15T14:34:49Z</time></trkpt>
<trkpt lat="45.82865833" lon="3.06618283"><ele></ele><time>2014-4-15T14:34:52Z</time></trkpt>
<trkpt lat="45.82875791" lon="3.06589256"><ele></ele><time>2014-4-15T14:34:55Z</time></trkpt>
<trkpt lat="45.82887333" lon="3.06572928"><ele></ele><time>2014-4-15T14:34:58Z</time></trkpt>
<trkpt lat="45.82921397" lon="3.06553977"><ele></ele><time>2014-4-15T14:35:1Z</time></trkpt>
<trkpt lat="45.82960559" lon="3.06552091"><ele></ele><time>2014-4-15T14:35:4Z</time></trkpt>
<trkpt lat="45.83003146" lon="3.06575178"><ele></ele><time>2014-4-15T14:35:7Z</time></trkpt>
<trkpt lat="45.83056497" lon="3.06562275"><ele></ele><time>2014-4-15T14:35:10Z</time></trkpt>
<trkpt lat="45.83088247" lon="3.06552778"><ele></ele><time>2014-4-15T14:35:13Z</time></trkpt>
<trkpt lat="45.83090879" lon="3.06552610"><ele></ele><time>2014-4-15T14:35:16Z</time></trkpt>
<trkpt lat="45.83115726" lon="3.06557366"><ele></ele><time>2014-4-15T14:35:19Z</time></trkpt>
<trkpt lat="45.83149337" lon="3.06577117"><ele></ele><time>2014-4-15T14:35:22Z</time></trkpt>
<trkpt lat="45.83203440" lon="3.06564186"><ele></ele><time>2014-4-15T14:35:25Z</time></trkpt>
<trkpt lat="45.83225987" lon="3.06556734"><ele></ele><time>2014-4-15T14:35:28Z</time></trkpt>
<trkpt lat="45.83254385" lon="3.06541831"><ele></ele><time>2014-4-15T14:35:31Z</time></trkpt>
<trkpt lat="45.83293998" lon="3.06535880"><ele></ele><time>2014-4-15T14:35:34Z</time></trkpt>
<trkpt lat="45.83332806" lon="3.06538881"><ele></ele><time>2014-4-15T14:35:37Z</time></trkpt>
<trkpt lat="45.83374598" lon="3.06531446"><ele></ele><time>2014-4-15T14:35:40Z</time></trkpt>
<trkpt lat="45.83394572" lon="3.06519753"><ele></ele><time>2014-4-15T14:35:43Z</time></trkpt>
<trkpt lat="45.83424814" lon="3.06504540"><ele></ele><time>2014-4-15T14:35:46Z</time></trkpt>
<trkpt lat="45.83447219" lon="3.06488430"><ele></ele><time>2014-4-15T14:35:49Z</time></trkpt>
<trkpt lat="45.83479548" lon="3.06459722"><ele></ele><time>2014-4-15T14:35:52Z</time></trkpt>
<trkpt lat="45.83508130" lon="3.06416036"><ele></ele><time>2014-4-15T14:35:55Z</time></trkpt>
<trkpt lat="45.83550266" lon="3.06351009"><ele></ele><time>2014-4-15T14:35:58Z</time></trkpt>
<trkpt lat="45.83562596" lon="3.06332367"><ele></ele><time>2014-4-15T14:36:1Z</time></trkpt>
<trkpt lat="45.83584598" lon="3.06284951"><ele></ele><time>2014-4-15T14:36:4Z</time></trkpt>
<trkpt lat="45.83586903" lon="3.06218633"><ele></ele><time>2014-4-15T14:36:7Z</time></trkpt>
<trkpt lat="45.83587943" lon="3.06185139"><ele></ele><time>2014-4-15T14:36:10Z</time></trkpt>
<trkpt lat="45.83593382" lon="3.06176162"><ele></ele><time>2014-4-15T14:36:13Z</time></trkpt>
<trkpt lat="45.83622065" lon="3.06164243"><ele></ele><time>2014-4-15T14:36:16Z</time></trkpt>
<trkpt lat="45.83668878" lon="3.06143733"><ele></ele><time>2014-4-15T14:36:19Z</time></trkpt>
<trkpt lat="45.83709329" lon="3.06114052"><ele></ele><time>2014-4-15T14:36:22Z</time></trkpt>
<trkpt lat="45.83746721" lon="3.06064482"><ele></ele><time>2014-4-15T14:36:25Z</time></trkpt>
<trkpt lat="45.83791204" lon="3.06010134"><ele></ele><time>2014-4-15T14:36:28Z</time></trkpt>
<trkpt lat="45.83815746" lon="3.05965785"><ele></ele><time>2014-4-15T14:36:31Z</time></trkpt>
<trkpt lat="45.83827606" lon="3.05929542"><ele></ele><time>2014-4-15T14:36:34Z</time></trkpt>
<trkpt lat="45.83884738" lon="3.05896483"><ele></ele><time>2014-4-15T14:36:37Z</time></trkpt>
<trkpt lat="45.83959957" lon="3.05905661"><ele></ele><time>2014-4-15T14:36:40Z</time></trkpt>
<trkpt lat="45.84033659" lon="3.05916927"><ele></ele><time>2014-4-15T14:36:43Z</time></trkpt>
<trkpt lat="45.84069100" lon="3.05910281"><ele></ele><time>2014-4-15T14:36:46Z</time></trkpt>
<trkpt lat="45.84073808" lon="3.05844272"><ele></ele><time>2014-4-15T14:36:49Z</time></trkpt>
<trkpt lat="45.84077169" lon="3.05782867"><ele></ele><time>2014-4-15T14:36:52Z</time></trkpt>
<trkpt lat="45.84086674" lon="3.05708276"><ele></ele><time>2014-4-15T14:36:55Z</time></trkpt>
<trkpt lat="45.84087261" lon="3.05630173"><ele></ele><time>2014-4-15T14:36:58Z</time></trkpt>
<trkpt lat="45.84091460" lon="3.05536623"><ele></ele><time>2014-4-15T14:37:1Z</time></trkpt>
<trkpt lat="45.84093858" lon="3.05434364"><ele></ele><time>2014-4-15T14:37:4Z</time></trkpt>
<trkpt lat="45.84093045" lon="3.05331322"><ele></ele><time>2014-4-15T14:37:7Z</time></trkpt>
<trkpt lat="45.84092952" lon="3.05249929"><ele></ele><time>2014-4-15T14:37:10Z</time></trkpt>
<trkpt lat="45.84090220" lon="3.05220215"><ele></ele><time>2014-4-15T14:37:13Z</time></trkpt>
<trkpt lat="45.84092139" lon="3.05212554"><ele></ele><time>2014-4-15T14:37:16Z</time></trkpt>
<trkpt lat="45.84089818" lon="3.05209201"><ele></ele><time>2014-4-15T14:37:19Z</time></trkpt>
<trkpt lat="45.84084688" lon="3.05199956"><ele></ele><time>2014-4-15T14:37:22Z</time></trkpt>
<trkpt lat="45.84084646" lon="3.05132439"><ele></ele><time>2014-4-15T14:37:25Z</time></trkpt>
<trkpt lat="45.84087051" lon="3.05114854"><ele></ele><time>2014-4-15T14:37:28Z</time></trkpt>
<trkpt lat="45.84090748" lon="3.05077027"><ele></ele><time>2014-4-15T14:37:31Z</time></trkpt>
<trkpt lat="45.84096858" lon="3.05038420"><ele></ele><time>2014-4-15T14:37:34Z</time></trkpt>
<trkpt lat="45.84100211" lon="3.04964583"><ele></ele><time>2014-4-15T14:37:37Z</time></trkpt>
<trkpt lat="45.84100110" lon="3.04893413"><ele></ele><time>2014-4-15T14:37:40Z</time></trkpt>
<trkpt lat="45.84091729" lon="3.04834697"><ele></ele><time>2014-4-15T14:37:43Z</time></trkpt>
<trkpt lat="45.84083883" lon="3.04736964"><ele></ele><time>2014-4-15T14:37:46Z</time></trkpt>
<trkpt lat="45.84084034" lon="3.04732522"><ele></ele><time>2014-4-15T14:37:49Z</time></trkpt>
<trkpt lat="45.84048872" lon="3.04743519"><ele></ele><time>2014-4-15T14:37:52Z</time></trkpt>
<trkpt lat="45.83976553" lon="3.04789410"><ele></ele><time>2014-4-15T14:37:55Z</time></trkpt>
<trkpt lat="45.83959198" lon="3.04801807"><ele></ele><time>2014-4-15T14:37:58Z</time></trkpt>
<trkpt lat="45.83950425" lon="3.04766295"><ele></ele><time>2014-4-15T14:38:1Z</time></trkpt>
<trkpt lat="45.83941978" lon="3.04679297"><ele></ele><time>2014-4-15T14:38:4Z</time></trkpt>
<trkpt lat="45.83955878" lon="3.04615115"><ele></ele><time>2014-4-15T14:38:7Z</time></trkpt>
<trkpt lat="45.83935960" lon="3.04563368"><ele></ele><time>2014-4-15T14:38:10Z</time></trkpt>
<trkpt lat="45.83942911" lon="3.04531277"><ele></ele><time>2014-4-15T14:38:13Z</time></trkpt>
<trkpt lat="45.83938615" lon="3.04499041"><ele></ele><time>2014-4-15T14:38:16Z</time></trkpt>
<trkpt lat="45.83932273" lon="3.04434597"><ele></ele><time>2014-4-15T14:38:19Z</time></trkpt>
<trkpt lat="45.83930205" lon="3.04405608"><ele></ele><time>2014-4-15T14:38:22Z</time></trkpt>
<trkpt lat="45.83932717" lon="3.04363805"><ele></ele><time>2014-4-15T14:38:25Z</time></trkpt>
<trkpt lat="45.83964684" lon="3.04323494"><ele></ele><time>2014-4-15T14:38:28Z</time></trkpt>
<trkpt lat="45.84002302" lon="3.04292489"><ele></ele><time>2014-4-15T14:38:31Z</time></trkpt>
<trkpt lat="45.84047874" lon="3.04271718"><ele></ele><time>2014-4-15T14:38:34Z</time></trkpt>
<trkpt lat="45.84069558" lon="3.04238183"><ele></ele><time>2014-4-15T14:38:37Z</time></trkpt>
<trkpt lat="45.84076113" lon="3.04186047"><ele></ele><time>2014-4-15T14:38:40Z</time></trkpt>
<trkpt lat="45.84058058" lon="3.04157616"><ele></ele><time>2014-4-15T14:38:43Z</time></trkpt>
<trkpt lat="45.84034815" lon="3.04102764"><ele></ele><time>2014-4-15T14:38:46Z</time></trkpt>
<trkpt lat="45.84018596" lon="3.04020505"><ele></ele><time>2014-4-15T14:38:49Z</time></trkpt>
<trkpt lat="45.84010189" lon="3.03937348"><ele></ele><time>2014-4-15T14:38:52Z</time></trkpt>
<trkpt lat="45.83995873" lon="3.03910777"><ele></ele><time>2014-4-15T14:38:55Z</time></trkpt>
<trkpt lat="45.83977601" lon="3.03885128"><ele></ele><time>2014-4-15T14:38:58Z</time></trkpt>
<trkpt lat="45.83980509" lon="3.03836010"><ele></ele><time>2014-4-15T14:39:1Z</time></trkpt>
<trkpt lat="45.83981934" lon="3.03798535"><ele></ele><time>2014-4-15T14:39:4Z</time></trkpt>
<trkpt lat="45.84001296" lon="3.03746802"><ele></ele><time>2014-4-15T14:39:7Z</time></trkpt>
<trkpt lat="45.84022427" lon="3.03697156"><ele></ele><time>2014-4-15T14:39:10Z</time></trkpt>
<trkpt lat="45.84041026" lon="3.03655129"><ele></ele><time>2014-4-15T14:39:13Z</time></trkpt>
<trkpt lat="45.84058520" lon="3.03603010"><ele></ele><time>2014-4-15T14:39:16Z</time></trkpt>
<trkpt lat="45.84075350" lon="3.03563783"><ele></ele><time>2014-4-15T14:39:19Z</time></trkpt>
<trkpt lat="45.84097420" lon="3.03516970"><ele></ele><time>2014-4-15T14:39:22Z</time></trkpt>
<trkpt lat="45.84109314" lon="3.03468841"><ele></ele><time>2014-4-15T14:39:25Z</time></trkpt>
<trkpt lat="45.84109381" lon="3.03424652"><ele></ele><time>2014-4-15T14:39:28Z</time></trkpt>
<trkpt lat="45.84114309" lon="3.03363640"><ele></ele><time>2014-4-15T14:39:31Z</time></trkpt>
<trkpt lat="45.84132557" lon="3.03309996"><ele></ele><time>2014-4-15T14:39:34Z</time></trkpt>
<trkpt lat="45.84146747" lon="3.03265857"><ele></ele><time>2014-4-15T14:39:37Z</time></trkpt>
<trkpt lat="45.84159127" lon="3.03219111"><ele></ele><time>2014-4-15T14:39:40Z</time></trkpt>
<trkpt lat="45.84158599" lon="3.03182767"><ele></ele><time>2014-4-15T14:39:43Z</time></trkpt>
<trkpt lat="45.84154350" lon="3.03163019"><ele></ele><time>2014-4-15T14:39:46Z</time></trkpt>
<trkpt lat="45.84164106" lon="3.03081580"><ele></ele><time>2014-4-15T14:39:49Z</time></trkpt>
<trkpt lat="45.84172656" lon="3.03003159"><ele></ele><time>2014-4-15T14:39:52Z</time></trkpt>
<trkpt lat="45.84177408" lon="3.02937596"><ele></ele><time>2014-4-15T14:39:55Z</time></trkpt>
<trkpt lat="45.84185170" lon="3.02859619"><ele></ele><time>2014-4-15T14:39:58Z</time></trkpt>
<trkpt lat="45.84205831" lon="3.02779865"><ele></ele><time>2014-4-15T14:40:1Z</time></trkpt>
<trkpt lat="45.84217432" lon="3.02698921"><ele></ele><time>2014-4-15T14:40:4Z</time></trkpt>
<trkpt lat="45.84240541" lon="3.02615647"><ele></ele><time>2014-4-15T14:40:7Z</time></trkpt>
<trkpt lat="45.84267841" lon="3.02541543"><ele></ele><time>2014-4-15T14:40:10Z</time></trkpt>
<trkpt lat="45.84277606" lon="3.02519532"><ele></ele><time>2014-4-15T14:40:13Z</time></trkpt>
<trkpt lat="45.84285996" lon="3.02523145"><ele></ele><time>2014-4-15T14:40:16Z</time></trkpt>
<trkpt lat="45.84316112" lon="3.02552640"><ele></ele><time>2014-4-15T14:40:19Z</time></trkpt>
<trkpt lat="45.84326019" lon="3.02555742"><ele></ele><time>2014-4-15T14:40:22Z</time></trkpt>
<trkpt lat="45.84336271" lon="3.02563453"><ele></ele><time>2014-4-15T14:40:25Z</time></trkpt>
<trkpt lat="45.84355817" lon="3.02557971"><ele></ele><time>2014-4-15T14:40:28Z</time></trkpt>
<trkpt lat="45.84358810" lon="3.02554635"><ele></ele><time>2014-4-15T14:40:31Z</time></trkpt>
<trkpt lat="45.84360695" lon="3.02550302"><ele></ele><time>2014-4-15T14:40:34Z</time></trkpt>
<trkpt lat="45.84377166" lon="3.02522407"><ele></ele><time>2014-4-15T14:40:37Z</time></trkpt>
<trkpt lat="45.84400635" lon="3.02512986"><ele></ele><time>2014-4-15T14:40:40Z</time></trkpt>
<trkpt lat="45.84422361" lon="3.02491914"><ele></ele><time>2014-4-15T14:40:43Z</time></trkpt>
<trkpt lat="45.84423543" lon="3.02485384"><ele></ele><time>2014-4-15T14:40:46Z</time></trkpt>
<trkpt lat="45.84427927" lon="3.02475820"><ele></ele><time>2014-4-15T14:40:49Z</time></trkpt>
<trkpt lat="45.84436560" lon="3.02419108"><ele></ele><time>2014-4-15T14:40:52Z</time></trkpt>
<trkpt lat="45.84432746" lon="3.02367040"><ele></ele><time>2014-4-15T14:40:55Z</time></trkpt>
<trkpt lat="45.84425530" lon="3.02307570"><ele></ele><time>2014-4-15T14:40:58Z</time></trkpt>
<trkpt lat="45.84423216" lon="3.02235888"><ele></ele><time>2014-4-15T14:41:1Z</time></trkpt>
<trkpt lat="45.84441992" lon="3.02205009"><ele></ele><time>2014-4-15T14:41:4Z</time></trkpt>
<trkpt lat="45.84463608" lon="3.02195328"><ele></ele><time>2014-4-15T14:41:7Z</time></trkpt>
<trkpt lat="45.84498159" lon="3.02172806"><ele></ele><time>2014-4-15T14:41:10Z</time></trkpt>
<trkpt lat="45.84510849" lon="3.02148733"><ele></ele><time>2014-4-15T14:41:13Z</time></trkpt>
<trkpt lat="45.84527864" lon="3.02119313"><ele></ele><time>2014-4-15T14:41:16Z</time></trkpt>
<trkpt lat="45.84535735" lon="3.02102122"><ele></ele><time>2014-4-15T14:41:19Z</time></trkpt>
<trkpt lat="45.84544469" lon="3.02060170"><ele></ele><time>2014-4-15T14:41:22Z</time></trkpt>
<trkpt lat="45.84547494" lon="3.02038260"><ele></ele><time>2014-4-15T14:41:25Z</time></trkpt>
<trkpt lat="45.84555374" lon="3.02013148"><ele></ele><time>2014-4-15T14:41:28Z</time></trkpt>
<trkpt lat="45.84569162" lon="3.01982084"><ele></ele><time>2014-4-15T14:41:31Z</time></trkpt>
<trkpt lat="45.84570067" lon="3.01979352"><ele></ele><time>2014-4-15T14:41:34Z</time></trkpt>
<trkpt lat="45.84577384" lon="3.01924978"><ele></ele><time>2014-4-15T14:41:37Z</time></trkpt>
<trkpt lat="45.84582472" lon="3.01891459"><ele></ele><time>2014-4-15T14:41:40Z</time></trkpt>
<trkpt lat="45.84582229" lon="3.01861058"><ele></ele><time>2014-4-15T14:41:43Z</time></trkpt>
<trkpt lat="45.84573596" lon="3.01815544"><ele></ele><time>2014-4-15T14:41:46Z</time></trkpt>
<trkpt lat="45.84568139" lon="3.01775546"><ele></ele><time>2014-4-15T14:41:49Z</time></trkpt>
<trkpt lat="45.84566731" lon="3.01741926"><ele></ele><time>2014-4-15T14:41:52Z</time></trkpt>
<trkpt lat="45.84566815" lon="3.01715833"><ele></ele><time>2014-4-15T14:41:55Z</time></trkpt>
<trkpt lat="45.84567326" lon="3.01707351"><ele></ele><time>2014-4-15T14:41:58Z</time></trkpt>
<trkpt lat="45.84567955" lon="3.01705649"><ele></ele><time>2014-4-15T14:42:1Z</time></trkpt>
<trkpt lat="45.84562046" lon="3.01690679"><ele></ele><time>2014-4-15T14:42:4Z</time></trkpt>
<trkpt lat="45.84553856" lon="3.01660446"><ele></ele><time>2014-4-15T14:42:7Z</time></trkpt>
<trkpt lat="45.84539196" lon="3.01635820"><ele></ele><time>2014-4-15T14:42:10Z</time></trkpt>
<trkpt lat="45.84505602" lon="3.01573458"><ele></ele><time>2014-4-15T14:42:13Z</time></trkpt>
<trkpt lat="45.84463717" lon="3.01541825"><ele></ele><time>2014-4-15T14:42:16Z</time></trkpt>
<trkpt lat="45.84435889" lon="3.01560089"><ele></ele><time>2014-4-15T14:42:19Z</time></trkpt>
<trkpt lat="45.84433048" lon="3.01562394"><ele></ele><time>2014-4-15T14:42:22Z</time></trkpt>
<trkpt lat="45.84382262" lon="3.01626616"><ele></ele><time>2014-4-15T14:42:25Z</time></trkpt>
<trkpt lat="45.84366077" lon="3.01657445"><ele></ele><time>2014-4-15T14:42:28Z</time></trkpt>
<trkpt lat="45.84358592" lon="3.01673664"><ele></ele><time>2014-4-15T14:42:31Z</time></trkpt>
<trkpt lat="45.84346698" lon="3.01691676"><ele></ele><time>2014-4-15T14:42:34Z</time></trkpt>
<trkpt lat="45.84336857" lon="3.01703696"><ele></ele><time>2014-4-15T14:42:37Z</time></trkpt>
<trkpt lat="45.84318451" lon="3.01719806"><ele></ele><time>2014-4-15T14:42:40Z</time></trkpt>
<trkpt lat="45.84318409" lon="3.01719630"><ele></ele><time>2014-4-15T14:42:43Z</time></trkpt>
<trkpt lat="45.84317311" lon="3.01720619"><ele></ele><time>2014-4-15T14:42:46Z</time></trkpt>
<trkpt lat="45.84314989" lon="3.01717627"><ele></ele><time>2014-4-15T14:42:49Z</time></trkpt>
<trkpt lat="45.84312902" lon="3.01718012"><ele></ele><time>2014-4-15T14:42:52Z</time></trkpt>
<trkpt lat="45.84311619" lon="3.01713486"><ele></ele><time>2014-4-15T14:42:55Z</time></trkpt>
<trkpt lat="45.84311837" lon="3.01705155"><ele></ele><time>2014-4-15T14:42:58Z</time></trkpt>
<trkpt lat="45.84317126" lon="3.01694451"><ele></ele><time>2014-4-15T14:43:1Z</time></trkpt>
<trkpt lat="45.84311376" lon="3.01681476"><ele></ele><time>2014-4-15T14:43:4Z</time></trkpt>
<trkpt lat="45.84309775" lon="3.01671040"><ele></ele><time>2014-4-15T14:43:7Z</time></trkpt>
<trkpt lat="45.84307847" lon="3.01653321"><ele></ele><time>2014-4-15T14:43:10Z</time></trkpt>
<trkpt lat="45.84310873" lon="3.01645190"><ele></ele><time>2014-4-15T14:43:13Z</time></trkpt>
<trkpt lat="45.84312432" lon="3.01636607"><ele></ele><time>2014-4-15T14:43:16Z</time></trkpt>
<trkpt lat="45.84317562" lon="3.01591504"><ele></ele><time>2014-4-15T14:43:19Z</time></trkpt>
<trkpt lat="45.84316238" lon="3.01562444"><ele></ele><time>2014-4-15T14:43:22Z</time></trkpt>
<trkpt lat="45.84316758" lon="3.01558991"><ele></ele><time>2014-4-15T14:43:25Z</time></trkpt>
<trkpt lat="45.84318099" lon="3.01519571"><ele></ele><time>2014-4-15T14:43:28Z</time></trkpt>
<trkpt lat="45.84326707" lon="3.01495238"><ele></ele><time>2014-4-15T14:43:31Z</time></trkpt>
<trkpt lat="45.84331191" lon="3.01469045"><ele></ele><time>2014-4-15T14:43:34Z</time></trkpt>
<trkpt lat="45.84339565" lon="3.01426557"><ele></ele><time>2014-4-15T14:43:37Z</time></trkpt>
<trkpt lat="45.84338768" lon="3.01414931"><ele></ele><time>2014-4-15T14:43:40Z</time></trkpt>
<trkpt lat="45.84341425" lon="3.01395619"><ele></ele><time>2014-4-15T14:43:43Z</time></trkpt>
<trkpt lat="45.84331015" lon="3.01334540"><ele></ele><time>2014-4-15T14:43:46Z</time></trkpt>
<trkpt lat="45.84329766" lon="3.01322051"><ele></ele><time>2014-4-15T14:43:49Z</time></trkpt>
<trkpt lat="45.84337729" lon="3.01313904"><ele></ele><time>2014-4-15T14:43:52Z</time></trkpt>
<trkpt lat="45.84337461" lon="3.01296813"><ele></ele><time>2014-4-15T14:43:55Z</time></trkpt>
<trkpt lat="45.84335198" lon="3.01290560"><ele></ele><time>2014-4-15T14:43:58Z</time></trkpt>
<trkpt lat="45.84338358" lon="3.01219566"><ele></ele><time>2014-4-15T14:44:1Z</time></trkpt>
<trkpt lat="45.84342088" lon="3.01183641"><ele></ele><time>2014-4-15T14:44:4Z</time></trkpt>
<trkpt lat="45.84348877" lon="3.01121280"><ele></ele><time>2014-4-15T14:44:7Z</time></trkpt>
<trkpt lat="45.84348852" lon="3.01081793"><ele></ele><time>2014-4-15T14:44:10Z</time></trkpt>
<trkpt lat="45.84343211" lon="3.01075146"><ele></ele><time>2014-4-15T14:44:13Z</time></trkpt>
<trkpt lat="45.84323237" lon="3.01091356"><ele></ele><time>2014-4-15T14:44:16Z</time></trkpt>
<trkpt lat="45.84301720" lon="3.01136870"><ele></ele><time>2014-4-15T14:44:19Z</time></trkpt>
<trkpt lat="45.84287358" lon="3.01188696"><ele></ele><time>2014-4-15T14:44:22Z</time></trkpt>
<trkpt lat="45.84275746" lon="3.01249700"><ele></ele><time>2014-4-15T14:44:25Z</time></trkpt>
<trkpt lat="45.84266285" lon="3.01326822"><ele></ele><time>2014-4-15T14:44:28Z</time></trkpt>
<trkpt lat="45.84234449" lon="3.01384359"><ele></ele><time>2014-4-15T14:44:31Z</time></trkpt>
<trkpt lat="45.84160151" lon="3.01396317"><ele></ele><time>2014-4-15T14:44:34Z</time></trkpt>
<trkpt lat="45.84101693" lon="3.01392378"><ele></ele><time>2014-4-15T14:44:37Z</time></trkpt>
<trkpt lat="45.84047676" lon="3.01398149"><ele></ele><time>2014-4-15T14:44:40Z</time></trkpt>
<trkpt lat="45.83971380" lon="3.01368247"><ele></ele><time>2014-4-15T14:44:43Z</time></trkpt>
<trkpt lat="45.83926572" lon="3.01338732"><ele></ele><time>2014-4-15T14:44:46Z</time></trkpt>
<trkpt lat="45.83886088" lon="3.01338234"><ele></ele><time>2014-4-15T14:44:49Z</time></trkpt>
<trkpt lat="45.83844085" lon="3.01356224"><ele></ele><time>2014-4-15T14:44:52Z</time></trkpt>
<trkpt lat="45.83822091" lon="3.01389081"><ele></ele><time>2014-4-15T14:44:55Z</time></trkpt>
<trkpt lat="45.83811874" lon="3.01410849"><ele></ele><time>2014-4-15T14:44:58Z</time></trkpt>
<trkpt lat="45.83766050" lon="3.01461182"><ele></ele><time>2014-4-15T14:45:1Z</time></trkpt>
<trkpt lat="45.83742203" lon="3.01489346"><ele></ele><time>2014-4-15T14:45:4Z</time></trkpt>
<trkpt lat="45.83723570" lon="3.01503578"><ele></ele><time>2014-4-15T14:45:7Z</time></trkpt>
<trkpt lat="45.83682633" lon="3.01506001"><ele></ele><time>2014-4-15T14:45:10Z</time></trkpt>
<trkpt lat="45.83674477" lon="3.01506478"><ele></ele><time>2014-4-15T14:45:13Z</time></trkpt>
<trkpt lat="45.83621361" lon="3.01505783"><ele></ele><time>2014-4-15T14:45:16Z</time></trkpt>
<trkpt lat="45.83577935" lon="3.01518766"><ele></ele><time>2014-4-15T14:45:19Z</time></trkpt>
<trkpt lat="45.83558816" lon="3.01533225"><ele></ele><time>2014-4-15T14:45:22Z</time></trkpt>
<trkpt lat="45.83524796" lon="3.01571907"><ele></ele><time>2014-4-15T14:45:25Z</time></trkpt>
<trkpt lat="45.83479639" lon="3.01600310"><ele></ele><time>2014-4-15T14:45:28Z</time></trkpt>
<trkpt lat="45.83441326" lon="3.01612708"><ele></ele><time>2014-4-15T14:45:31Z</time></trkpt>
<trkpt lat="45.83415183" lon="3.01612702"><ele></ele><time>2014-4-15T14:45:34Z</time></trkpt>
<trkpt lat="45.83403499" lon="3.01632551"><ele></ele><time>2014-4-15T14:45:37Z</time></trkpt>
<trkpt lat="45.83396936" lon="3.01631285"><ele></ele><time>2014-4-15T14:45:40Z</time></trkpt>
<trkpt lat="45.83392074" lon="3.01623708"><ele></ele><time>2014-4-15T14:45:43Z</time></trkpt>
<trkpt lat="45.83387196" lon="3.01606902"><ele></ele><time>2014-4-15T14:45:46Z</time></trkpt>
<trkpt lat="45.83385788" lon="3.01604186"><ele></ele><time>2014-4-15T14:45:49Z</time></trkpt>
<trkpt lat="45.83371623" lon="3.01586852"><ele></ele><time>2014-4-15T14:45:52Z</time></trkpt>
<trkpt lat="45.83358455" lon="3.01571488"><ele></ele><time>2014-4-15T14:45:55Z</time></trkpt>
<trkpt lat="45.83355043" lon="3.01566769"><ele></ele><time>2014-4-15T14:45:58Z</time></trkpt>
<trkpt lat="45.83340593" lon="3.01543971"><ele></ele><time>2014-4-15T14:46:1Z</time></trkpt>
<trkpt lat="45.83339394" lon="3.01542403"><ele></ele><time>2014-4-15T14:46:4Z</time></trkpt>
<trkpt lat="45.83328179" lon="3.01523770"><ele></ele><time>2014-4-15T14:46:7Z</time></trkpt>
<trkpt lat="45.83315430" lon="3.01495205"><ele></ele><time>2014-4-15T14:46:10Z</time></trkpt>
<trkpt lat="45.83301919" lon="3.01469724"><ele></ele><time>2014-4-15T14:46:13Z</time></trkpt>
<trkpt lat="45.83297124" lon="3.01461501"><ele></ele><time>2014-4-15T14:46:16Z</time></trkpt>
<trkpt lat="45.83279497" lon="3.01425207"><ele></ele><time>2014-4-15T14:46:19Z</time></trkpt>
<trkpt lat="45.83268936" lon="3.01407195"><ele></ele><time>2014-4-15T14:46:22Z</time></trkpt>
<trkpt lat="45.83263999" lon="3.01394144"><ele></ele><time>2014-4-15T14:46:25Z</time></trkpt>
<trkpt lat="45.83256899" lon="3.01374841"><ele></ele><time>2014-4-15T14:46:28Z</time></trkpt>
<trkpt lat="45.83246120" lon="3.01360030"><ele></ele><time>2014-4-15T14:46:31Z</time></trkpt>
<trkpt lat="45.83244427" lon="3.01359619"><ele></ele><time>2014-4-15T14:46:34Z</time></trkpt>
<trkpt lat="45.83209357" lon="3.01367641"><ele></ele><time>2014-4-15T14:46:37Z</time></trkpt>
<trkpt lat="45.83169216" lon="3.01375804"><ele></ele><time>2014-4-15T14:46:40Z</time></trkpt>
<trkpt lat="45.83124256" lon="3.01380574"><ele></ele><time>2014-4-15T14:46:43Z</time></trkpt>
<trkpt lat="45.83116494" lon="3.01378411"><ele></ele><time>2014-4-15T14:46:46Z</time></trkpt>
<trkpt lat="45.83115254" lon="3.01366098"><ele></ele><time>2014-4-15T14:46:49Z</time></trkpt>
<trkpt lat="45.83116897" lon="3.01364363"><ele></ele><time>2014-4-15T14:46:52Z</time></trkpt>
<trkpt lat="45.83134205" lon="3.01344490"><ele></ele><time>2014-4-15T14:46:55Z</time></trkpt>
<trkpt lat="45.83135345" lon="3.01341690"><ele></ele><time>2014-4-15T14:46:58Z</time></trkpt>
<trkpt lat="45.83136108" lon="3.01338580"><ele></ele><time>2014-4-15T14:47:1Z</time></trkpt>
<trkpt lat="45.83159342" lon="3.01305933"><ele></ele><time>2014-4-15T14:47:4Z</time></trkpt>
<trkpt lat="45.83189048" lon="3.01261727"><ele></ele><time>2014-4-15T14:47:7Z</time></trkpt>
<trkpt lat="45.83209056" lon="3.01225693"><ele></ele><time>2014-4-15T14:47:10Z</time></trkpt>
<trkpt lat="45.83222902" lon="3.01181009"><ele></ele><time>2014-4-15T14:47:13Z</time></trkpt>
<trkpt lat="45.83219089" lon="3.01143751"><ele></ele><time>2014-4-15T14:47:16Z</time></trkpt>
<trkpt lat="45.83202224" lon="3.01094885"><ele></ele><time>2014-4-15T14:47:19Z</time></trkpt>
<trkpt lat="45.83186030" lon="3.01043789"><ele></ele><time>2014-4-15T14:47:22Z</time></trkpt>
<trkpt lat="45.83165143" lon="3.00976063"><ele></ele><time>2014-4-15T14:47:25Z</time></trkpt>
<trkpt lat="45.83136418" lon="3.00884407"><ele></ele><time>2014-4-15T14:47:28Z</time></trkpt>
<trkpt lat="45.83119964" lon="3.00821459"><ele></ele><time>2014-4-15T14:47:31Z</time></trkpt>
<trkpt lat="45.83109872" lon="3.00736961"><ele></ele><time>2014-4-15T14:47:34Z</time></trkpt>
<trkpt lat="45.83110325" lon="3.00716274"><ele></ele><time>2014-4-15T14:47:37Z</time></trkpt>
<trkpt lat="45.83101449" lon="3.00583949"><ele></ele><time>2014-4-15T14:47:40Z</time></trkpt>
<trkpt lat="45.83062984" lon="3.00484942"><ele></ele><time>2014-4-15T14:47:43Z</time></trkpt>
<trkpt lat="45.82993573" lon="3.00362642"><ele></ele><time>2014-4-15T14:47:46Z</time></trkpt>
<trkpt lat="45.82937607" lon="3.00274305"><ele></ele><time>2014-4-15T14:47:49Z</time></trkpt>
<trkpt lat="45.82899495" lon="3.00197108"><ele></ele><time>2014-4-15T14:47:52Z</time></trkpt>
<trkpt lat="45.82877903" lon="3.00130631"><ele></ele><time>2014-4-15T14:47:55Z</time></trkpt>
<trkpt lat="45.82867526" lon="3.00103331"><ele></ele><time>2014-4-15T14:47:58Z</time></trkpt>
<trkpt lat="45.82843210" lon="3.00029562"><ele></ele><time>2014-4-15T14:48:1Z</time></trkpt>
<trkpt lat="45.82827922" lon="2.99989748"><ele></ele><time>2014-4-15T14:48:4Z</time></trkpt>
<trkpt lat="45.82804545" lon="2.99957947"><ele></ele><time>2014-4-15T14:48:7Z</time></trkpt>
<trkpt lat="45.82779936" lon="2.99933614"><ele></ele><time>2014-4-15T14:48:10Z</time></trkpt>
<trkpt lat="45.82737037" lon="2.99888939"><ele></ele><time>2014-4-15T14:48:13Z</time></trkpt>
<trkpt lat="45.82717180" lon="2.99861169"><ele></ele><time>2014-4-15T14:48:16Z</time></trkpt>
<trkpt lat="45.82688338" lon="2.99821330"><ele></ele><time>2014-4-15T14:48:19Z</time></trkpt>
<trkpt lat="45.82666151" lon="2.99765817"><ele></ele><time>2014-4-15T14:48:22Z</time></trkpt>
<trkpt lat="45.82641659" lon="2.99693699"><ele></ele><time>2014-4-15T14:48:25Z</time></trkpt>
<trkpt lat="45.82625373" lon="2.99623157"><ele></ele><time>2014-4-15T14:48:28Z</time></trkpt>
<trkpt lat="45.82611233" lon="2.99547175"><ele></ele><time>2014-4-15T14:48:31Z</time></trkpt>
<trkpt lat="45.82588929" lon="2.99459810"><ele></ele><time>2014-4-15T14:48:34Z</time></trkpt>
<trkpt lat="45.82576381" lon="2.99462099"><ele></ele><time>2014-4-15T14:48:37Z</time></trkpt>
<trkpt lat="45.82520415" lon="2.99478318"><ele></ele><time>2014-4-15T14:48:40Z</time></trkpt>
<trkpt lat="45.82454944" lon="2.99492374"><ele></ele><time>2014-4-15T14:48:43Z</time></trkpt>
<trkpt lat="45.82394796" lon="2.99502307"><ele></ele><time>2014-4-15T14:48:46Z</time></trkpt>
<trkpt lat="45.82326911" lon="2.99504695"><ele></ele><time>2014-4-15T14:48:49Z</time></trkpt>
<trkpt lat="45.82247307" lon="2.99517637"><ele></ele><time>2014-4-15T14:48:52Z</time></trkpt>
<trkpt lat="45.82192649" lon="2.99509515"><ele></ele><time>2014-4-15T14:48:55Z</time></trkpt>
<trkpt lat="45.82128611" lon="2.99501108"><ele></ele><time>2014-4-15T14:48:58Z</time></trkpt>
<trkpt lat="45.82068169" lon="2.99503614"><ele></ele><time>2014-4-15T14:49:1Z</time></trkpt>
<trkpt lat="45.82019705" lon="2.99501209"><ele></ele><time>2014-4-15T14:49:4Z</time></trkpt>
<trkpt lat="45.81954033" lon="2.99478946"><ele></ele><time>2014-4-15T14:49:7Z</time></trkpt>
<trkpt lat="45.81889476" lon="2.99452317"><ele></ele><time>2014-4-15T14:49:10Z</time></trkpt>
<trkpt lat="45.81815631" lon="2.99437154"><ele></ele><time>2014-4-15T14:49:13Z</time></trkpt>
<trkpt lat="45.81758098" lon="2.99428336"><ele></ele><time>2014-4-15T14:49:16Z</time></trkpt>
<trkpt lat="45.81725836" lon="2.99420130"><ele></ele><time>2014-4-15T14:49:19Z</time></trkpt>
<trkpt lat="45.81666509" lon="2.99398983"><ele></ele><time>2014-4-15T14:49:22Z</time></trkpt>
<trkpt lat="45.81663961" lon="2.99398740"><ele></ele><time>2014-4-15T14:49:25Z</time></trkpt>
<trkpt lat="45.81613720" lon="2.99400827"><ele></ele><time>2014-4-15T14:49:28Z</time></trkpt>
<trkpt lat="45.81589412" lon="2.99406175"><ele></ele><time>2014-4-15T14:49:31Z</time></trkpt>
<trkpt lat="45.81545231" lon="2.99403878"><ele></ele><time>2014-4-15T14:49:34Z</time></trkpt>
<trkpt lat="45.81500354" lon="2.99402076"><ele></ele><time>2014-4-15T14:49:37Z</time></trkpt>
<trkpt lat="45.81444916" lon="2.99402160"><ele></ele><time>2014-4-15T14:49:40Z</time></trkpt>
<trkpt lat="45.81403250" lon="2.99410039"><ele></ele><time>2014-4-15T14:49:43Z</time></trkpt>
<trkpt lat="45.81370762" lon="2.99416015"><ele></ele><time>2014-4-15T14:49:46Z</time></trkpt>
<trkpt lat="45.81320621" lon="2.99429108"><ele></ele><time>2014-4-15T14:49:49Z</time></trkpt>
<trkpt lat="45.81260095" lon="2.99438403"><ele></ele><time>2014-4-15T14:49:52Z</time></trkpt>
<trkpt lat="45.81215001" lon="2.99445402"><ele></ele><time>2014-4-15T14:49:55Z</time></trkpt>
<trkpt lat="45.81173653" lon="2.99446207"><ele></ele><time>2014-4-15T14:49:58Z</time></trkpt>
<trkpt lat="45.81133596" lon="2.99439442"><ele></ele><time>2014-4-15T14:50:1Z</time></trkpt>
<trkpt lat="45.81092952" lon="2.99427440"><ele></ele><time>2014-4-15T14:50:4Z</time></trkpt>
<trkpt lat="45.81046533" lon="2.99405881"><ele></ele><time>2014-4-15T14:50:7Z</time></trkpt>
<trkpt lat="45.80986778" lon="2.99380576"><ele></ele><time>2014-4-15T14:50:10Z</time></trkpt>
<trkpt lat="45.80934869" lon="2.99364299"><ele></ele><time>2014-4-15T14:50:13Z</time></trkpt>
<trkpt lat="45.80898433" lon="2.99359496"><ele></ele><time>2014-4-15T14:50:16Z</time></trkpt>
<trkpt lat="45.80848158" lon="2.99366218"><ele></ele><time>2014-4-15T14:50:19Z</time></trkpt>
<trkpt lat="45.80802854" lon="2.99378866"><ele></ele><time>2014-4-15T14:50:22Z</time></trkpt>
<trkpt lat="45.80763007" lon="2.99387114"><ele></ele><time>2014-4-15T14:50:25Z</time></trkpt>
<trkpt lat="45.80760350" lon="2.99387994"><ele></ele><time>2014-4-15T14:50:28Z</time></trkpt>
<trkpt lat="45.80732756" lon="2.99387416"><ele></ele><time>2014-4-15T14:50:31Z</time></trkpt>
<trkpt lat="45.80708734" lon="2.99383669"><ele></ele><time>2014-4-15T14:50:34Z</time></trkpt>
<trkpt lat="45.80664670" lon="2.99362966"><ele></ele><time>2014-4-15T14:50:37Z</time></trkpt>
<trkpt lat="45.80627739" lon="2.99320537"><ele></ele><time>2014-4-15T14:50:40Z</time></trkpt>
<trkpt lat="45.80589761" lon="2.99280949"><ele></ele><time>2014-4-15T14:50:43Z</time></trkpt>
<trkpt lat="45.80535010" lon="2.99240079"><ele></ele><time>2014-4-15T14:50:46Z</time></trkpt>
<trkpt lat="45.80489689" lon="2.99193702"><ele></ele><time>2014-4-15T14:50:49Z</time></trkpt>
<trkpt lat="45.80446062" lon="2.99125565"><ele></ele><time>2014-4-15T14:50:52Z</time></trkpt>
<trkpt lat="45.80441971" lon="2.99120100"><ele></ele><time>2014-4-15T14:50:55Z</time></trkpt>
<trkpt lat="45.80427261" lon="2.99065509"><ele></ele><time>2014-4-15T14:50:58Z</time></trkpt>
<trkpt lat="45.80416809" lon="2.98995847"><ele></ele><time>2014-4-15T14:51:1Z</time></trkpt>
<trkpt lat="45.80408569" lon="2.98925607"><ele></ele><time>2014-4-15T14:51:4Z</time></trkpt>
<trkpt lat="45.80387665" lon="2.98898206"><ele></ele><time>2014-4-15T14:51:7Z</time></trkpt>
<trkpt lat="45.80381915" lon="2.98890813"><ele></ele><time>2014-4-15T14:51:10Z</time></trkpt>
<trkpt lat="45.80369812" lon="2.98859549"><ele></ele><time>2014-4-15T14:51:13Z</time></trkpt>
<trkpt lat="45.80373064" lon="2.98804815"><ele></ele><time>2014-4-15T14:51:16Z</time></trkpt>
<trkpt lat="45.80366417" lon="2.98777347"><ele></ele><time>2014-4-15T14:51:19Z</time></trkpt>
<trkpt lat="45.80383533" lon="2.98764196"><ele></ele><time>2014-4-15T14:51:22Z</time></trkpt>
<trkpt lat="45.80396801" lon="2.98754850"><ele></ele><time>2014-4-15T14:51:25Z</time></trkpt>
<trkpt lat="45.80403540" lon="2.98746578"><ele></ele><time>2014-4-15T14:51:28Z</time></trkpt>
<trkpt lat="45.80402166" lon="2.98741749"><ele></ele><time>2014-4-15T14:51:31Z</time></trkpt>
<trkpt lat="45.80400104" lon="2.98732236"><ele></ele><time>2014-4-15T14:51:34Z</time></trkpt>
<trkpt lat="45.80398058" lon="2.98717174"><ele></ele><time>2014-4-15T14:51:37Z</time></trkpt>
<trkpt lat="45.80387774" lon="2.98713964"><ele></ele><time>2014-4-15T14:51:40Z</time></trkpt>
<trkpt lat="45.80386483" lon="2.98715330"><ele></ele><time>2014-4-15T14:51:43Z</time></trkpt>
<trkpt lat="45.80385863" lon="2.98716620"><ele></ele><time>2014-4-15T14:51:46Z</time></trkpt>
<trkpt lat="45.80383348" lon="2.98709018"><ele></ele><time>2014-4-15T14:51:49Z</time></trkpt>
<trkpt lat="45.80383876" lon="2.98711801"><ele></ele><time>2014-4-15T14:51:52Z</time></trkpt>
<trkpt lat="45.80384128" lon="2.98709714"><ele></ele><time>2014-4-15T14:51:55Z</time></trkpt>
<trkpt lat="45.80385502" lon="2.98709731"><ele></ele><time>2014-4-15T14:51:58Z</time></trkpt>
<trkpt lat="45.80385771" lon="2.98710728"><ele></ele><time>2014-4-15T14:52:1Z</time></trkpt>
<trkpt lat="45.80377146" lon="2.98713553"><ele></ele><time>2014-4-15T14:52:4Z</time></trkpt>
<trkpt lat="45.80374413" lon="2.98699169"><ele></ele><time>2014-4-15T14:52:7Z</time></trkpt>
<trkpt lat="45.80374313" lon="2.98698557"><ele></ele><time>2014-4-15T14:52:10Z</time></trkpt>
<trkpt lat="45.80361849" lon="2.98667193"><ele></ele><time>2014-4-15T14:52:13Z</time></trkpt>
<trkpt lat="45.80346988" lon="2.98645718"><ele></ele><time>2014-4-15T14:52:16Z</time></trkpt>
<trkpt lat="45.80340508" lon="2.98636791"><ele></ele><time>2014-4-15T14:52:19Z</time></trkpt>
<trkpt lat="45.80339184" lon="2.98634235"><ele></ele><time>2014-4-15T14:52:22Z</time></trkpt>
<trkpt lat="45.80348178" lon="2.98589945"><ele></ele><time>2014-4-15T14:52:25Z</time></trkpt>
<trkpt lat="45.80360793" lon="2.98545102"><ele></ele><time>2014-4-15T14:52:28Z</time></trkpt>
<trkpt lat="45.80328866" lon="2.98504315"><ele></ele><time>2014-4-15T14:52:31Z</time></trkpt>
<trkpt lat="45.80308012" lon="2.98488222"><ele></ele><time>2014-4-15T14:52:34Z</time></trkpt>
<trkpt lat="45.80310551" lon="2.98477124"><ele></ele><time>2014-4-15T14:52:37Z</time></trkpt>
<trkpt lat="45.80350902" lon="2.98440403"><ele></ele><time>2014-4-15T14:52:40Z</time></trkpt>
<trkpt lat="45.80370650" lon="2.98406272"><ele></ele><time>2014-4-15T14:52:43Z</time></trkpt>
<trkpt lat="45.80371404" lon="2.98391403"><ele></ele><time>2014-4-15T14:52:46Z</time></trkpt>
<trkpt lat="45.80348195" lon="2.98344489"><ele></ele><time>2014-4-15T14:52:49Z</time></trkpt>
<trkpt lat="45.80340936" lon="2.98313443"><ele></ele><time>2014-4-15T14:52:52Z</time></trkpt>
<trkpt lat="45.80373676" lon="2.98248827"><ele></ele><time>2014-4-15T14:52:55Z</time></trkpt>
<trkpt lat="45.80375503" lon="2.98239145"><ele></ele><time>2014-4-15T14:52:58Z</time></trkpt>
<trkpt lat="45.80374598" lon="2.98222826"><ele></ele><time>2014-4-15T14:53:1Z</time></trkpt>
<trkpt lat="45.80380700" lon="2.98171436"><ele></ele><time>2014-4-15T14:53:4Z</time></trkpt>
<trkpt lat="45.80396164" lon="2.98123274"><ele></ele><time>2014-4-15T14:53:7Z</time></trkpt>
<trkpt lat="45.80404052" lon="2.98082069"><ele></ele><time>2014-4-15T14:53:10Z</time></trkpt>
<trkpt lat="45.80404814" lon="2.98080040"><ele></ele><time>2014-4-15T14:53:13Z</time></trkpt>
<trkpt lat="45.80411419" lon="2.98057535"><ele></ele><time>2014-4-15T14:53:16Z</time></trkpt>
<trkpt lat="45.80420874" lon="2.98026580"><ele></ele><time>2014-4-15T14:53:19Z</time></trkpt>
<trkpt lat="45.80428443" lon="2.98006615"><ele></ele><time>2014-4-15T14:53:22Z</time></trkpt>
<trkpt lat="45.80437588" lon="2.97980824"><ele></ele><time>2014-4-15T14:53:25Z</time></trkpt>
<trkpt lat="45.80438535" lon="2.97976658"><ele></ele><time>2014-4-15T14:53:28Z</time></trkpt>
<trkpt lat="45.80439197" lon="2.97971972"><ele></ele><time>2014-4-15T14:53:31Z</time></trkpt>
<trkpt lat="45.80446581" lon="2.97941127"><ele></ele><time>2014-4-15T14:53:34Z</time></trkpt>
<trkpt lat="45.80455625" lon="2.97866838"><ele></ele><time>2014-4-15T14:53:37Z</time></trkpt>
<trkpt lat="45.80458626" lon="2.97778149"><ele></ele><time>2014-4-15T14:53:40Z</time></trkpt>
<trkpt lat="45.80461350" lon="2.97686267"><ele></ele><time>2014-4-15T14:53:43Z</time></trkpt>
<trkpt lat="45.80459758" lon="2.97647324"><ele></ele><time>2014-4-15T14:53:46Z</time></trkpt>
<trkpt lat="45.80462189" lon="2.97614769"><ele></ele><time>2014-4-15T14:53:49Z</time></trkpt>
<trkpt lat="45.80451787" lon="2.97528938"><ele></ele><time>2014-4-15T14:53:52Z</time></trkpt>
<trkpt lat="45.80449817" lon="2.97521068"><ele></ele><time>2014-4-15T14:53:55Z</time></trkpt>
<trkpt lat="45.80433480" lon="2.97481765"><ele></ele><time>2014-4-15T14:53:58Z</time></trkpt>
<trkpt lat="45.80383315" lon="2.97370311"><ele></ele><time>2014-4-15T14:54:1Z</time></trkpt>
<trkpt lat="45.80372066" lon="2.97326373"><ele></ele><time>2014-4-15T14:54:4Z</time></trkpt>
<trkpt lat="45.80363575" lon="2.97271052"><ele></ele><time>2014-4-15T14:54:7Z</time></trkpt>
<trkpt lat="45.80364875" lon="2.97254758"><ele></ele><time>2014-4-15T14:54:10Z</time></trkpt>
<trkpt lat="45.80345420" lon="2.97167511"><ele></ele><time>2014-4-15T14:54:13Z</time></trkpt>
<trkpt lat="45.80335789" lon="2.97040030"><ele></ele><time>2014-4-15T14:54:16Z</time></trkpt>
<trkpt lat="45.80314424" lon="2.96953546"><ele></ele><time>2014-4-15T14:54:19Z</time></trkpt>
<trkpt lat="45.80289689" lon="2.96858470"><ele></ele><time>2014-4-15T14:54:22Z</time></trkpt>
<trkpt lat="45.80244443" lon="2.96724812"><ele></ele><time>2014-4-15T14:54:25Z</time></trkpt>
<trkpt lat="45.80227914" lon="2.96665032"><ele></ele><time>2014-4-15T14:54:28Z</time></trkpt>
<trkpt lat="45.80209088" lon="2.96631178"><ele></ele><time>2014-4-15T14:54:31Z</time></trkpt>
<trkpt lat="45.80183968" lon="2.96570535"><ele></ele><time>2014-4-15T14:54:34Z</time></trkpt>
<trkpt lat="45.80160381" lon="2.96501175"><ele></ele><time>2014-4-15T14:54:37Z</time></trkpt>
<trkpt lat="45.80148571" lon="2.96465141"><ele></ele><time>2014-4-15T14:54:40Z</time></trkpt>
<trkpt lat="45.80127549" lon="2.96439190"><ele></ele><time>2014-4-15T14:54:43Z</time></trkpt>
<trkpt lat="45.80119536" lon="2.96405788"><ele></ele><time>2014-4-15T14:54:46Z</time></trkpt>
<trkpt lat="45.80077727" lon="2.96302297"><ele></ele><time>2014-4-15T14:54:49Z</time></trkpt>
<trkpt lat="45.80060897" lon="2.96264134"><ele></ele><time>2014-4-15T14:54:52Z</time></trkpt>
<trkpt lat="45.80058298" lon="2.96258016"><ele></ele><time>2014-4-15T14:54:55Z</time></trkpt>
<trkpt lat="45.80046463" lon="2.96229098"><ele></ele><time>2014-4-15T14:54:58Z</time></trkpt>
<trkpt lat="45.80044116" lon="2.96223356"><ele></ele><time>2014-4-15T14:55:1Z</time></trkpt>
<trkpt lat="45.80036983" lon="2.96204899"><ele></ele><time>2014-4-15T14:55:4Z</time></trkpt>
<trkpt lat="45.80006464" lon="2.96121013"><ele></ele><time>2014-4-15T14:55:7Z</time></trkpt>
<trkpt lat="45.80001988" lon="2.96068635"><ele></ele><time>2014-4-15T14:55:10Z</time></trkpt>
<trkpt lat="45.80002391" lon="2.96024152"><ele></ele><time>2014-4-15T14:55:13Z</time></trkpt>
<trkpt lat="45.80001704" lon="2.95980365"><ele></ele><time>2014-4-15T14:55:16Z</time></trkpt>
<trkpt lat="45.80001360" lon="2.95958472"><ele></ele><time>2014-4-15T14:55:19Z</time></trkpt>
<trkpt lat="45.80001016" lon="2.95936578"><ele></ele><time>2014-4-15T14:55:22Z</time></trkpt>
<trkpt lat="45.80000555" lon="2.95907384"><ele></ele><time>2014-4-15T14:55:25Z</time></trkpt>
<trkpt lat="45.79999122" lon="2.95848157"><ele></ele><time>2014-4-15T14:55:28Z</time></trkpt>
<trkpt lat="45.79992475" lon="2.95691642"><ele></ele><time>2014-4-15T14:55:31Z</time></trkpt>
<trkpt lat="45.79958017" lon="2.95552930"><ele></ele><time>2014-4-15T14:55:34Z</time></trkpt>
<trkpt lat="45.79893719" lon="2.95502211"><ele></ele><time>2014-4-15T14:55:37Z</time></trkpt>
<trkpt lat="45.79889512" lon="2.95498246"><ele></ele><time>2014-4-15T14:55:40Z</time></trkpt>
<trkpt lat="45.79861742" lon="2.95419943"><ele></ele><time>2014-4-15T14:55:43Z</time></trkpt>
<trkpt lat="45.79794997" lon="2.95360398"><ele></ele><time>2014-4-15T14:55:46Z</time></trkpt>
<trkpt lat="45.79771830" lon="2.95307608"><ele></ele><time>2014-4-15T14:55:49Z</time></trkpt>
<trkpt lat="45.79736844" lon="2.95273318"><ele></ele><time>2014-4-15T14:55:52Z</time></trkpt>
<trkpt lat="45.79685823" lon="2.95213111"><ele></ele><time>2014-4-15T14:55:55Z</time></trkpt>
<trkpt lat="45.79667718" lon="2.95195794"><ele></ele><time>2014-4-15T14:55:58Z</time></trkpt>
<trkpt lat="45.79648666" lon="2.95161269"><ele></ele><time>2014-4-15T14:56:1Z</time></trkpt>
<trkpt lat="45.79602993" lon="2.95084524"><ele></ele><time>2014-4-15T14:56:4Z</time></trkpt>
<trkpt lat="45.79563269" lon="2.95014828"><ele></ele><time>2014-4-15T14:56:7Z</time></trkpt>
<trkpt lat="45.79614928" lon="2.95028266"><ele></ele><time>2014-4-15T14:56:10Z</time></trkpt>
<trkpt lat="45.79686900" lon="2.95029069"><ele></ele><time>2014-4-15T14:56:13Z</time></trkpt>
<trkpt lat="45.79731952" lon="2.95016709"><ele></ele><time>2014-4-15T14:56:16Z</time></trkpt>
<trkpt lat="45.79772419" lon="2.95020375"><ele></ele><time>2014-4-15T14:56:19Z</time></trkpt>
<trkpt lat="45.79806226" lon="2.95007890"><ele></ele><time>2014-4-15T14:56:22Z</time></trkpt>
<trkpt lat="45.79840015" lon="2.94998619"><ele></ele><time>2014-4-15T14:56:25Z</time></trkpt>
<trkpt lat="45.79869289" lon="2.94992514"><ele></ele><time>2014-4-15T14:56:28Z</time></trkpt>
<trkpt lat="45.79918787" lon="2.94989850"><ele></ele><time>2014-4-15T14:56:31Z</time></trkpt>
<trkpt lat="45.79961625" lon="2.94971033"><ele></ele><time>2014-4-15T14:56:34Z</time></trkpt>
<trkpt lat="45.79995467" lon="2.94952116"><ele></ele><time>2014-4-15T14:56:37Z</time></trkpt>
<trkpt lat="45.80029344" lon="2.94926767"><ele></ele><time>2014-4-15T14:56:40Z</time></trkpt>
<trkpt lat="45.80072148" lon="2.94914380"><ele></ele><time>2014-4-15T14:56:43Z</time></trkpt>
<trkpt lat="45.80112597" lon="2.94921262"><ele></ele><time>2014-4-15T14:56:46Z</time></trkpt>
<trkpt lat="45.80144032" lon="2.94931260"><ele></ele><time>2014-4-15T14:56:49Z</time></trkpt>
<trkpt lat="45.80198168" lon="2.94902920"><ele></ele><time>2014-4-15T14:56:52Z</time></trkpt>
<trkpt lat="45.80241164" lon="2.94855160"><ele></ele><time>2014-4-15T14:56:55Z</time></trkpt>
<trkpt lat="45.80266237" lon="2.94794336"><ele></ele><time>2014-4-15T14:56:58Z</time></trkpt>
<trkpt lat="45.80302415" lon="2.94759363"><ele></ele><time>2014-4-15T14:57:1Z</time></trkpt>
<trkpt lat="45.80334199" lon="2.94705045"><ele></ele><time>2014-4-15T14:57:4Z</time></trkpt>
<trkpt lat="45.80348077" lon="2.94634448"><ele></ele><time>2014-4-15T14:57:7Z</time></trkpt>
<trkpt lat="45.80346316" lon="2.94544382"><ele></ele><time>2014-4-15T14:57:10Z</time></trkpt>
<trkpt lat="45.80377640" lon="2.94495603"><ele></ele><time>2014-4-15T14:57:13Z</time></trkpt>
<trkpt lat="45.80385586" lon="2.94488789"><ele></ele><time>2014-4-15T14:57:16Z</time></trkpt>
<trkpt lat="45.80409424" lon="2.94468362"><ele></ele><time>2014-4-15T14:57:19Z</time></trkpt>
<trkpt lat="45.80433657" lon="2.94422798"><ele></ele><time>2014-4-15T14:57:22Z</time></trkpt>
<trkpt lat="45.80460562" lon="2.94365843"><ele></ele><time>2014-4-15T14:57:25Z</time></trkpt>
<trkpt lat="45.80488826" lon="2.94301545"><ele></ele><time>2014-4-15T14:57:28Z</time></trkpt>
<trkpt lat="45.80542906" lon="2.94133849"><ele></ele><time>2014-4-15T14:57:31Z</time></trkpt>
<trkpt lat="45.80536536" lon="2.94105476"><ele></ele><time>2014-4-15T14:57:34Z</time></trkpt>
<trkpt lat="45.80528213" lon="2.94097002"><ele></ele><time>2014-4-15T14:57:37Z</time></trkpt>
<trkpt lat="45.80500376" lon="2.94031195"><ele></ele><time>2014-4-15T14:57:40Z</time></trkpt>
<trkpt lat="45.80489748" lon="2.93925525"><ele></ele><time>2014-4-15T14:57:43Z</time></trkpt>
<trkpt lat="45.80491668" lon="2.93912658"><ele></ele><time>2014-4-15T14:57:46Z</time></trkpt>
<trkpt lat="45.80503235" lon="2.93881084"><ele></ele><time>2014-4-15T14:57:49Z</time></trkpt>
<trkpt lat="45.80513553" lon="2.93865359"><ele></ele><time>2014-4-15T14:57:52Z</time></trkpt>
<trkpt lat="45.80584581" lon="2.93797592"><ele></ele><time>2014-4-15T14:57:55Z</time></trkpt>
<trkpt lat="45.80629441" lon="2.93774902"><ele></ele><time>2014-4-15T14:57:58Z</time></trkpt>
<trkpt lat="45.80638636" lon="2.93772094"><ele></ele><time>2014-4-15T14:58:1Z</time></trkpt>
<trkpt lat="45.80645149" lon="2.93771516"><ele></ele><time>2014-4-15T14:58:4Z</time></trkpt>
<trkpt lat="45.80688634" lon="2.93741877"><ele></ele><time>2014-4-15T14:58:7Z</time></trkpt>
<trkpt lat="45.80736964" lon="2.93706556"><ele></ele><time>2014-4-15T14:58:10Z</time></trkpt>
<trkpt lat="45.80764574" lon="2.93664755"><ele></ele><time>2014-4-15T14:58:13Z</time></trkpt>
<trkpt lat="45.80774926" lon="2.93590073"><ele></ele><time>2014-4-15T14:58:16Z</time></trkpt>
<trkpt lat="45.80776074" lon="2.93546906"><ele></ele><time>2014-4-15T14:58:19Z</time></trkpt>
<trkpt lat="45.80790692" lon="2.93411505"><ele></ele><time>2014-4-15T14:58:22Z</time></trkpt>
<trkpt lat="45.80793290" lon="2.93391556"><ele></ele><time>2014-4-15T14:58:25Z</time></trkpt>
<trkpt lat="45.80842735" lon="2.93275718"><ele></ele><time>2014-4-15T14:58:28Z</time></trkpt>
<trkpt lat="45.80858820" lon="2.93251368"><ele></ele><time>2014-4-15T14:58:31Z</time></trkpt>
<trkpt lat="45.80893840" lon="2.93237622"><ele></ele><time>2014-4-15T14:58:34Z</time></trkpt>
<trkpt lat="45.80946746" lon="2.93231956"><ele></ele><time>2014-4-15T14:58:37Z</time></trkpt>
<trkpt lat="45.80964767" lon="2.93231025"><ele></ele><time>2014-4-15T14:58:40Z</time></trkpt>
<trkpt lat="45.81019585" lon="2.93218235"><ele></ele><time>2014-4-15T14:58:43Z</time></trkpt>
<trkpt lat="45.81029761" lon="2.93178337"><ele></ele><time>2014-4-15T14:58:46Z</time></trkpt>
<trkpt lat="45.80997071" lon="2.93108038"><ele></ele><time>2014-4-15T14:58:49Z</time></trkpt>
<trkpt lat="45.80981623" lon="2.93074485"><ele></ele><time>2014-4-15T14:58:52Z</time></trkpt>
<trkpt lat="45.80975689" lon="2.93002560"><ele></ele><time>2014-4-15T14:58:55Z</time></trkpt>
<trkpt lat="45.80982311" lon="2.92971044"><ele></ele><time>2014-4-15T14:58:58Z</time></trkpt>
<trkpt lat="45.80976251" lon="2.92896713"><ele></ele><time>2014-4-15T14:59:1Z</time></trkpt>
<trkpt lat="45.80965019" lon="2.92720953"><ele></ele><time>2014-4-15T14:59:4Z</time></trkpt>
<trkpt lat="45.80964784" lon="2.92615173"><ele></ele><time>2014-4-15T14:59:7Z</time></trkpt>
<trkpt lat="45.80979302" lon="2.92593707"><ele></ele><time>2014-4-15T14:59:10Z</time></trkpt>
<trkpt lat="45.80991782" lon="2.92577513"><ele></ele><time>2014-4-15T14:59:13Z</time></trkpt>
<trkpt lat="45.81001296" lon="2.92568570"><ele></ele><time>2014-4-15T14:59:16Z</time></trkpt>
<trkpt lat="45.81061436" lon="2.92536224"><ele></ele><time>2014-4-15T14:59:19Z</time></trkpt>
<trkpt lat="45.81086129" lon="2.92525588"><ele></ele><time>2014-4-15T14:59:22Z</time></trkpt>
<trkpt lat="45.81106327" lon="2.92475000"><ele></ele><time>2014-4-15T14:59:25Z</time></trkpt>
<trkpt lat="45.81120006" lon="2.92439766"><ele></ele><time>2014-4-15T14:59:28Z</time></trkpt>
<trkpt lat="45.81147264" lon="2.92388594"><ele></ele><time>2014-4-15T14:59:31Z</time></trkpt>
<trkpt lat="45.81176628" lon="2.92361931"><ele></ele><time>2014-4-15T14:59:34Z</time></trkpt>
<trkpt lat="45.81184935" lon="2.92356793"><ele></ele><time>2014-4-15T14:59:37Z</time></trkpt>
<trkpt lat="45.81205186" lon="2.92336308"><ele></ele><time>2014-4-15T14:59:40Z</time></trkpt>
<trkpt lat="45.81212914" lon="2.92324917"><ele></ele><time>2014-4-15T14:59:43Z</time></trkpt>
<trkpt lat="45.81219745" lon="2.92294331"><ele></ele><time>2014-4-15T14:59:46Z</time></trkpt>
<trkpt lat="45.81220474" lon="2.92245682"><ele></ele><time>2014-4-15T14:59:49Z</time></trkpt>
<trkpt lat="45.81235952" lon="2.92202986"><ele></ele><time>2014-4-15T14:59:52Z</time></trkpt>
<trkpt lat="45.81247349" lon="2.92174159"><ele></ele><time>2014-4-15T14:59:55Z</time></trkpt>
<trkpt lat="45.81276738" lon="2.92145523"><ele></ele><time>2014-4-15T14:59:58Z</time></trkpt>
<trkpt lat="45.81306227" lon="2.92097589"><ele></ele><time>2014-4-15T15:0:1Z</time></trkpt>
<trkpt lat="45.81324454" lon="2.92052751"><ele></ele><time>2014-4-15T15:0:4Z</time></trkpt>
<trkpt lat="45.81342664" lon="2.92011130"><ele></ele><time>2014-4-15T15:0:7Z</time></trkpt>
<trkpt lat="45.81354043" lon="2.91985518"><ele></ele><time>2014-4-15T15:0:10Z</time></trkpt>
<trkpt lat="45.81376718" lon="2.91950377"><ele></ele><time>2014-4-15T15:0:13Z</time></trkpt>
<trkpt lat="45.81358741" lon="2.91946970"><ele></ele><time>2014-4-15T15:0:16Z</time></trkpt>
<trkpt lat="45.81316058" lon="2.91936868"><ele></ele><time>2014-4-15T15:0:19Z</time></trkpt>
<trkpt lat="45.81287647" lon="2.91925167"><ele></ele><time>2014-4-15T15:0:22Z</time></trkpt>
<trkpt lat="45.81256701" lon="2.91922778"><ele></ele><time>2014-4-15T15:0:25Z</time></trkpt>
<trkpt lat="45.81252493" lon="2.91922744"><ele></ele><time>2014-4-15T15:0:28Z</time></trkpt>
<trkpt lat="45.81221052" lon="2.91920364"><ele></ele><time>2014-4-15T15:0:31Z</time></trkpt>
<trkpt lat="45.81190559" lon="2.91919140"><ele></ele><time>2014-4-15T15:0:34Z</time></trkpt>
<trkpt lat="45.81188564" lon="2.91919157"><ele></ele><time>2014-4-15T15:0:37Z</time></trkpt>
<trkpt lat="45.81122808" lon="2.91919576"><ele></ele><time>2014-4-15T15:0:40Z</time></trkpt>
<trkpt lat="45.81087705" lon="2.91916776"><ele></ele><time>2014-4-15T15:0:43Z</time></trkpt>
<trkpt lat="45.81005778" lon="2.91914284"><ele></ele><time>2014-4-15T15:0:46Z</time></trkpt>
<trkpt lat="45.80938471" lon="2.91881408"><ele></ele><time>2014-4-15T15:0:49Z</time></trkpt>
<trkpt lat="45.80873163" lon="2.91896798"><ele></ele><time>2014-4-15T15:0:52Z</time></trkpt>
<trkpt lat="45.80840875" lon="2.91943448"><ele></ele><time>2014-4-15T15:0:55Z</time></trkpt>
<trkpt lat="45.80800658" lon="2.91998950"><ele></ele><time>2014-4-15T15:0:58Z</time></trkpt>
<trkpt lat="45.80751310" lon="2.91972697"><ele></ele><time>2014-4-15T15:1:1Z</time></trkpt>
<trkpt lat="45.80710826" lon="2.91972268"><ele></ele><time>2014-4-15T15:1:4Z</time></trkpt>
<trkpt lat="45.80677256" lon="2.91939751"><ele></ele><time>2014-4-15T15:1:7Z</time></trkpt>
<trkpt lat="45.80639054" lon="2.91932914"><ele></ele><time>2014-4-15T15:1:10Z</time></trkpt>
<trkpt lat="45.80618995" lon="2.91897324"><ele></ele><time>2014-4-15T15:1:13Z</time></trkpt>
<trkpt lat="45.80592122" lon="2.91874527"><ele></ele><time>2014-4-15T15:1:16Z</time></trkpt>
<trkpt lat="45.80563100" lon="2.91832411"><ele></ele><time>2014-4-15T15:1:19Z</time></trkpt>
<trkpt lat="45.80565714" lon="2.91761685"><ele></ele><time>2014-4-15T15:1:22Z</time></trkpt>
<trkpt lat="45.80536658" lon="2.91726002"><ele></ele><time>2014-4-15T15:1:25Z</time></trkpt>
<trkpt lat="45.80505552" lon="2.91651705"><ele></ele><time>2014-4-15T15:1:28Z</time></trkpt>
<trkpt lat="45.80429264" lon="2.91615525"><ele></ele><time>2014-4-15T15:1:31Z</time></trkpt>
<trkpt lat="45.80357424" lon="2.91589041"><ele></ele><time>2014-4-15T15:1:34Z</time></trkpt>
<trkpt lat="45.80301246" lon="2.91578802"><ele></ele><time>2014-4-15T15:1:37Z</time></trkpt>
<trkpt lat="45.80229141" lon="2.91603770"><ele></ele><time>2014-4-15T15:1:40Z</time></trkpt>
<trkpt lat="45.80206799" lon="2.91574592"><ele></ele><time>2014-4-15T15:1:43Z</time></trkpt>
<trkpt lat="45.80189170" lon="2.91503657"><ele></ele><time>2014-4-15T15:1:46Z</time></trkpt>
<trkpt lat="45.80166910" lon="2.91458402"><ele></ele><time>2014-4-15T15:1:49Z</time></trkpt>
<trkpt lat="45.80119959" lon="2.91403240"><ele></ele><time>2014-4-15T15:1:52Z</time></trkpt>
<trkpt lat="45.80116678" lon="2.91346321"><ele></ele><time>2014-4-15T15:1:55Z</time></trkpt>
<trkpt lat="45.80115923" lon="2.91313155"><ele></ele><time>2014-4-15T15:1:58Z</time></trkpt>
<trkpt lat="45.80116544" lon="2.91309776"><ele></ele><time>2014-4-15T15:2:1Z</time></trkpt>
<trkpt lat="45.80111655" lon="2.91268089"><ele></ele><time>2014-4-15T15:2:4Z</time></trkpt>
<trkpt lat="45.80105073" lon="2.91235862"><ele></ele><time>2014-4-15T15:2:7Z</time></trkpt>
<trkpt lat="45.80105221" lon="2.91206921"><ele></ele><time>2014-4-15T15:2:10Z</time></trkpt>
<trkpt lat="45.80103185" lon="2.91165094"><ele></ele><time>2014-4-15T15:2:13Z</time></trkpt>
<trkpt lat="45.80114661" lon="2.91120193"><ele></ele><time>2014-4-15T15:2:16Z</time></trkpt>
<trkpt lat="45.80137382" lon="2.91075409"><ele></ele><time>2014-4-15T15:2:19Z</time></trkpt>
<trkpt lat="45.80162287" lon="2.91043510"><ele></ele><time>2014-4-15T15:2:22Z</time></trkpt>
<trkpt lat="45.80200505" lon="2.91047125"><ele></ele><time>2014-4-15T15:2:25Z</time></trkpt>
<trkpt lat="45.80234374" lon="2.91021751"><ele></ele><time>2014-4-15T15:2:28Z</time></trkpt>
<trkpt lat="45.80235659" lon="2.90966663"><ele></ele><time>2014-4-15T15:2:31Z</time></trkpt>
<trkpt lat="45.80241527" lon="2.90954216"><ele></ele><time>2014-4-15T15:2:34Z</time></trkpt>
<trkpt lat="45.80250319" lon="2.90935541"><ele></ele><time>2014-4-15T15:2:37Z</time></trkpt>
<trkpt lat="45.80267913" lon="2.90898191"><ele></ele><time>2014-4-15T15:2:40Z</time></trkpt>
<trkpt lat="45.80246520" lon="2.90845004"><ele></ele><time>2014-4-15T15:2:43Z</time></trkpt>
<trkpt lat="45.80226474" lon="2.90806205"><ele></ele><time>2014-4-15T15:2:46Z</time></trkpt>
<trkpt lat="45.80215424" lon="2.90767500"><ele></ele><time>2014-4-15T15:2:49Z</time></trkpt>
<trkpt lat="45.80204358" lon="2.90732010"><ele></ele><time>2014-4-15T15:2:52Z</time></trkpt>
<trkpt lat="45.80209052" lon="2.90693469"><ele></ele><time>2014-4-15T15:2:55Z</time></trkpt>
<trkpt lat="45.80209198" lon="2.90664527"><ele></ele><time>2014-4-15T15:2:58Z</time></trkpt>
<trkpt lat="45.80216190" lon="2.90616362"><ele></ele><time>2014-4-15T15:3:1Z</time></trkpt>
<trkpt lat="45.80214153" lon="2.90574535"><ele></ele><time>2014-4-15T15:3:4Z</time></trkpt>
<trkpt lat="45.80212066" lon="2.90542354"><ele></ele><time>2014-4-15T15:3:7Z</time></trkpt>
<trkpt lat="45.80205514" lon="2.90503696"><ele></ele><time>2014-4-15T15:3:10Z</time></trkpt>
<trkpt lat="45.80199042" lon="2.90448960"><ele></ele><time>2014-4-15T15:3:13Z</time></trkpt>
<trkpt lat="45.80206147" lon="2.90378284"><ele></ele><time>2014-4-15T15:3:16Z</time></trkpt>
<trkpt lat="45.80188218" lon="2.90365236"><ele></ele><time>2014-4-15T15:3:19Z</time></trkpt>
<trkpt lat="45.80163429" lon="2.90374628"><ele></ele><time>2014-4-15T15:3:22Z</time></trkpt>
<trkpt lat="45.80136407" lon="2.90380781"><ele></ele><time>2014-4-15T15:3:25Z</time></trkpt>
<trkpt lat="45.80116084" lon="2.90396651"><ele></ele><time>2014-4-15T15:3:28Z</time></trkpt>
<trkpt lat="45.80100324" lon="2.90399704"><ele></ele><time>2014-4-15T15:3:31Z</time></trkpt>
<trkpt lat="45.80073399" lon="2.90386564"><ele></ele><time>2014-4-15T15:3:34Z</time></trkpt>
<trkpt lat="45.80037430" lon="2.90382977"><ele></ele><time>2014-4-15T15:3:37Z</time></trkpt>
<trkpt lat="45.80001379" lon="2.90395469"><ele></ele><time>2014-4-15T15:3:40Z</time></trkpt>
<trkpt lat="45.79960813" lon="2.90411129"><ele></ele><time>2014-4-15T15:3:43Z</time></trkpt>
<trkpt lat="45.79933580" lon="2.90459084"><ele></ele><time>2014-4-15T15:3:46Z</time></trkpt>
<trkpt lat="45.79913322" lon="2.90462090"><ele></ele><time>2014-4-15T15:3:49Z</time></trkpt>
<trkpt lat="45.79868291" lon="2.90471272"><ele></ele><time>2014-4-15T15:3:52Z</time></trkpt>
<trkpt lat="45.79839020" lon="2.90477402"><ele></ele><time>2014-4-15T15:3:55Z</time></trkpt>
<trkpt lat="45.79789620" lon="2.90460814"><ele></ele><time>2014-4-15T15:3:58Z</time></trkpt>
<trkpt lat="45.79756029" lon="2.90431526"><ele></ele><time>2014-4-15T15:4:1Z</time></trkpt>
<trkpt lat="45.79727034" lon="2.90382994"><ele></ele><time>2014-4-15T15:4:4Z</time></trkpt>
<trkpt lat="45.79711623" lon="2.90345530"><ele></ele><time>2014-4-15T15:4:7Z</time></trkpt>
<trkpt lat="45.79707197" lon="2.90302400"><ele></ele><time>2014-4-15T15:4:10Z</time></trkpt>
<trkpt lat="45.79705174" lon="2.90257361"><ele></ele><time>2014-4-15T15:4:13Z</time></trkpt>
<trkpt lat="45.79707520" lon="2.90238092"><ele></ele><time>2014-4-15T15:4:16Z</time></trkpt>
<trkpt lat="45.79714429" lon="2.90206007"><ele></ele><time>2014-4-15T15:4:19Z</time></trkpt>
<trkpt lat="45.79746600" lon="2.90137776"><ele></ele><time>2014-4-15T15:4:22Z</time></trkpt>
<trkpt lat="45.79778148" lon="2.90058744"><ele></ele><time>2014-4-15T15:4:25Z</time></trkpt>
<trkpt lat="45.79783741" lon="2.89992861"><ele></ele><time>2014-4-15T15:4:28Z</time></trkpt>
<trkpt lat="45.79788543" lon="2.89970943"><ele></ele><time>2014-4-15T15:4:31Z</time></trkpt>
<trkpt lat="45.79785777" lon="2.89857309"><ele></ele><time>2014-4-15T15:4:34Z</time></trkpt>
<trkpt lat="45.79779801" lon="2.89798686"><ele></ele><time>2014-4-15T15:4:37Z</time></trkpt>
<trkpt lat="45.79772819" lon="2.89695748"><ele></ele><time>2014-4-15T15:4:40Z</time></trkpt>
<trkpt lat="45.79787470" lon="2.89591863"><ele></ele><time>2014-4-15T15:4:43Z</time></trkpt>
<trkpt lat="45.79815650" lon="2.89506619"><ele></ele><time>2014-4-15T15:4:46Z</time></trkpt>
<trkpt lat="45.79821048" lon="2.89401795"><ele></ele><time>2014-4-15T15:4:49Z</time></trkpt>
<trkpt lat="45.79813463" lon="2.89319635"><ele></ele><time>2014-4-15T15:4:52Z</time></trkpt>
<trkpt lat="45.79798702" lon="2.89205239"><ele></ele><time>2014-4-15T15:4:55Z</time></trkpt>
<trkpt lat="45.79791762" lon="2.89153758"><ele></ele><time>2014-4-15T15:4:58Z</time></trkpt>
<trkpt lat="45.79785216" lon="2.89114882"><ele></ele><time>2014-4-15T15:5:1Z</time></trkpt>
<trkpt lat="45.79788929" lon="2.89081271"><ele></ele><time>2014-4-15T15:5:4Z</time></trkpt>
<trkpt lat="45.79793422" lon="2.89068614"><ele></ele><time>2014-4-15T15:5:7Z</time></trkpt>
<trkpt lat="45.79797177" lon="2.89054767"><ele></ele><time>2014-4-15T15:5:10Z</time></trkpt>
<trkpt lat="45.79800035" lon="2.89025070"><ele></ele><time>2014-4-15T15:5:13Z</time></trkpt>
<trkpt lat="45.79799800" lon="2.89002297"><ele></ele><time>2014-4-15T15:5:16Z</time></trkpt>
<trkpt lat="45.79759751" lon="2.88841263"><ele></ele><time>2014-4-15T15:5:19Z</time></trkpt>
<trkpt lat="45.79735695" lon="2.88759590"><ele></ele><time>2014-4-15T15:5:22Z</time></trkpt>
<trkpt lat="45.79745368" lon="2.88732550"><ele></ele><time>2014-4-15T15:5:25Z</time></trkpt>
<trkpt lat="45.79772484" lon="2.88692719"><ele></ele><time>2014-4-15T15:5:28Z</time></trkpt>
<trkpt lat="45.79820193" lon="2.88578759"><ele></ele><time>2014-4-15T15:5:31Z</time></trkpt>
<trkpt lat="45.79853755" lon="2.88460415"><ele></ele><time>2014-4-15T15:5:34Z</time></trkpt>
<trkpt lat="45.79856177" lon="2.88318501"><ele></ele><time>2014-4-15T15:5:37Z</time></trkpt>
<trkpt lat="45.79855247" lon="2.88287823"><ele></ele><time>2014-4-15T15:5:40Z</time></trkpt>
<trkpt lat="45.79818815" lon="2.88197311"><ele></ele><time>2014-4-15T15:5:43Z</time></trkpt>
<trkpt lat="45.79866872" lon="2.88144015"><ele></ele><time>2014-4-15T15:5:46Z</time></trkpt>
<trkpt lat="45.79957455" lon="2.88106623"><ele></ele><time>2014-4-15T15:5:49Z</time></trkpt>
<trkpt lat="45.79992400" lon="2.88092667"><ele></ele><time>2014-4-15T15:5:52Z</time></trkpt>
<trkpt lat="45.80007177" lon="2.88052484"><ele></ele><time>2014-4-15T15:5:55Z</time></trkpt>
<trkpt lat="45.79997508" lon="2.87990059"><ele></ele><time>2014-4-15T15:5:58Z</time></trkpt>
<trkpt lat="45.79976021" lon="2.87947853"><ele></ele><time>2014-4-15T15:6:1Z</time></trkpt>
<trkpt lat="45.79892781" lon="2.87946705"><ele></ele><time>2014-4-15T15:6:4Z</time></trkpt>
<trkpt lat="45.79802969" lon="2.87931207"><ele></ele><time>2014-4-15T15:6:7Z</time></trkpt>
<trkpt lat="45.79719292" lon="2.87877856"><ele></ele><time>2014-4-15T15:6:10Z</time></trkpt>
<trkpt lat="45.79648121" lon="2.87827539"><ele></ele><time>2014-4-15T15:6:13Z</time></trkpt>
<trkpt lat="45.79553406" lon="2.87733545"><ele></ele><time>2014-4-15T15:6:16Z</time></trkpt>
<trkpt lat="45.79449604" lon="2.87637019"><ele></ele><time>2014-4-15T15:6:19Z</time></trkpt>
<trkpt lat="45.79377134" lon="2.87539495"><ele></ele><time>2014-4-15T15:6:22Z</time></trkpt>
<trkpt lat="45.79373279" lon="2.87533318"><ele></ele><time>2014-4-15T15:6:25Z</time></trkpt>
<trkpt lat="45.79363413" lon="2.87486052"><ele></ele><time>2014-4-15T15:6:28Z</time></trkpt>
<trkpt lat="45.79360873" lon="2.87476866"><ele></ele><time>2014-4-15T15:6:31Z</time></trkpt>
<trkpt lat="45.79330824" lon="2.87457235"><ele></ele><time>2014-4-15T15:6:34Z</time></trkpt>
<trkpt lat="45.79317355" lon="2.87445299"><ele></ele><time>2014-4-15T15:6:37Z</time></trkpt>
<trkpt lat="45.79305360" lon="2.87429265"><ele></ele><time>2014-4-15T15:6:40Z</time></trkpt>
<trkpt lat="45.79297079" lon="2.87400406"><ele></ele><time>2014-4-15T15:6:43Z</time></trkpt>
<trkpt lat="45.79306064" lon="2.87347441"><ele></ele><time>2014-4-15T15:6:46Z</time></trkpt>
<trkpt lat="45.79318788" lon="2.87324575"><ele></ele><time>2014-4-15T15:6:49Z</time></trkpt>
<trkpt lat="45.79337454" lon="2.87310996"><ele></ele><time>2014-4-15T15:6:52Z</time></trkpt>
<trkpt lat="45.79349742" lon="2.87296001"><ele></ele><time>2014-4-15T15:6:55Z</time></trkpt>
<trkpt lat="45.79391425" lon="2.87218359"><ele></ele><time>2014-4-15T15:6:58Z</time></trkpt>
<trkpt lat="45.79397905" lon="2.87176576"><ele></ele><time>2014-4-15T15:7:1Z</time></trkpt>
<trkpt lat="45.79399279" lon="2.87088230"><ele></ele><time>2014-4-15T15:7:4Z</time></trkpt>
<trkpt lat="45.79397645" lon="2.86887978"><ele></ele><time>2014-4-15T15:7:7Z</time></trkpt>
<trkpt lat="45.79397653" lon="2.86878406"><ele></ele><time>2014-4-15T15:7:10Z</time></trkpt>
<trkpt lat="45.79377528" lon="2.86860678"><ele></ele><time>2014-4-15T15:7:13Z</time></trkpt>
<trkpt lat="45.79256133" lon="2.86928270"><ele></ele><time>2014-4-15T15:7:16Z</time></trkpt>
<trkpt lat="45.79224022" lon="2.86942997"><ele></ele><time>2014-4-15T15:7:19Z</time></trkpt>
<trkpt lat="45.79137940" lon="2.86972686"><ele></ele><time>2014-4-15T15:7:22Z</time></trkpt>
<trkpt lat="45.79130262" lon="2.86975921"><ele></ele><time>2014-4-15T15:7:25Z</time></trkpt>
<trkpt lat="45.79108863" lon="2.86986222"><ele></ele><time>2014-4-15T15:7:28Z</time></trkpt>
<trkpt lat="45.79084430" lon="2.86964606"><ele></ele><time>2014-4-15T15:7:31Z</time></trkpt>
<trkpt lat="45.79073072" lon="2.86899143"><ele></ele><time>2014-4-15T15:7:34Z</time></trkpt>
<trkpt lat="45.79045404" lon="2.86788359"><ele></ele><time>2014-4-15T15:7:37Z</time></trkpt>
<trkpt lat="45.79026897" lon="2.86757832"><ele></ele><time>2014-4-15T15:7:40Z</time></trkpt>
<trkpt lat="45.79014592" lon="2.86743491"><ele></ele><time>2014-4-15T15:7:43Z</time></trkpt>
<trkpt lat="45.79003226" lon="2.86709025"><ele></ele><time>2014-4-15T15:7:46Z</time></trkpt>
<trkpt lat="45.79001114" lon="2.86694247"><ele></ele><time>2014-4-15T15:7:49Z</time></trkpt>
<trkpt lat="45.78998876" lon="2.86647979"><ele></ele><time>2014-4-15T15:7:52Z</time></trkpt>
<trkpt lat="45.78999563" lon="2.86631299"><ele></ele><time>2014-4-15T15:7:55Z</time></trkpt>
<trkpt lat="45.79004458" lon="2.86562081"><ele></ele><time>2014-4-15T15:7:58Z</time></trkpt>
<trkpt lat="45.79005824" lon="2.86517188"><ele></ele><time>2014-4-15T15:8:1Z</time></trkpt>
<trkpt lat="45.79000577" lon="2.86443469"><ele></ele><time>2014-4-15T15:8:4Z</time></trkpt>
<trkpt lat="45.78997183" lon="2.86412883"><ele></ele><time>2014-4-15T15:8:7Z</time></trkpt>
<trkpt lat="45.78987074" lon="2.86368409"><ele></ele><time>2014-4-15T15:8:10Z</time></trkpt>
<trkpt lat="45.78986303" lon="2.86324178"><ele></ele><time>2014-4-15T15:8:13Z</time></trkpt>
<trkpt lat="45.79007333" lon="2.86289024"><ele></ele><time>2014-4-15T15:8:16Z</time></trkpt>
<trkpt lat="45.79015698" lon="2.86277600"><ele></ele><time>2014-4-15T15:8:19Z</time></trkpt>
<trkpt lat="45.79037097" lon="2.86241449"><ele></ele><time>2014-4-15T15:8:22Z</time></trkpt>
<trkpt lat="45.79058580" lon="2.86209161"><ele></ele><time>2014-4-15T15:8:25Z</time></trkpt>
<trkpt lat="45.79086282" lon="2.86189389"><ele></ele><time>2014-4-15T15:8:28Z</time></trkpt>
<trkpt lat="45.79115091" lon="2.86187360"><ele></ele><time>2014-4-15T15:8:31Z</time></trkpt>
<trkpt lat="45.79122182" lon="2.86193839"><ele></ele><time>2014-4-15T15:8:34Z</time></trkpt>
<trkpt lat="45.79134814" lon="2.86210042"><ele></ele><time>2014-4-15T15:8:37Z</time></trkpt>
<trkpt lat="45.79143682" lon="2.86223469"><ele></ele><time>2014-4-15T15:8:40Z</time></trkpt>
<trkpt lat="45.79150555" lon="2.86227526"><ele></ele><time>2014-4-15T15:8:43Z</time></trkpt>
<trkpt lat="45.79150412" lon="2.86213671"><ele></ele><time>2014-4-15T15:8:46Z</time></trkpt>
<trkpt lat="45.79136691" lon="2.86178819"><ele></ele><time>2014-4-15T15:8:49Z</time></trkpt>
<trkpt lat="45.79122618" lon="2.86141486"><ele></ele><time>2014-4-15T15:8:52Z</time></trkpt>
<trkpt lat="45.79107908" lon="2.86106961"><ele></ele><time>2014-4-15T15:8:55Z</time></trkpt>
<trkpt lat="45.79098201" lon="2.86084162"><ele></ele><time>2014-4-15T15:8:58Z</time></trkpt>
<trkpt lat="45.79093399" lon="2.86072947"><ele></ele><time>2014-4-15T15:9:1Z</time></trkpt>
<trkpt lat="45.79085855" lon="2.86042244"><ele></ele><time>2014-4-15T15:9:4Z</time></trkpt>
<trkpt lat="45.79091487" lon="2.86014408"><ele></ele><time>2014-4-15T15:9:7Z</time></trkpt>
<trkpt lat="45.79140178" lon="2.85909911"><ele></ele><time>2014-4-15T15:9:10Z</time></trkpt>
<trkpt lat="45.79146196" lon="2.85894035"><ele></ele><time>2014-4-15T15:9:13Z</time></trkpt>
<trkpt lat="45.79158836" lon="2.85879719"><ele></ele><time>2014-4-15T15:9:16Z</time></trkpt>
<trkpt lat="45.79183982" lon="2.85891823"><ele></ele><time>2014-4-15T15:9:19Z</time></trkpt>
<trkpt lat="45.79184091" lon="2.85863224"><ele></ele><time>2014-4-15T15:9:22Z</time></trkpt>
<trkpt lat="45.79164737" lon="2.85783118"><ele></ele><time>2014-4-15T15:9:25Z</time></trkpt>
<trkpt lat="45.79149968" lon="2.85722232"><ele></ele><time>2014-4-15T15:9:28Z</time></trkpt>
<trkpt lat="45.79146163" lon="2.85664153"><ele></ele><time>2014-4-15T15:9:31Z</time></trkpt>
<trkpt lat="45.79144612" lon="2.85617231"><ele></ele><time>2014-4-15T15:9:34Z</time></trkpt>
<trkpt lat="45.79144679" lon="2.85613786"><ele></ele><time>2014-4-15T15:9:37Z</time></trkpt>
<trkpt lat="45.79144185" lon="2.85575389"><ele></ele><time>2014-4-15T15:9:40Z</time></trkpt>
<trkpt lat="45.79154896" lon="2.85529515"><ele></ele><time>2014-4-15T15:9:43Z</time></trkpt>
<trkpt lat="45.79170219" lon="2.85492852"><ele></ele><time>2014-4-15T15:9:46Z</time></trkpt>
<trkpt lat="45.79187008" lon="2.85443298"><ele></ele><time>2014-4-15T15:9:49Z</time></trkpt>
<trkpt lat="45.79173814" lon="2.85373695"><ele></ele><time>2014-4-15T15:9:52Z</time></trkpt>
<trkpt lat="45.79149792" lon="2.85301267"><ele></ele><time>2014-4-15T15:9:55Z</time></trkpt>
<trkpt lat="45.79144620" lon="2.85286699"><ele></ele><time>2014-4-15T15:9:58Z</time></trkpt>
<trkpt lat="45.79136993" lon="2.85272618"><ele></ele><time>2014-4-15T15:10:1Z</time></trkpt>
<trkpt lat="45.79103063" lon="2.85189327"><ele></ele><time>2014-4-15T15:10:4Z</time></trkpt>
<trkpt lat="45.79050081" lon="2.85128768"><ele></ele><time>2014-4-15T15:10:7Z</time></trkpt>
<trkpt lat="45.79014215" lon="2.85086012"><ele></ele><time>2014-4-15T15:10:10Z</time></trkpt>
<trkpt lat="45.78992858" lon="2.85033717"><ele></ele><time>2014-4-15T15:10:13Z</time></trkpt>
<trkpt lat="45.78961040" lon="2.84981087"><ele></ele><time>2014-4-15T15:10:16Z</time></trkpt>
<trkpt lat="45.78918653" lon="2.84891610"><ele></ele><time>2014-4-15T15:10:19Z</time></trkpt>
<trkpt lat="45.78904194" lon="2.84870253"><ele></ele><time>2014-4-15T15:10:22Z</time></trkpt>
<trkpt lat="45.78890473" lon="2.84855702"><ele></ele><time>2014-4-15T15:10:25Z</time></trkpt>
<trkpt lat="45.78877321" lon="2.84836055"><ele></ele><time>2014-4-15T15:10:28Z</time></trkpt>
<trkpt lat="45.78869199" lon="2.84820389"><ele></ele><time>2014-4-15T15:10:31Z</time></trkpt>
<trkpt lat="45.78848211" lon="2.84773987"><ele></ele><time>2014-4-15T15:10:34Z</time></trkpt>
<trkpt lat="45.78825278" lon="2.84745690"><ele></ele><time>2014-4-15T15:10:37Z</time></trkpt>
<trkpt lat="45.78815463" lon="2.84731348"><ele></ele><time>2014-4-15T15:10:40Z</time></trkpt>
<trkpt lat="45.78809855" lon="2.84686346"><ele></ele><time>2014-4-15T15:10:43Z</time></trkpt>
<trkpt lat="45.78818271" lon="2.84634328"><ele></ele><time>2014-4-15T15:10:46Z</time></trkpt>
<trkpt lat="45.78824448" lon="2.84609182"><ele></ele><time>2014-4-15T15:10:49Z</time></trkpt>
<trkpt lat="45.78834691" lon="2.84570835"><ele></ele><time>2014-4-15T15:10:52Z</time></trkpt>
<trkpt lat="45.78848865" lon="2.84519353"><ele></ele><time>2014-4-15T15:10:55Z</time></trkpt>
<trkpt lat="45.78859535" lon="2.84495012"><ele></ele><time>2014-4-15T15:10:58Z</time></trkpt>
<trkpt lat="45.78879576" lon="2.84460043"><ele></ele><time>2014-4-15T15:11:1Z</time></trkpt>
<trkpt lat="45.78892560" lon="2.84435500"><ele></ele><time>2014-4-15T15:11:4Z</time></trkpt>
<trkpt lat="45.78912232" lon="2.84404169"><ele></ele><time>2014-4-15T15:11:7Z</time></trkpt>
<trkpt lat="45.78931762" lon="2.84378596"><ele></ele><time>2014-4-15T15:11:10Z</time></trkpt>
<trkpt lat="45.78970679" lon="2.84353374"><ele></ele><time>2014-4-15T15:11:13Z</time></trkpt>
<trkpt lat="45.78987979" lon="2.84342017"><ele></ele><time>2014-4-15T15:11:16Z</time></trkpt>
<trkpt lat="45.78999404" lon="2.84327826"><ele></ele><time>2014-4-15T15:11:19Z</time></trkpt>
<trkpt lat="45.79016956" lon="2.84307618"><ele></ele><time>2014-4-15T15:11:22Z</time></trkpt>
<trkpt lat="45.79032906" lon="2.84289806"><ele></ele><time>2014-4-15T15:11:25Z</time></trkpt>
<trkpt lat="45.79055160" lon="2.84280963"><ele></ele><time>2014-4-15T15:11:28Z</time></trkpt>
<trkpt lat="45.79098897" lon="2.84251157"><ele></ele><time>2014-4-15T15:11:31Z</time></trkpt>
<trkpt lat="45.79122534" lon="2.84209482"><ele></ele><time>2014-4-15T15:11:34Z</time></trkpt>
<trkpt lat="45.79134386" lon="2.84181596"><ele></ele><time>2014-4-15T15:11:37Z</time></trkpt>
<trkpt lat="45.79131075" lon="2.84112286"><ele></ele><time>2014-4-15T15:11:40Z</time></trkpt>
<trkpt lat="45.79133422" lon="2.84082891"><ele></ele><time>2014-4-15T15:11:43Z</time></trkpt>
<trkpt lat="45.79184099" lon="2.84049472"><ele></ele><time>2014-4-15T15:11:46Z</time></trkpt>
<trkpt lat="45.79211785" lon="2.84013497"><ele></ele><time>2014-4-15T15:11:49Z</time></trkpt>
<trkpt lat="45.79226713" lon="2.84009465"><ele></ele><time>2014-4-15T15:11:52Z</time></trkpt>
<trkpt lat="45.79231231" lon="2.84008719"><ele></ele><time>2014-4-15T15:11:55Z</time></trkpt>
<trkpt lat="45.79242588" lon="2.84007738"><ele></ele><time>2014-4-15T15:11:58Z</time></trkpt>
<trkpt lat="45.79350631" lon="2.83970037"><ele></ele><time>2014-4-15T15:12:1Z</time></trkpt>
<trkpt lat="45.79416227" lon="2.83951052"><ele></ele><time>2014-4-15T15:12:4Z</time></trkpt>
<trkpt lat="45.79450585" lon="2.83927415"><ele></ele><time>2014-4-15T15:12:7Z</time></trkpt>
<trkpt lat="45.79504648" lon="2.83927188"><ele></ele><time>2014-4-15T15:12:10Z</time></trkpt>
<trkpt lat="45.79553096" lon="2.83933936"><ele></ele><time>2014-4-15T15:12:13Z</time></trkpt>
<trkpt lat="45.79565928" lon="2.83934397"><ele></ele><time>2014-4-15T15:12:16Z</time></trkpt>
<trkpt lat="45.79591292" lon="2.83934162"><ele></ele><time>2014-4-15T15:12:19Z</time></trkpt>
<trkpt lat="45.79611425" lon="2.83934883"><ele></ele><time>2014-4-15T15:12:22Z</time></trkpt>
<trkpt lat="45.79618122" lon="2.83935470"><ele></ele><time>2014-4-15T15:12:25Z</time></trkpt>
<trkpt lat="45.79631014" lon="2.83937775"><ele></ele><time>2014-4-15T15:12:28Z</time></trkpt>
<trkpt lat="45.79654919" lon="2.83943608"><ele></ele><time>2014-4-15T15:12:31Z</time></trkpt>
<trkpt lat="45.79667324" lon="2.83953751"><ele></ele><time>2014-4-15T15:12:34Z</time></trkpt>
<trkpt lat="45.79680677" lon="2.83963088"><ele></ele><time>2014-4-15T15:12:37Z</time></trkpt>
<trkpt lat="45.79691774" lon="2.83936970"><ele></ele><time>2014-4-15T15:12:40Z</time></trkpt>
<trkpt lat="45.79688304" lon="2.83923810"><ele></ele><time>2014-4-15T15:12:43Z</time></trkpt>
<trkpt lat="45.79666486" lon="2.83893778"><ele></ele><time>2014-4-15T15:12:46Z</time></trkpt>
<trkpt lat="45.79646688" lon="2.83869596"><ele></ele><time>2014-4-15T15:12:49Z</time></trkpt>
<trkpt lat="45.79629614" lon="2.83852916"><ele></ele><time>2014-4-15T15:12:52Z</time></trkpt>
<trkpt lat="45.79598350" lon="2.83836915"><ele></ele><time>2014-4-15T15:12:55Z</time></trkpt>
<trkpt lat="45.79562970" lon="2.83824418"><ele></ele><time>2014-4-15T15:12:58Z</time></trkpt>
<trkpt lat="45.79483801" lon="2.83821014"><ele></ele><time>2014-4-15T15:13:1Z</time></trkpt>
<trkpt lat="45.79485906" lon="2.83775442"><ele></ele><time>2014-4-15T15:13:4Z</time></trkpt>
<trkpt lat="45.79487423" lon="2.83719082"><ele></ele><time>2014-4-15T15:13:7Z</time></trkpt>
<trkpt lat="45.79495520" lon="2.83589632"><ele></ele><time>2014-4-15T15:13:10Z</time></trkpt>
<trkpt lat="45.79498353" lon="2.83559566"><ele></ele><time>2014-4-15T15:13:13Z</time></trkpt>
<trkpt lat="45.79496962" lon="2.83556499"><ele></ele><time>2014-4-15T15:13:16Z</time></trkpt>
<trkpt lat="45.79497448" lon="2.83555652"><ele></ele><time>2014-4-15T15:13:19Z</time></trkpt>
<trkpt lat="45.79499284" lon="2.83554738"><ele></ele><time>2014-4-15T15:13:22Z</time></trkpt>
<trkpt lat="45.79491103" lon="2.83544915"><ele></ele><time>2014-4-15T15:13:25Z</time></trkpt>
<trkpt lat="45.79444801" lon="2.83530833"><ele></ele><time>2014-4-15T15:13:28Z</time></trkpt>
<trkpt lat="45.79328846" lon="2.83552349"><ele></ele><time>2014-4-15T15:13:31Z</time></trkpt>
<trkpt lat="45.79185834" lon="2.83575333"><ele></ele><time>2014-4-15T15:13:34Z</time></trkpt>
<trkpt lat="45.79139885" lon="2.83571158"><ele></ele><time>2014-4-15T15:13:37Z</time></trkpt>
<trkpt lat="45.79070767" lon="2.83539869"><ele></ele><time>2014-4-15T15:13:40Z</time></trkpt>
<trkpt lat="45.79058823" lon="2.83513156"><ele></ele><time>2014-4-15T15:13:43Z</time></trkpt>
<trkpt lat="45.79069566" lon="2.83399267"><ele></ele><time>2014-4-15T15:13:46Z</time></trkpt>
<trkpt lat="45.79103559" lon="2.83341700"><ele></ele><time>2014-4-15T15:13:49Z</time></trkpt>
<trkpt lat="45.79117899" lon="2.83248371"><ele></ele><time>2014-4-15T15:13:52Z</time></trkpt>
<trkpt lat="45.79145308" lon="2.83195934"><ele></ele><time>2014-4-15T15:13:55Z</time></trkpt>
<trkpt lat="45.79178039" lon="2.83092007"><ele></ele><time>2014-4-15T15:13:58Z</time></trkpt>
<trkpt lat="45.79174234" lon="2.82962624"><ele></ele><time>2014-4-15T15:14:1Z</time></trkpt>
<trkpt lat="45.79169682" lon="2.82953756"><ele></ele><time>2014-4-15T15:14:4Z</time></trkpt>
<trkpt lat="45.79152181" lon="2.82873583"><ele></ele><time>2014-4-15T15:14:7Z</time></trkpt>
<trkpt lat="45.79122827" lon="2.82704713"><ele></ele><time>2014-4-15T15:14:10Z</time></trkpt>
<trkpt lat="45.79083307" lon="2.82583309"><ele></ele><time>2014-4-15T15:14:13Z</time></trkpt>
<trkpt lat="45.79088965" lon="2.82500764"><ele></ele><time>2014-4-15T15:14:16Z</time></trkpt>
<trkpt lat="45.79113314" lon="2.82426073"><ele></ele><time>2014-4-15T15:14:19Z</time></trkpt>
<trkpt lat="45.79166279" lon="2.82305642"><ele></ele><time>2014-4-15T15:14:22Z</time></trkpt>
<trkpt lat="45.79177679" lon="2.82251084"><ele></ele><time>2014-4-15T15:14:25Z</time></trkpt>
<trkpt lat="45.79183202" lon="2.82223038"><ele></ele><time>2014-4-15T15:14:28Z</time></trkpt>
<trkpt lat="45.79184627" lon="2.82214346"><ele></ele><time>2014-4-15T15:14:31Z</time></trkpt>
<trkpt lat="45.79188047" lon="2.82148691"><ele></ele><time>2014-4-15T15:14:34Z</time></trkpt>
<trkpt lat="45.79193286" lon="2.82100805"><ele></ele><time>2014-4-15T15:14:37Z</time></trkpt>
<trkpt lat="45.79198139" lon="2.82084368"><ele></ele><time>2014-4-15T15:14:40Z</time></trkpt>
<trkpt lat="45.79210561" lon="2.82053908"><ele></ele><time>2014-4-15T15:14:43Z</time></trkpt>
<trkpt lat="45.79246100" lon="2.82003927"><ele></ele><time>2014-4-15T15:14:46Z</time></trkpt>
<trkpt lat="45.79283735" lon="2.81943569"><ele></ele><time>2014-4-15T15:14:49Z</time></trkpt>
<trkpt lat="45.79321437" lon="2.81905649"><ele></ele><time>2014-4-15T15:14:52Z</time></trkpt>
<trkpt lat="45.79347546" lon="2.81898868"><ele></ele><time>2014-4-15T15:14:55Z</time></trkpt>
<trkpt lat="45.79361024" lon="2.81901307"><ele></ele><time>2014-4-15T15:14:58Z</time></trkpt>
<trkpt lat="45.79358862" lon="2.81901198"><ele></ele><time>2014-4-15T15:15:1Z</time></trkpt>
<trkpt lat="45.79361351" lon="2.81898055"><ele></ele><time>2014-4-15T15:15:4Z</time></trkpt>
<trkpt lat="45.79356263" lon="2.81872666"><ele></ele><time>2014-4-15T15:15:7Z</time></trkpt>
<trkpt lat="45.79332727" lon="2.81843757"><ele></ele><time>2014-4-15T15:15:10Z</time></trkpt>
<trkpt lat="45.79316760" lon="2.81830380"><ele></ele><time>2014-4-15T15:15:13Z</time></trkpt>
<trkpt lat="45.79285788" lon="2.81833188"><ele></ele><time>2014-4-15T15:15:16Z</time></trkpt>
<trkpt lat="45.79261799" lon="2.81844311"><ele></ele><time>2014-4-15T15:15:19Z</time></trkpt>
<trkpt lat="45.79226453" lon="2.81871996"><ele></ele><time>2014-4-15T15:15:22Z</time></trkpt>
<trkpt lat="45.79197703" lon="2.81895557"><ele></ele><time>2014-4-15T15:15:25Z</time></trkpt>
<trkpt lat="45.79179665" lon="2.81915414"><ele></ele><time>2014-4-15T15:15:28Z</time></trkpt>
<trkpt lat="45.79159104" lon="2.81932924"><ele></ele><time>2014-4-15T15:15:31Z</time></trkpt>
<trkpt lat="45.79143715" lon="2.81932823"><ele></ele><time>2014-4-15T15:15:34Z</time></trkpt>
<trkpt lat="45.79101839" lon="2.81847194"><ele></ele><time>2014-4-15T15:15:37Z</time></trkpt>
<trkpt lat="45.79075503" lon="2.81780600"><ele></ele><time>2014-4-15T15:15:40Z</time></trkpt>
<trkpt lat="45.79055512" lon="2.81755211"><ele></ele><time>2014-4-15T15:15:43Z</time></trkpt>
<trkpt lat="45.79016738" lon="2.81715766"><ele></ele><time>2014-4-15T15:15:46Z</time></trkpt>
<trkpt lat="45.79012865" lon="2.81710979"><ele></ele><time>2014-4-15T15:15:49Z</time></trkpt>
<trkpt lat="45.78955852" lon="2.81680084"><ele></ele><time>2014-4-15T15:15:52Z</time></trkpt>
<trkpt lat="45.78888327" lon="2.81685406"><ele></ele><time>2014-4-15T15:15:55Z</time></trkpt>
<trkpt lat="45.78885259" lon="2.81673152"><ele></ele><time>2014-4-15T15:15:58Z</time></trkpt>
<trkpt lat="45.78885712" lon="2.81625736"><ele></ele><time>2014-4-15T15:16:1Z</time></trkpt>
<trkpt lat="45.78880222" lon="2.81619365"><ele></ele><time>2014-4-15T15:16:4Z</time></trkpt>
<trkpt lat="45.78857917" lon="2.81625484"><ele></ele><time>2014-4-15T15:16:7Z</time></trkpt>
<trkpt lat="45.78851732" lon="2.81646263"><ele></ele><time>2014-4-15T15:16:10Z</time></trkpt>
<trkpt lat="45.78851564" lon="2.81705582"><ele></ele><time>2014-4-15T15:16:13Z</time></trkpt>
<trkpt lat="45.78852754" lon="2.81741490"><ele></ele><time>2014-4-15T15:16:16Z</time></trkpt>
<trkpt lat="45.78878948" lon="2.81788806"><ele></ele><time>2014-4-15T15:16:19Z</time></trkpt>
<trkpt lat="45.78885569" lon="2.81799551"><ele></ele><time>2014-4-15T15:16:22Z</time></trkpt>
<trkpt lat="45.78904672" lon="2.81824244"><ele></ele><time>2014-4-15T15:16:25Z</time></trkpt>
<trkpt lat="45.78906968" lon="2.81826021"><ele></ele><time>2014-4-15T15:16:28Z</time></trkpt>
<trkpt lat="45.78932751" lon="2.81850647"><ele></ele><time>2014-4-15T15:16:31Z</time></trkpt>
<trkpt lat="45.78955139" lon="2.81873941"><ele></ele><time>2014-4-15T15:16:34Z</time></trkpt>
<trkpt lat="45.78969070" lon="2.81894426"><ele></ele><time>2014-4-15T15:16:37Z</time></trkpt>
<trkpt lat="45.78970696" lon="2.81896655"><ele></ele><time>2014-4-15T15:16:40Z</time></trkpt>
<trkpt lat="45.78988851" lon="2.81933033"><ele></ele><time>2014-4-15T15:16:43Z</time></trkpt>
<trkpt lat="45.79005556" lon="2.81974582"><ele></ele><time>2014-4-15T15:16:46Z</time></trkpt>
<trkpt lat="45.79004576" lon="2.81980215"><ele></ele><time>2014-4-15T15:16:49Z</time></trkpt>
<trkpt lat="45.78989983" lon="2.82006945"><ele></ele><time>2014-4-15T15:16:52Z</time></trkpt>
<trkpt lat="45.78964116" lon="2.82035963"><ele></ele><time>2014-4-15T15:16:55Z</time></trkpt>
<trkpt lat="45.78934872" lon="2.82085734"><ele></ele><time>2014-4-15T15:16:58Z</time></trkpt>
<trkpt lat="45.78911654" lon="2.82166896"><ele></ele><time>2014-4-15T15:17:1Z</time></trkpt>
<trkpt lat="45.78872535" lon="2.82209208"><ele></ele><time>2014-4-15T15:17:4Z</time></trkpt>
<trkpt lat="45.78863106" lon="2.82226693"><ele></ele><time>2014-4-15T15:17:7Z</time></trkpt>
<trkpt lat="45.78858236" lon="2.82224279"><ele></ele><time>2014-4-15T15:17:10Z</time></trkpt>
<trkpt lat="45.78855135" lon="2.82209988"><ele></ele><time>2014-4-15T15:17:13Z</time></trkpt>
<trkpt lat="45.78841212" lon="2.82160887"><ele></ele><time>2014-4-15T15:17:16Z</time></trkpt>
<trkpt lat="45.78805883" lon="2.82112917"><ele></ele><time>2014-4-15T15:17:19Z</time></trkpt>
<trkpt lat="45.78759740" lon="2.82107720"><ele></ele><time>2014-4-15T15:17:22Z</time></trkpt>
<trkpt lat="45.78738936" lon="2.82070085"><ele></ele><time>2014-4-15T15:17:25Z</time></trkpt>
<trkpt lat="45.78706565" lon="2.82018377"><ele></ele><time>2014-4-15T15:17:28Z</time></trkpt>
<trkpt lat="45.78665553" lon="2.81975789"><ele></ele><time>2014-4-15T15:17:31Z</time></trkpt>
<trkpt lat="45.78633266" lon="2.81918826"><ele></ele><time>2014-4-15T15:17:34Z</time></trkpt>
<trkpt lat="45.78590157" lon="2.81850203"><ele></ele><time>2014-4-15T15:17:37Z</time></trkpt>
<trkpt lat="45.78543596" lon="2.81777649"><ele></ele><time>2014-4-15T15:17:40Z</time></trkpt>
<trkpt lat="45.78502391" lon="2.81728162"><ele></ele><time>2014-4-15T15:17:43Z</time></trkpt>
<trkpt lat="45.78449266" lon="2.81672574"><ele></ele><time>2014-4-15T15:17:46Z</time></trkpt>
<trkpt lat="45.78407222" lon="2.81595787"><ele></ele><time>2014-4-15T15:17:49Z</time></trkpt>
<trkpt lat="45.78355799" lon="2.81511893"><ele></ele><time>2014-4-15T15:17:52Z</time></trkpt>
<trkpt lat="45.78306589" lon="2.81442222"><ele></ele><time>2014-4-15T15:17:55Z</time></trkpt>
<trkpt lat="45.78266339" lon="2.81384949"><ele></ele><time>2014-4-15T15:17:58Z</time></trkpt>
<trkpt lat="45.78225997" lon="2.81299193"><ele></ele><time>2014-4-15T15:18:1Z</time></trkpt>
<trkpt lat="45.78210516" lon="2.81249070"><ele></ele><time>2014-4-15T15:18:4Z</time></trkpt>
<trkpt lat="45.78211488" lon="2.81243940"><ele></ele><time>2014-4-15T15:18:7Z</time></trkpt>
<trkpt lat="45.78201623" lon="2.81208468"><ele></ele><time>2014-4-15T15:18:10Z</time></trkpt>
<trkpt lat="45.78201925" lon="2.81196943"><ele></ele><time>2014-4-15T15:18:13Z</time></trkpt>
<trkpt lat="45.78191313" lon="2.81171001"><ele></ele><time>2014-4-15T15:18:16Z</time></trkpt>
<trkpt lat="45.78165958" lon="2.81110550"><ele></ele><time>2014-4-15T15:18:19Z</time></trkpt>
<trkpt lat="45.78151599" lon="2.81067350"><ele></ele><time>2014-4-15T15:18:22Z</time></trkpt>
<trkpt lat="45.78130536" lon="2.80997638"><ele></ele><time>2014-4-15T15:18:25Z</time></trkpt>
<trkpt lat="45.78126655" lon="2.80976599"><ele></ele><time>2014-4-15T15:18:28Z</time></trkpt>
<trkpt lat="45.78118005" lon="2.80926274"><ele></ele><time>2014-4-15T15:18:31Z</time></trkpt>
<trkpt lat="45.78106597" lon="2.80885429"><ele></ele><time>2014-4-15T15:18:34Z</time></trkpt>
<trkpt lat="45.78106505" lon="2.80830796"><ele></ele><time>2014-4-15T15:18:37Z</time></trkpt>
<trkpt lat="45.78104954" lon="2.80766481"><ele></ele><time>2014-4-15T15:18:40Z</time></trkpt>
<trkpt lat="45.78098324" lon="2.80728000"><ele></ele><time>2014-4-15T15:18:43Z</time></trkpt>
<trkpt lat="45.78085206" lon="2.80701874"><ele></ele><time>2014-4-15T15:18:46Z</time></trkpt>
<trkpt lat="45.78059088" lon="2.80669008"><ele></ele><time>2014-4-15T15:18:49Z</time></trkpt>
<trkpt lat="45.78024178" lon="2.80641910"><ele></ele><time>2014-4-15T15:18:52Z</time></trkpt>
<trkpt lat="45.78007523" lon="2.80626772"><ele></ele><time>2014-4-15T15:18:55Z</time></trkpt>
<trkpt lat="45.77985135" lon="2.80608198"><ele></ele><time>2014-4-15T15:18:58Z</time></trkpt>
<trkpt lat="45.77949830" lon="2.80583555"><ele></ele><time>2014-4-15T15:19:1Z</time></trkpt>
<trkpt lat="45.77914459" lon="2.80556674"><ele></ele><time>2014-4-15T15:19:4Z</time></trkpt>
<trkpt lat="45.77873513" lon="2.80523373"><ele></ele><time>2014-4-15T15:19:7Z</time></trkpt>
<trkpt lat="45.77851670" lon="2.80492008"><ele></ele><time>2014-4-15T15:19:10Z</time></trkpt>
<trkpt lat="45.77836851" lon="2.80464549"><ele></ele><time>2014-4-15T15:19:13Z</time></trkpt>
<trkpt lat="45.77823004" lon="2.80431901"><ele></ele><time>2014-4-15T15:19:16Z</time></trkpt>
<trkpt lat="45.77814337" lon="2.80411793"><ele></ele><time>2014-4-15T15:19:19Z</time></trkpt>
<trkpt lat="45.77798101" lon="2.80375960"><ele></ele><time>2014-4-15T15:19:22Z</time></trkpt>
<trkpt lat="45.77786165" lon="2.80345232"><ele></ele><time>2014-4-15T15:19:25Z</time></trkpt>
<trkpt lat="45.77785361" lon="2.80342810"><ele></ele><time>2014-4-15T15:19:28Z</time></trkpt>
<trkpt lat="45.77777255" lon="2.80320430"><ele></ele><time>2014-4-15T15:19:31Z</time></trkpt>
<trkpt lat="45.77759117" lon="2.80260382"><ele></ele><time>2014-4-15T15:19:34Z</time></trkpt>
<trkpt lat="45.77744574" lon="2.80216285"><ele></ele><time>2014-4-15T15:19:37Z</time></trkpt>
<trkpt lat="45.77726746" lon="2.80155659"><ele></ele><time>2014-4-15T15:19:40Z</time></trkpt>
<trkpt lat="45.77714399" lon="2.80103389"><ele></ele><time>2014-4-15T15:19:43Z</time></trkpt>
<trkpt lat="45.77709077" lon="2.80066425"><ele></ele><time>2014-4-15T15:19:46Z</time></trkpt>
<trkpt lat="45.77703813" lon="2.79980125"><ele></ele><time>2014-4-15T15:19:49Z</time></trkpt>
<trkpt lat="45.77712799" lon="2.79902115"><ele></ele><time>2014-4-15T15:19:52Z</time></trkpt>
<trkpt lat="45.77738338" lon="2.79843886"><ele></ele><time>2014-4-15T15:19:55Z</time></trkpt>
<trkpt lat="45.77766250" lon="2.79769965"><ele></ele><time>2014-4-15T15:19:58Z</time></trkpt>
<trkpt lat="45.77766585" lon="2.79762229"><ele></ele><time>2014-4-15T15:20:1Z</time></trkpt>
<trkpt lat="45.77767163" lon="2.79738584"><ele></ele><time>2014-4-15T15:20:4Z</time></trkpt>
<trkpt lat="45.77744843" lon="2.79598832"><ele></ele><time>2014-4-15T15:20:7Z</time></trkpt>
<trkpt lat="45.77725011" lon="2.79469969"><ele></ele><time>2014-4-15T15:20:10Z</time></trkpt>
<trkpt lat="45.77724315" lon="2.79397926"><ele></ele><time>2014-4-15T15:20:13Z</time></trkpt>
<trkpt lat="45.77753903" lon="2.79339136"><ele></ele><time>2014-4-15T15:20:16Z</time></trkpt>
<trkpt lat="45.77764481" lon="2.79301778"><ele></ele><time>2014-4-15T15:20:19Z</time></trkpt>
<trkpt lat="45.77764842" lon="2.79268451"><ele></ele><time>2014-4-15T15:20:22Z</time></trkpt>
<trkpt lat="45.77764574" lon="2.79241889"><ele></ele><time>2014-4-15T15:20:25Z</time></trkpt>
<trkpt lat="45.77767080" lon="2.79206978"><ele></ele><time>2014-4-15T15:20:28Z</time></trkpt>
<trkpt lat="45.77767247" lon="2.79203994"><ele></ele><time>2014-4-15T15:20:31Z</time></trkpt>
<trkpt lat="45.77770743" lon="2.79142932"><ele></ele><time>2014-4-15T15:20:34Z</time></trkpt>
<trkpt lat="45.77771321" lon="2.79139562"><ele></ele><time>2014-4-15T15:20:37Z</time></trkpt>
<trkpt lat="45.77774271" lon="2.79140107"><ele></ele><time>2014-4-15T15:20:40Z</time></trkpt>
<trkpt lat="45.77774405" lon="2.79138045"><ele></ele><time>2014-4-15T15:20:43Z</time></trkpt>
<trkpt lat="45.77773626" lon="2.79131902"><ele></ele><time>2014-4-15T15:20:46Z</time></trkpt>
<trkpt lat="45.77773509" lon="2.79115490"><ele></ele><time>2014-4-15T15:20:49Z</time></trkpt>
<trkpt lat="45.77776182" lon="2.79077620"><ele></ele><time>2014-4-15T15:20:52Z</time></trkpt>
<trkpt lat="45.77775973" lon="2.79075391"><ele></ele><time>2014-4-15T15:20:55Z</time></trkpt>
<trkpt lat="45.77777029" lon="2.79063949"><ele></ele><time>2014-4-15T15:20:58Z</time></trkpt>
<trkpt lat="45.77780625" lon="2.79024429"><ele></ele><time>2014-4-15T15:21:1Z</time></trkpt>
<trkpt lat="45.77782561" lon="2.79002787"><ele></ele><time>2014-4-15T15:21:4Z</time></trkpt>
<trkpt lat="45.77783148" lon="2.78979535"><ele></ele><time>2014-4-15T15:21:7Z</time></trkpt>
<trkpt lat="45.77790004" lon="2.78916813"><ele></ele><time>2014-4-15T15:21:10Z</time></trkpt>
<trkpt lat="45.77798143" lon="2.78852206"><ele></ele><time>2014-4-15T15:21:13Z</time></trkpt>
<trkpt lat="45.77797397" lon="2.78778529"><ele></ele><time>2014-4-15T15:21:16Z</time></trkpt>
<trkpt lat="45.77797179" lon="2.78773399"><ele></ele><time>2014-4-15T15:21:19Z</time></trkpt>
<trkpt lat="45.77797020" lon="2.78767649"><ele></ele><time>2014-4-15T15:21:22Z</time></trkpt>
<trkpt lat="45.77800549" lon="2.78692455"><ele></ele><time>2014-4-15T15:21:25Z</time></trkpt>
<trkpt lat="45.77801881" lon="2.78666597"><ele></ele><time>2014-4-15T15:21:28Z</time></trkpt>
<trkpt lat="45.77803432" lon="2.78649364"><ele></ele><time>2014-4-15T15:21:31Z</time></trkpt>
<trkpt lat="45.77810498" lon="2.78537214"><ele></ele><time>2014-4-15T15:21:34Z</time></trkpt>
<trkpt lat="45.77812543" lon="2.78460880"><ele></ele><time>2014-4-15T15:21:37Z</time></trkpt>
<trkpt lat="45.77813591" lon="2.78419163"><ele></ele><time>2014-4-15T15:21:40Z</time></trkpt>
<trkpt lat="45.77816047" lon="2.78323660"><ele></ele><time>2014-4-15T15:21:43Z</time></trkpt>
<trkpt lat="45.77827781" lon="2.78218836"><ele></ele><time>2014-4-15T15:21:46Z</time></trkpt>
<trkpt lat="45.77835308" lon="2.78164890"><ele></ele><time>2014-4-15T15:21:49Z</time></trkpt>
<trkpt lat="45.77838695" lon="2.78136970"><ele></ele><time>2014-4-15T15:21:52Z</time></trkpt>
<trkpt lat="45.77839944" lon="2.78126827"><ele></ele><time>2014-4-15T15:21:55Z</time></trkpt>
<trkpt lat="45.77845174" lon="2.78085102"><ele></ele><time>2014-4-15T15:21:58Z</time></trkpt>
<trkpt lat="45.77865056" lon="2.77907104"><ele></ele><time>2014-4-15T15:22:1Z</time></trkpt>
<trkpt lat="45.77872675" lon="2.77809706"><ele></ele><time>2014-4-15T15:22:4Z</time></trkpt>
<trkpt lat="45.77846423" lon="2.77734529"><ele></ele><time>2014-4-15T15:22:7Z</time></trkpt>
<trkpt lat="45.77796467" lon="2.77607376"><ele></ele><time>2014-4-15T15:22:10Z</time></trkpt>
<trkpt lat="45.77787783" lon="2.77568433"><ele></ele><time>2014-4-15T15:22:13Z</time></trkpt>
<trkpt lat="45.77771832" lon="2.77482729"><ele></ele><time>2014-4-15T15:22:16Z</time></trkpt>
<trkpt lat="45.77760601" lon="2.77356614"><ele></ele><time>2014-4-15T15:22:19Z</time></trkpt>
<trkpt lat="45.77757466" lon="2.77292652"><ele></ele><time>2014-4-15T15:22:22Z</time></trkpt>
<trkpt lat="45.77742454" lon="2.77114713"><ele></ele><time>2014-4-15T15:22:25Z</time></trkpt>
<trkpt lat="45.77738372" lon="2.77070892"><ele></ele><time>2014-4-15T15:22:28Z</time></trkpt>
<trkpt lat="45.77717065" lon="2.76990216"><ele></ele><time>2014-4-15T15:22:31Z</time></trkpt>
<trkpt lat="45.77679539" lon="2.76971751"><ele></ele><time>2014-4-15T15:22:34Z</time></trkpt>
<trkpt lat="45.77665449" lon="2.76964341"><ele></ele><time>2014-4-15T15:22:37Z</time></trkpt>
<trkpt lat="45.77574422" lon="2.76874554"><ele></ele><time>2014-4-15T15:22:40Z</time></trkpt>
<trkpt lat="45.77565160" lon="2.76862032"><ele></ele><time>2014-4-15T15:22:43Z</time></trkpt>
<trkpt lat="45.77543937" lon="2.76872518"><ele></ele><time>2014-4-15T15:22:46Z</time></trkpt>
<trkpt lat="45.77519436" lon="2.76939757"><ele></ele><time>2014-4-15T15:22:49Z</time></trkpt>
<trkpt lat="45.77505330" lon="2.76973050"><ele></ele><time>2014-4-15T15:22:52Z</time></trkpt>
<trkpt lat="45.77470059" lon="2.77064606"><ele></ele><time>2014-4-15T15:22:55Z</time></trkpt>
<trkpt lat="45.77465348" lon="2.77076189"><ele></ele><time>2014-4-15T15:22:58Z</time></trkpt>
<trkpt lat="45.77455818" lon="2.77100111"><ele></ele><time>2014-4-15T15:23:1Z</time></trkpt>
<trkpt lat="45.77436548" lon="2.77148307"><ele></ele><time>2014-4-15T15:23:4Z</time></trkpt>
<trkpt lat="45.77424838" lon="2.77171039"><ele></ele><time>2014-4-15T15:23:7Z</time></trkpt>
<trkpt lat="45.77367950" lon="2.77275561"><ele></ele><time>2014-4-15T15:23:10Z</time></trkpt>
<trkpt lat="45.77339963" lon="2.77308511"><ele></ele><time>2014-4-15T15:23:13Z</time></trkpt>
<trkpt lat="45.77298548" lon="2.77337906"><ele></ele><time>2014-4-15T15:23:16Z</time></trkpt>
<trkpt lat="45.77260695" lon="2.77357679"><ele></ele><time>2014-4-15T15:23:19Z</time></trkpt>
<trkpt lat="45.77252272" lon="2.77361317"><ele></ele><time>2014-4-15T15:23:22Z</time></trkpt>
<trkpt lat="45.77228911" lon="2.77352407"><ele></ele><time>2014-4-15T15:23:25Z</time></trkpt>
<trkpt lat="45.77201821" lon="2.77234524"><ele></ele><time>2014-4-15T15:23:28Z</time></trkpt>
<trkpt lat="45.77170582" lon="2.77103120"><ele></ele><time>2014-4-15T15:23:31Z</time></trkpt>
<trkpt lat="45.77156827" lon="2.77052192"><ele></ele><time>2014-4-15T15:23:34Z</time></trkpt>
<trkpt lat="45.77154555" lon="2.77030768"><ele></ele><time>2014-4-15T15:23:37Z</time></trkpt>
<trkpt lat="45.77155234" lon="2.77021531"><ele></ele><time>2014-4-15T15:23:40Z</time></trkpt>
<trkpt lat="45.77161613" lon="2.76932985"><ele></ele><time>2014-4-15T15:23:43Z</time></trkpt>
<trkpt lat="45.77162711" lon="2.76919993"><ele></ele><time>2014-4-15T15:23:46Z</time></trkpt>
<trkpt lat="45.77164345" lon="2.76863842"><ele></ele><time>2014-4-15T15:23:49Z</time></trkpt>
<trkpt lat="45.77169316" lon="2.76791934"><ele></ele><time>2014-4-15T15:23:52Z</time></trkpt>
<trkpt lat="45.77171177" lon="2.76786813"><ele></ele><time>2014-4-15T15:23:55Z</time></trkpt>
<trkpt lat="45.77179173" lon="2.76687914"><ele></ele><time>2014-4-15T15:23:58Z</time></trkpt>
<trkpt lat="45.77194445" lon="2.76617758"><ele></ele><time>2014-4-15T15:24:1Z</time></trkpt>
<trkpt lat="45.77195459" lon="2.76522079"><ele></ele><time>2014-4-15T15:24:4Z</time></trkpt>
<trkpt lat="45.77198870" lon="2.76493329"><ele></ele><time>2014-4-15T15:24:7Z</time></trkpt>
<trkpt lat="45.77189743" lon="2.76480295"><ele></ele><time>2014-4-15T15:24:10Z</time></trkpt>
<trkpt lat="45.77172535" lon="2.76487134"><ele></ele><time>2014-4-15T15:24:13Z</time></trkpt>
<trkpt lat="45.77149845" lon="2.76499171"><ele></ele><time>2014-4-15T15:24:16Z</time></trkpt>
<trkpt lat="45.77132293" lon="2.76495734"><ele></ele><time>2014-4-15T15:24:19Z</time></trkpt>
<trkpt lat="45.77079889" lon="2.76472441"><ele></ele><time>2014-4-15T15:24:22Z</time></trkpt>
<trkpt lat="45.77013580" lon="2.76440707"><ele></ele><time>2014-4-15T15:24:25Z</time></trkpt>
<trkpt lat="45.76969860" lon="2.76394120"><ele></ele><time>2014-4-15T15:24:28Z</time></trkpt>
<trkpt lat="45.76945972" lon="2.76389284"><ele></ele><time>2014-4-15T15:24:31Z</time></trkpt>
<trkpt lat="45.76932066" lon="2.76400290"><ele></ele><time>2014-4-15T15:24:34Z</time></trkpt>
<trkpt lat="45.76917632" lon="2.76395026"><ele></ele><time>2014-4-15T15:24:37Z</time></trkpt>
<trkpt lat="45.76880090" lon="2.76256179"><ele></ele><time>2014-4-15T15:24:40Z</time></trkpt>
<trkpt lat="45.76870551" lon="2.76217480"><ele></ele><time>2014-4-15T15:24:43Z</time></trkpt>
<trkpt lat="45.76852011" lon="2.76157692"><ele></ele><time>2014-4-15T15:24:46Z</time></trkpt>
<trkpt lat="45.76847962" lon="2.76140962"><ele></ele><time>2014-4-15T15:24:49Z</time></trkpt>
<trkpt lat="45.76840008" lon="2.76116202"><ele></ele><time>2014-4-15T15:24:52Z</time></trkpt>
<trkpt lat="45.76832246" lon="2.76090871"><ele></ele><time>2014-4-15T15:24:55Z</time></trkpt>
<trkpt lat="45.76815264" lon="2.76062038"><ele></ele><time>2014-4-15T15:24:58Z</time></trkpt>
<trkpt lat="45.76779314" lon="2.76028502"><ele></ele><time>2014-4-15T15:25:1Z</time></trkpt>
<trkpt lat="45.76741068" lon="2.75993859"><ele></ele><time>2014-4-15T15:25:4Z</time></trkpt>
<trkpt lat="45.76724237" lon="2.75971849"><ele></ele><time>2014-4-15T15:25:7Z</time></trkpt>
<trkpt lat="45.76709191" lon="2.75915170"><ele></ele><time>2014-4-15T15:25:10Z</time></trkpt>
<trkpt lat="45.76709644" lon="2.75834100"><ele></ele><time>2014-4-15T15:25:13Z</time></trkpt>
<trkpt lat="45.76694205" lon="2.75800237"><ele></ele><time>2014-4-15T15:25:16Z</time></trkpt>
<trkpt lat="45.76678269" lon="2.75780322"><ele></ele><time>2014-4-15T15:25:19Z</time></trkpt>
<trkpt lat="45.76667083" lon="2.75764168"><ele></ele><time>2014-4-15T15:25:22Z</time></trkpt>
<trkpt lat="45.76653637" lon="2.75751210"><ele></ele><time>2014-4-15T15:25:25Z</time></trkpt>
<trkpt lat="45.76644676" lon="2.75741501"><ele></ele><time>2014-4-15T15:25:28Z</time></trkpt>
<trkpt lat="45.76623780" lon="2.75723753"><ele></ele><time>2014-4-15T15:25:31Z</time></trkpt>
<trkpt lat="45.76596840" lon="2.75695656"><ele></ele><time>2014-4-15T15:25:34Z</time></trkpt>
<trkpt lat="45.76585072" lon="2.75707860"><ele></ele><time>2014-4-15T15:25:37Z</time></trkpt>
<trkpt lat="45.76580714" lon="2.75716737"><ele></ele><time>2014-4-15T15:25:40Z</time></trkpt>
<trkpt lat="45.76578836" lon="2.75738664"><ele></ele><time>2014-4-15T15:25:43Z</time></trkpt>
<trkpt lat="45.76582700" lon="2.75846497"><ele></ele><time>2014-4-15T15:25:46Z</time></trkpt>
<trkpt lat="45.76566825" lon="2.75929939"><ele></ele><time>2014-4-15T15:25:49Z</time></trkpt>
<trkpt lat="45.76556154" lon="2.75993097"><ele></ele><time>2014-4-15T15:25:52Z</time></trkpt>
<trkpt lat="45.76545493" lon="2.76083814"><ele></ele><time>2014-4-15T15:25:55Z</time></trkpt>
<trkpt lat="45.76551192" lon="2.76165839"><ele></ele><time>2014-4-15T15:25:58Z</time></trkpt>
<trkpt lat="45.76583681" lon="2.76282272"><ele></ele><time>2014-4-15T15:26:1Z</time></trkpt>
<trkpt lat="45.76634341" lon="2.76402938"><ele></ele><time>2014-4-15T15:26:4Z</time></trkpt>
<trkpt lat="45.76720180" lon="2.76519137"><ele></ele><time>2014-4-15T15:26:7Z</time></trkpt>
<trkpt lat="45.76752928" lon="2.76558800"><ele></ele><time>2014-4-15T15:26:10Z</time></trkpt>
<trkpt lat="45.76750053" lon="2.76578313"><ele></ele><time>2014-4-15T15:26:13Z</time></trkpt>
<trkpt lat="45.76721706" lon="2.76607959"><ele></ele><time>2014-4-15T15:26:16Z</time></trkpt>
<trkpt lat="45.76699275" lon="2.76632091"><ele></ele><time>2014-4-15T15:26:19Z</time></trkpt>
<trkpt lat="45.76677944" lon="2.76655334"><ele></ele><time>2014-4-15T15:26:22Z</time></trkpt>
<trkpt lat="45.76651222" lon="2.76682793"><ele></ele><time>2014-4-15T15:26:25Z</time></trkpt>
<trkpt lat="45.76632916" lon="2.76697679"><ele></ele><time>2014-4-15T15:26:28Z</time></trkpt>
<trkpt lat="45.76615540" lon="2.76703647"><ele></ele><time>2014-4-15T15:26:31Z</time></trkpt>
<trkpt lat="45.76601476" lon="2.76712540"><ele></ele><time>2014-4-15T15:26:34Z</time></trkpt>
<trkpt lat="45.76587419" lon="2.76736638"><ele></ele><time>2014-4-15T15:26:37Z</time></trkpt>
<trkpt lat="45.76571410" lon="2.76756034"><ele></ele><time>2014-4-15T15:26:40Z</time></trkpt>
<trkpt lat="45.76555467" lon="2.76760267"><ele></ele><time>2014-4-15T15:26:43Z</time></trkpt>
<trkpt lat="45.76554101" lon="2.76760351"><ele></ele><time>2014-4-15T15:26:46Z</time></trkpt>
<trkpt lat="45.76527790" lon="2.76761080"><ele></ele><time>2014-4-15T15:26:49Z</time></trkpt>
<trkpt lat="45.76490776" lon="2.76789025"><ele></ele><time>2014-4-15T15:26:52Z</time></trkpt>
<trkpt lat="45.76453929" lon="2.76826945"><ele></ele><time>2014-4-15T15:26:55Z</time></trkpt>
<trkpt lat="45.76424358" lon="2.76875250"><ele></ele><time>2014-4-15T15:26:58Z</time></trkpt>
<trkpt lat="45.76402741" lon="2.76943060"><ele></ele><time>2014-4-15T15:27:1Z</time></trkpt>
<trkpt lat="45.76378173" lon="2.77049602"><ele></ele><time>2014-4-15T15:27:4Z</time></trkpt>
<trkpt lat="45.76372029" lon="2.77143722"><ele></ele><time>2014-4-15T15:27:7Z</time></trkpt>
<trkpt lat="45.76378919" lon="2.77278101"><ele></ele><time>2014-4-15T15:27:10Z</time></trkpt>
<trkpt lat="45.76369397" lon="2.77352449"><ele></ele><time>2014-4-15T15:27:13Z</time></trkpt>
<trkpt lat="45.76352491" lon="2.77422655"><ele></ele><time>2014-4-15T15:27:16Z</time></trkpt>
<trkpt lat="45.76333271" lon="2.77502820"><ele></ele><time>2014-4-15T15:27:19Z</time></trkpt>
<trkpt lat="45.76329692" lon="2.77519927"><ele></ele><time>2014-4-15T15:27:22Z</time></trkpt>
<trkpt lat="45.76311277" lon="2.77648531"><ele></ele><time>2014-4-15T15:27:25Z</time></trkpt>
<trkpt lat="45.76309282" lon="2.77666929"><ele></ele><time>2014-4-15T15:27:28Z</time></trkpt>
<trkpt lat="45.76283466" lon="2.77786061"><ele></ele><time>2014-4-15T15:27:31Z</time></trkpt>
<trkpt lat="45.76265889" lon="2.77842212"><ele></ele><time>2014-4-15T15:27:34Z</time></trkpt>
<trkpt lat="45.76257206" lon="2.77857399"><ele></ele><time>2014-4-15T15:27:37Z</time></trkpt>
<trkpt lat="45.76203494" lon="2.77942526"><ele></ele><time>2014-4-15T15:27:40Z</time></trkpt>
<trkpt lat="45.76193461" lon="2.77981058"><ele></ele><time>2014-4-15T15:27:43Z</time></trkpt>
<trkpt lat="45.76193344" lon="2.78011903"><ele></ele><time>2014-4-15T15:27:46Z</time></trkpt>
<trkpt lat="45.76200519" lon="2.78078590"><ele></ele><time>2014-4-15T15:27:49Z</time></trkpt>
<trkpt lat="45.76198038" lon="2.78133818"><ele></ele><time>2014-4-15T15:27:52Z</time></trkpt>
<trkpt lat="45.76196931" lon="2.78136676"><ele></ele><time>2014-4-15T15:27:55Z</time></trkpt>
<trkpt lat="45.76190469" lon="2.78135813"><ele></ele><time>2014-4-15T15:27:58Z</time></trkpt>
<trkpt lat="45.76172020" lon="2.78121086"><ele></ele><time>2014-4-15T15:28:1Z</time></trkpt>
<trkpt lat="45.76158509" lon="2.78111606"><ele></ele><time>2014-4-15T15:28:4Z</time></trkpt>
<trkpt lat="45.76139867" lon="2.78097541"><ele></ele><time>2014-4-15T15:28:7Z</time></trkpt>
<trkpt lat="45.76107346" lon="2.78082596"><ele></ele><time>2014-4-15T15:28:10Z</time></trkpt>
<trkpt lat="45.76067800" lon="2.78084314"><ele></ele><time>2014-4-15T15:28:13Z</time></trkpt>
<trkpt lat="45.76025714" lon="2.78085982"><ele></ele><time>2014-4-15T15:28:16Z</time></trkpt>
<trkpt lat="45.75990938" lon="2.78088799"><ele></ele><time>2014-4-15T15:28:19Z</time></trkpt>
<trkpt lat="45.75939171" lon="2.78081582"><ele></ele><time>2014-4-15T15:28:22Z</time></trkpt>
<trkpt lat="45.75902039" lon="2.77992801"><ele></ele><time>2014-4-15T15:28:25Z</time></trkpt>
<trkpt lat="45.75880263" lon="2.77940858"><ele></ele><time>2014-4-15T15:28:28Z</time></trkpt>
<trkpt lat="45.75867103" lon="2.77949165"><ele></ele><time>2014-4-15T15:28:31Z</time></trkpt>
<trkpt lat="45.75843165" lon="2.78025423"><ele></ele><time>2014-4-15T15:28:34Z</time></trkpt>
<trkpt lat="45.75819201" lon="2.78097466"><ele></ele><time>2014-4-15T15:28:37Z</time></trkpt>
<trkpt lat="45.75786662" lon="2.78141337"><ele></ele><time>2014-4-15T15:28:40Z</time></trkpt>
<trkpt lat="45.75736086" lon="2.78178468"><ele></ele><time>2014-4-15T15:28:43Z</time></trkpt>
<trkpt lat="45.75693288" lon="2.78205467"><ele></ele><time>2014-4-15T15:28:46Z</time></trkpt>
<trkpt lat="45.75658930" lon="2.78227611"><ele></ele><time>2014-4-15T15:28:49Z</time></trkpt>
<trkpt lat="45.75590358" lon="2.78245431"><ele></ele><time>2014-4-15T15:28:52Z</time></trkpt>
<trkpt lat="45.75573158" lon="2.78250863"><ele></ele><time>2014-4-15T15:28:55Z</time></trkpt>
<trkpt lat="45.75555079" lon="2.78260502"><ele></ele><time>2014-4-15T15:28:58Z</time></trkpt>
<trkpt lat="45.75523445" lon="2.78296175"><ele></ele><time>2014-4-15T15:29:1Z</time></trkpt>
<trkpt lat="45.75515801" lon="2.78307281"><ele></ele><time>2014-4-15T15:29:4Z</time></trkpt>
<trkpt lat="45.75479834" lon="2.78362183"><ele></ele><time>2014-4-15T15:29:7Z</time></trkpt>
<trkpt lat="45.75436642" lon="2.78415291"><ele></ele><time>2014-4-15T15:29:10Z</time></trkpt>
<trkpt lat="45.75428789" lon="2.78426246"><ele></ele><time>2014-4-15T15:29:13Z</time></trkpt>
<trkpt lat="45.75385303" lon="2.78495606"><ele></ele><time>2014-4-15T15:29:16Z</time></trkpt>
<trkpt lat="45.75305055" lon="2.78609918"><ele></ele><time>2014-4-15T15:29:19Z</time></trkpt>
<trkpt lat="45.75238612" lon="2.78674803"><ele></ele><time>2014-4-15T15:29:22Z</time></trkpt>
<trkpt lat="45.75207959" lon="2.78721473"><ele></ele><time>2014-4-15T15:29:25Z</time></trkpt>
<trkpt lat="45.75196300" lon="2.78767046"><ele></ele><time>2014-4-15T15:29:28Z</time></trkpt>
<trkpt lat="45.75194615" lon="2.78790758"><ele></ele><time>2014-4-15T15:29:31Z</time></trkpt>
<trkpt lat="45.75189670" lon="2.78931356"><ele></ele><time>2014-4-15T15:29:34Z</time></trkpt>
<trkpt lat="45.75188111" lon="2.78955706"><ele></ele><time>2014-4-15T15:29:37Z</time></trkpt>
<trkpt lat="45.75170425" lon="2.78974598"><ele></ele><time>2014-4-15T15:29:40Z</time></trkpt>
<trkpt lat="45.75146914" lon="2.78970575"><ele></ele><time>2014-4-15T15:29:43Z</time></trkpt>
<trkpt lat="45.75134341" lon="2.78971816"><ele></ele><time>2014-4-15T15:29:46Z</time></trkpt>
<trkpt lat="45.75111416" lon="2.78974917"><ele></ele><time>2014-4-15T15:29:49Z</time></trkpt>
<trkpt lat="45.75094552" lon="2.78977926"><ele></ele><time>2014-4-15T15:29:52Z</time></trkpt>
<trkpt lat="45.75085809" lon="2.78978990"><ele></ele><time>2014-4-15T15:29:55Z</time></trkpt>
<trkpt lat="45.75058241" lon="2.78973852"><ele></ele><time>2014-4-15T15:29:58Z</time></trkpt>
<trkpt lat="45.75032232" lon="2.78955169"><ele></ele><time>2014-4-15T15:30:1Z</time></trkpt>
<trkpt lat="45.74991815" lon="2.78902992"><ele></ele><time>2014-4-15T15:30:4Z</time></trkpt>
<trkpt lat="45.74964004" lon="2.78874074"><ele></ele><time>2014-4-15T15:30:7Z</time></trkpt>
<trkpt lat="45.74940140" lon="2.78863815"><ele></ele><time>2014-4-15T15:30:10Z</time></trkpt>
<trkpt lat="45.74917015" lon="2.78850823"><ele></ele><time>2014-4-15T15:30:13Z</time></trkpt>
<trkpt lat="45.74906395" lon="2.78841728"><ele></ele><time>2014-4-15T15:30:16Z</time></trkpt>
<trkpt lat="45.74841812" lon="2.78788478"><ele></ele><time>2014-4-15T15:30:19Z</time></trkpt>
<trkpt lat="45.74820170" lon="2.78774547"><ele></ele><time>2014-4-15T15:30:22Z</time></trkpt>
<trkpt lat="45.74716159" lon="2.78704056"><ele></ele><time>2014-4-15T15:30:25Z</time></trkpt>
<trkpt lat="45.74700233" lon="2.78691013"><ele></ele><time>2014-4-15T15:30:28Z</time></trkpt>
<trkpt lat="45.74682799" lon="2.78657016"><ele></ele><time>2014-4-15T15:30:31Z</time></trkpt>
<trkpt lat="45.74681165" lon="2.78653001"><ele></ele><time>2014-4-15T15:30:34Z</time></trkpt>
<trkpt lat="45.74659439" lon="2.78596088"><ele></ele><time>2014-4-15T15:30:37Z</time></trkpt>
<trkpt lat="45.74641937" lon="2.78538429"><ele></ele><time>2014-4-15T15:30:40Z</time></trkpt>
<trkpt lat="45.74634880" lon="2.78511414"><ele></ele><time>2014-4-15T15:30:43Z</time></trkpt>
<trkpt lat="45.74623187" lon="2.78462799"><ele></ele><time>2014-4-15T15:30:46Z</time></trkpt>
<trkpt lat="45.74600388" lon="2.78427034"><ele></ele><time>2014-4-15T15:30:49Z</time></trkpt>
<trkpt lat="45.74560868" lon="2.78411611"><ele></ele><time>2014-4-15T15:30:52Z</time></trkpt>
<trkpt lat="45.74527382" lon="2.78410086"><ele></ele><time>2014-4-15T15:30:55Z</time></trkpt>
<trkpt lat="45.74513686" lon="2.78419632"><ele></ele><time>2014-4-15T15:30:58Z</time></trkpt>
<trkpt lat="45.74503460" lon="2.78424703"><ele></ele><time>2014-4-15T15:31:1Z</time></trkpt>
<trkpt lat="45.74487140" lon="2.78431275"><ele></ele><time>2014-4-15T15:31:4Z</time></trkpt>
<trkpt lat="45.74467225" lon="2.78440554"><ele></ele><time>2014-4-15T15:31:7Z</time></trkpt>
<trkpt lat="45.74402424" lon="2.78480376"><ele></ele><time>2014-4-15T15:31:10Z</time></trkpt>
<trkpt lat="45.74337632" lon="2.78528228"><ele></ele><time>2014-4-15T15:31:13Z</time></trkpt>
<trkpt lat="45.74321874" lon="2.78539385"><ele></ele><time>2014-4-15T15:31:16Z</time></trkpt>
<trkpt lat="45.74291842" lon="2.78559937"><ele></ele><time>2014-4-15T15:31:19Z</time></trkpt>
<trkpt lat="45.74273150" lon="2.78571001"><ele></ele><time>2014-4-15T15:31:22Z</time></trkpt>
<trkpt lat="45.74243604" lon="2.78584965"><ele></ele><time>2014-4-15T15:31:25Z</time></trkpt>
<trkpt lat="45.74199264" lon="2.78605996"><ele></ele><time>2014-4-15T15:31:28Z</time></trkpt>
<trkpt lat="45.74186532" lon="2.78611712"><ele></ele><time>2014-4-15T15:31:31Z</time></trkpt>
<trkpt lat="45.74148461" lon="2.78627453"><ele></ele><time>2014-4-15T15:31:34Z</time></trkpt>
<trkpt lat="45.74125696" lon="2.78637738"><ele></ele><time>2014-4-15T15:31:37Z</time></trkpt>
<trkpt lat="45.74118622" lon="2.78641267"><ele></ele><time>2014-4-15T15:31:40Z</time></trkpt>
<trkpt lat="45.74109376" lon="2.78668114"><ele></ele><time>2014-4-15T15:31:43Z</time></trkpt>
<trkpt lat="45.74133575" lon="2.78703838"><ele></ele><time>2014-4-15T15:31:46Z</time></trkpt>
<trkpt lat="45.74144966" lon="2.78719545"><ele></ele><time>2014-4-15T15:31:49Z</time></trkpt>
<trkpt lat="45.74156533" lon="2.78735714"><ele></ele><time>2014-4-15T15:31:52Z</time></trkpt>
<trkpt lat="45.74168217" lon="2.78752922"><ele></ele><time>2014-4-15T15:31:55Z</time></trkpt>
<trkpt lat="45.74175292" lon="2.78763115"><ele></ele><time>2014-4-15T15:31:58Z</time></trkpt>
<trkpt lat="45.74235030" lon="2.78853388"><ele></ele><time>2014-4-15T15:32:1Z</time></trkpt>
<trkpt lat="45.74246060" lon="2.78872021"><ele></ele><time>2014-4-15T15:32:4Z</time></trkpt>
<trkpt lat="45.74237645" lon="2.78904727"><ele></ele><time>2014-4-15T15:32:7Z</time></trkpt>
<trkpt lat="45.74167069" lon="2.78932094"><ele></ele><time>2014-4-15T15:32:10Z</time></trkpt>
<trkpt lat="45.74151428" lon="2.78938732"><ele></ele><time>2014-4-15T15:32:13Z</time></trkpt>
<trkpt lat="45.74134279" lon="2.78945781"><ele></ele><time>2014-4-15T15:32:16Z</time></trkpt>
<trkpt lat="45.74125310" lon="2.78948916"><ele></ele><time>2014-4-15T15:32:19Z</time></trkpt>
<trkpt lat="45.74108857" lon="2.78954985"><ele></ele><time>2014-4-15T15:32:22Z</time></trkpt>
<trkpt lat="45.74095806" lon="2.78963668"><ele></ele><time>2014-4-15T15:32:25Z</time></trkpt>
<trkpt lat="45.74086284" lon="2.78979653"><ele></ele><time>2014-4-15T15:32:28Z</time></trkpt>
<trkpt lat="45.74077743" lon="2.78994857"><ele></ele><time>2014-4-15T15:32:31Z</time></trkpt>
<trkpt lat="45.74059311" lon="2.79012585"><ele></ele><time>2014-4-15T15:32:34Z</time></trkpt>
<trkpt lat="45.74043947" lon="2.79016122"><ele></ele><time>2014-4-15T15:32:37Z</time></trkpt>
<trkpt lat="45.74042975" lon="2.79048753"><ele></ele><time>2014-4-15T15:32:40Z</time></trkpt>
<trkpt lat="45.74024392" lon="2.79062935"><ele></ele><time>2014-4-15T15:32:43Z</time></trkpt>
<trkpt lat="45.74017486" lon="2.79066162"><ele></ele><time>2014-4-15T15:32:46Z</time></trkpt>
<trkpt lat="45.74004427" lon="2.79071904"><ele></ele><time>2014-4-15T15:32:49Z</time></trkpt>
<trkpt lat="45.73998417" lon="2.79081644"><ele></ele><time>2014-4-15T15:32:52Z</time></trkpt>
<trkpt lat="45.73994150" lon="2.79108642"><ele></ele><time>2014-4-15T15:32:55Z</time></trkpt>
<trkpt lat="45.73986397" lon="2.79109698"><ele></ele><time>2014-4-15T15:32:58Z</time></trkpt>
<trkpt lat="45.73958167" lon="2.79108575"><ele></ele><time>2014-4-15T15:33:1Z</time></trkpt>
<trkpt lat="45.73940112" lon="2.79123184"><ele></ele><time>2014-4-15T15:33:4Z</time></trkpt>
<trkpt lat="45.73930590" lon="2.79146947"><ele></ele><time>2014-4-15T15:33:7Z</time></trkpt>
<trkpt lat="45.73922167" lon="2.79172897"><ele></ele><time>2014-4-15T15:33:10Z</time></trkpt>
<trkpt lat="45.73916291" lon="2.79201672"><ele></ele><time>2014-4-15T15:33:13Z</time></trkpt>
<trkpt lat="45.73891522" lon="2.79301878"><ele></ele><time>2014-4-15T15:33:16Z</time></trkpt>
<trkpt lat="45.73903592" lon="2.79353251"><ele></ele><time>2014-4-15T15:33:19Z</time></trkpt>
<trkpt lat="45.73911488" lon="2.79388966"><ele></ele><time>2014-4-15T15:33:22Z</time></trkpt>
<trkpt lat="45.73911798" lon="2.79398245"><ele></ele><time>2014-4-15T15:33:25Z</time></trkpt>
<trkpt lat="45.73914631" lon="2.79407188"><ele></ele><time>2014-4-15T15:33:28Z</time></trkpt>
<trkpt lat="45.73911798" lon="2.79431496"><ele></ele><time>2014-4-15T15:33:31Z</time></trkpt>
<trkpt lat="45.73905747" lon="2.79448411"><ele></ele><time>2014-4-15T15:33:34Z</time></trkpt>
<trkpt lat="45.73897784" lon="2.79471654"><ele></ele><time>2014-4-15T15:33:37Z</time></trkpt>
<trkpt lat="45.73891422" lon="2.79490261"><ele></ele><time>2014-4-15T15:33:40Z</time></trkpt>
<trkpt lat="45.73881908" lon="2.79519238"><ele></ele><time>2014-4-15T15:33:43Z</time></trkpt>
<trkpt lat="45.73876720" lon="2.79528701"><ele></ele><time>2014-4-15T15:33:46Z</time></trkpt>
<trkpt lat="45.73860107" lon="2.79557233"><ele></ele><time>2014-4-15T15:33:49Z</time></trkpt>
<trkpt lat="45.73841960" lon="2.79590425"><ele></ele><time>2014-4-15T15:33:52Z</time></trkpt>
<trkpt lat="45.73838147" lon="2.79638842"><ele></ele><time>2014-4-15T15:33:55Z</time></trkpt>
<trkpt lat="45.73820010" lon="2.79674024"><ele></ele><time>2014-4-15T15:33:58Z</time></trkpt>
<trkpt lat="45.73792981" lon="2.79683434"><ele></ele><time>2014-4-15T15:34:1Z</time></trkpt>
<trkpt lat="45.73769432" lon="2.79683783"><ele></ele><time>2014-4-15T15:34:4Z</time></trkpt>
<trkpt lat="45.73747521" lon="2.79688518"><ele></ele><time>2014-4-15T15:34:7Z</time></trkpt>
<trkpt lat="45.73744990" lon="2.79688971"><ele></ele><time>2014-4-15T15:34:10Z</time></trkpt>
<trkpt lat="45.73684280" lon="2.79678997"><ele></ele><time>2014-4-15T15:34:13Z</time></trkpt>
<trkpt lat="45.73659335" lon="2.79667237"><ele></ele><time>2014-4-15T15:34:16Z</time></trkpt>
<trkpt lat="45.73635740" lon="2.79660137"><ele></ele><time>2014-4-15T15:34:19Z</time></trkpt>
<trkpt lat="45.73622790" lon="2.79660204"><ele></ele><time>2014-4-15T15:34:22Z</time></trkpt>
<trkpt lat="45.73607409" lon="2.79654639"><ele></ele><time>2014-4-15T15:34:25Z</time></trkpt>
<trkpt lat="45.73579514" lon="2.79651127"><ele></ele><time>2014-4-15T15:34:28Z</time></trkpt>
<trkpt lat="45.73573647" lon="2.79651311"><ele></ele><time>2014-4-15T15:34:31Z</time></trkpt>
<trkpt lat="45.73562415" lon="2.79653876"><ele></ele><time>2014-4-15T15:34:34Z</time></trkpt>
<trkpt lat="45.73520925" lon="2.79678536"><ele></ele><time>2014-4-15T15:34:37Z</time></trkpt>
<trkpt lat="45.73483969" lon="2.79697856"><ele></ele><time>2014-4-15T15:34:40Z</time></trkpt>
<trkpt lat="45.73445111" lon="2.79713798"><ele></ele><time>2014-4-15T15:34:43Z</time></trkpt>
<trkpt lat="45.73425681" lon="2.79702223"><ele></ele><time>2014-4-15T15:34:46Z</time></trkpt>
<trkpt lat="45.73423904" lon="2.79701276"><ele></ele><time>2014-4-15T15:34:49Z</time></trkpt>
<trkpt lat="45.73397309" lon="2.79685644"><ele></ele><time>2014-4-15T15:34:52Z</time></trkpt>
<trkpt lat="45.73381282" lon="2.79677354"><ele></ele><time>2014-4-15T15:34:55Z</time></trkpt>
<trkpt lat="45.73369078" lon="2.79671864"><ele></ele><time>2014-4-15T15:34:58Z</time></trkpt>
<trkpt lat="45.73352600" lon="2.79666675"><ele></ele><time>2014-4-15T15:35:1Z</time></trkpt>
<trkpt lat="45.73340496" lon="2.79663901"><ele></ele><time>2014-4-15T15:35:4Z</time></trkpt>
<trkpt lat="45.73330413" lon="2.79663993"><ele></ele><time>2014-4-15T15:35:7Z</time></trkpt>
<trkpt lat="45.73310640" lon="2.79669349"><ele></ele><time>2014-4-15T15:35:10Z</time></trkpt>
<trkpt lat="45.73284446" lon="2.79672425"><ele></ele><time>2014-4-15T15:35:13Z</time></trkpt>
<trkpt lat="45.73251547" lon="2.79690731"><ele></ele><time>2014-4-15T15:35:16Z</time></trkpt>
<trkpt lat="45.73231657" lon="2.79704679"><ele></ele><time>2014-4-15T15:35:19Z</time></trkpt>
<trkpt lat="45.73212882" lon="2.79721342"><ele></ele><time>2014-4-15T15:35:22Z</time></trkpt>
<trkpt lat="45.73186982" lon="2.79754258"><ele></ele><time>2014-4-15T15:35:25Z</time></trkpt>
<trkpt lat="45.73170561" lon="2.79810433"><ele></ele><time>2014-4-15T15:35:28Z</time></trkpt>
<trkpt lat="45.73151794" lon="2.79859627"><ele></ele><time>2014-4-15T15:35:31Z</time></trkpt>
<trkpt lat="45.73144209" lon="2.79864547"><ele></ele><time>2014-4-15T15:35:34Z</time></trkpt>
<trkpt lat="45.73126112" lon="2.79875100"><ele></ele><time>2014-4-15T15:35:37Z</time></trkpt>
<trkpt lat="45.73107697" lon="2.79894546"><ele></ele><time>2014-4-15T15:35:40Z</time></trkpt>
<trkpt lat="45.73087405" lon="2.79919423"><ele></ele><time>2014-4-15T15:35:43Z</time></trkpt>
<trkpt lat="45.73063214" lon="2.79938039"><ele></ele><time>2014-4-15T15:35:46Z</time></trkpt>
<trkpt lat="45.73031162" lon="2.79950403"><ele></ele><time>2014-4-15T15:35:49Z</time></trkpt>
<trkpt lat="45.72992932" lon="2.79971517"><ele></ele><time>2014-4-15T15:35:52Z</time></trkpt>
<trkpt lat="45.72963025" lon="2.79988314"><ele></ele><time>2014-4-15T15:35:55Z</time></trkpt>
<trkpt lat="45.72952263" lon="2.79976269"><ele></ele><time>2014-4-15T15:35:58Z</time></trkpt>
<trkpt lat="45.72935365" lon="2.79907362"><ele></ele><time>2014-4-15T15:36:1Z</time></trkpt>
<trkpt lat="45.72910412" lon="2.79792697"><ele></ele><time>2014-4-15T15:36:4Z</time></trkpt>
<trkpt lat="45.72894403" lon="2.79717646"><ele></ele><time>2014-4-15T15:36:7Z</time></trkpt>
<trkpt lat="45.72883213" lon="2.79663079"><ele></ele><time>2014-4-15T15:36:10Z</time></trkpt>
<trkpt lat="45.72874638" lon="2.79614070"><ele></ele><time>2014-4-15T15:36:13Z</time></trkpt>
<trkpt lat="45.72865762" lon="2.79570300"><ele></ele><time>2014-4-15T15:36:16Z</time></trkpt>
<trkpt lat="45.72856014" lon="2.79515114"><ele></ele><time>2014-4-15T15:36:19Z</time></trkpt>
<trkpt lat="45.72842997" lon="2.79457128"><ele></ele><time>2014-4-15T15:36:22Z</time></trkpt>
<trkpt lat="45.72838931" lon="2.79450531"><ele></ele><time>2014-4-15T15:36:25Z</time></trkpt>
<trkpt lat="45.72825227" lon="2.79447229"><ele></ele><time>2014-4-15T15:36:28Z</time></trkpt>
<trkpt lat="45.72768113" lon="2.79446198"><ele></ele><time>2014-4-15T15:36:31Z</time></trkpt>
<trkpt lat="45.72757610" lon="2.79449651"><ele></ele><time>2014-4-15T15:36:34Z</time></trkpt>
<trkpt lat="45.72715726" lon="2.79478795"><ele></ele><time>2014-4-15T15:36:37Z</time></trkpt>
<trkpt lat="45.72643767" lon="2.79541676"><ele></ele><time>2014-4-15T15:36:40Z</time></trkpt>
<trkpt lat="45.72604112" lon="2.79577198"><ele></ele><time>2014-4-15T15:36:43Z</time></trkpt>
<trkpt lat="45.72590115" lon="2.79591322"><ele></ele><time>2014-4-15T15:36:46Z</time></trkpt>
<trkpt lat="45.72562077" lon="2.79608723"><ele></ele><time>2014-4-15T15:36:49Z</time></trkpt>
<trkpt lat="45.72549730" lon="2.79628018"><ele></ele><time>2014-4-15T15:36:52Z</time></trkpt>
<trkpt lat="45.72548289" lon="2.79640515"><ele></ele><time>2014-4-15T15:36:55Z</time></trkpt>
<trkpt lat="45.72548130" lon="2.79670137"><ele></ele><time>2014-4-15T15:36:58Z</time></trkpt>
<trkpt lat="45.72547392" lon="2.79679382"><ele></ele><time>2014-4-15T15:37:1Z</time></trkpt>
<trkpt lat="45.72546420" lon="2.79691712"><ele></ele><time>2014-4-15T15:37:4Z</time></trkpt>
<trkpt lat="45.72547685" lon="2.79703078"><ele></ele><time>2014-4-15T15:37:7Z</time></trkpt>
<trkpt lat="45.72557224" lon="2.79735985"><ele></ele><time>2014-4-15T15:37:10Z</time></trkpt>
<trkpt lat="45.72580123" lon="2.79814968"><ele></ele><time>2014-4-15T15:37:13Z</time></trkpt>
<trkpt lat="45.72572873" lon="2.79826250"><ele></ele><time>2014-4-15T15:37:16Z</time></trkpt>
<trkpt lat="45.72557861" lon="2.79815354"><ele></ele><time>2014-4-15T15:37:19Z</time></trkpt>
<trkpt lat="45.72552849" lon="2.79808153"><ele></ele><time>2014-4-15T15:37:22Z</time></trkpt>
<trkpt lat="45.72540242" lon="2.79802429"><ele></ele><time>2014-4-15T15:37:25Z</time></trkpt>
<trkpt lat="45.72509112" lon="2.79811640"><ele></ele><time>2014-4-15T15:37:28Z</time></trkpt>
<trkpt lat="45.72481611" lon="2.79836895"><ele></ele><time>2014-4-15T15:37:31Z</time></trkpt>
<trkpt lat="45.72458393" lon="2.79864002"><ele></ele><time>2014-4-15T15:37:34Z</time></trkpt>
<trkpt lat="45.72440246" lon="2.79896457"><ele></ele><time>2014-4-15T15:37:37Z</time></trkpt>
<trkpt lat="45.72432183" lon="2.79925500"><ele></ele><time>2014-4-15T15:37:40Z</time></trkpt>
<trkpt lat="45.72427221" lon="2.79950067"><ele></ele><time>2014-4-15T15:37:43Z</time></trkpt>
<trkpt lat="45.72424765" lon="2.79967443"><ele></ele><time>2014-4-15T15:37:46Z</time></trkpt>
<trkpt lat="45.72421806" lon="2.79978750"><ele></ele><time>2014-4-15T15:37:49Z</time></trkpt>
<trkpt lat="45.72420222" lon="2.79985213"><ele></ele><time>2014-4-15T15:37:52Z</time></trkpt>
<trkpt lat="45.72399502" lon="2.79998624"><ele></ele><time>2014-4-15T15:37:55Z</time></trkpt>
<trkpt lat="45.72384724" lon="2.79990510"><ele></ele><time>2014-4-15T15:37:58Z</time></trkpt>
<trkpt lat="45.72369260" lon="2.79989320"><ele></ele><time>2014-4-15T15:38:1Z</time></trkpt>
<trkpt lat="45.72343175" lon="2.79997375"><ele></ele><time>2014-4-15T15:38:4Z</time></trkpt>
<trkpt lat="45.72291573" lon="2.79972753"><ele></ele><time>2014-4-15T15:38:7Z</time></trkpt>
<trkpt lat="45.72320944" lon="2.79940887"><ele></ele><time>2014-4-15T15:38:10Z</time></trkpt>
<trkpt lat="45.72340158" lon="2.79936212"><ele></ele><time>2014-4-15T15:38:13Z</time></trkpt>
<trkpt lat="45.72361356" lon="2.79913195"><ele></ele><time>2014-4-15T15:38:16Z</time></trkpt>
<trkpt lat="45.72391950" lon="2.79880087"><ele></ele><time>2014-4-15T15:38:19Z</time></trkpt>
<trkpt lat="45.72441772" lon="2.79829837"><ele></ele><time>2014-4-15T15:38:22Z</time></trkpt>
<trkpt lat="45.72466943" lon="2.79807734"><ele></ele><time>2014-4-15T15:38:25Z</time></trkpt>
<trkpt lat="45.72490873" lon="2.79792714"><ele></ele><time>2014-4-15T15:38:28Z</time></trkpt>
<trkpt lat="45.72505499" lon="2.79768390"><ele></ele><time>2014-4-15T15:38:31Z</time></trkpt>
<trkpt lat="45.72505927" lon="2.79745130"><ele></ele><time>2014-4-15T15:38:34Z</time></trkpt>
<trkpt lat="45.72502096" lon="2.79734175"><ele></ele><time>2014-4-15T15:38:37Z</time></trkpt>
<trkpt lat="45.72492139" lon="2.79713237"><ele></ele><time>2014-4-15T15:38:40Z</time></trkpt>
<trkpt lat="45.72494385" lon="2.79662149"><ele></ele><time>2014-4-15T15:38:43Z</time></trkpt>
<trkpt lat="45.72497042" lon="2.79647280"><ele></ele><time>2014-4-15T15:38:46Z</time></trkpt>
<trkpt lat="45.72500034" lon="2.79598757"><ele></ele><time>2014-4-15T15:38:49Z</time></trkpt>
<trkpt lat="45.72498282" lon="2.79552656"><ele></ele><time>2014-4-15T15:38:52Z</time></trkpt>
<trkpt lat="45.72498266" lon="2.79505122"><ele></ele><time>2014-4-15T15:38:55Z</time></trkpt>
<trkpt lat="45.72477311" lon="2.79482978"><ele></ele><time>2014-4-15T15:38:58Z</time></trkpt>
<trkpt lat="45.72453037" lon="2.79462861"><ele></ele><time>2014-4-15T15:39:1Z</time></trkpt>
<trkpt lat="45.72442342" lon="2.79409829"><ele></ele><time>2014-4-15T15:39:4Z</time></trkpt>
<trkpt lat="45.72425678" lon="2.79321819"><ele></ele><time>2014-4-15T15:39:7Z</time></trkpt>
<trkpt lat="45.72423139" lon="2.79289875"><ele></ele><time>2014-4-15T15:39:10Z</time></trkpt>
<trkpt lat="45.72422938" lon="2.79224169"><ele></ele><time>2014-4-15T15:39:13Z</time></trkpt>
<trkpt lat="45.72412066" lon="2.79180676"><ele></ele><time>2014-4-15T15:39:16Z</time></trkpt>
<trkpt lat="45.72394355" lon="2.79157776"><ele></ele><time>2014-4-15T15:39:19Z</time></trkpt>
<trkpt lat="45.72371707" lon="2.79133419"><ele></ele><time>2014-4-15T15:39:22Z</time></trkpt>
<trkpt lat="45.72361381" lon="2.79096974"><ele></ele><time>2014-4-15T15:39:25Z</time></trkpt>
<trkpt lat="45.72364809" lon="2.79082876"><ele></ele><time>2014-4-15T15:39:28Z</time></trkpt>
<trkpt lat="45.72394674" lon="2.79042508"><ele></ele><time>2014-4-15T15:39:31Z</time></trkpt>
<trkpt lat="45.72444202" lon="2.78995184"><ele></ele><time>2014-4-15T15:39:34Z</time></trkpt>
<trkpt lat="45.72481502" lon="2.78910787"><ele></ele><time>2014-4-15T15:39:37Z</time></trkpt>
<trkpt lat="45.72499464" lon="2.78871417"><ele></ele><time>2014-4-15T15:39:40Z</time></trkpt>
<trkpt lat="45.72534140" lon="2.78816717"><ele></ele><time>2014-4-15T15:39:43Z</time></trkpt>
<trkpt lat="45.72523671" lon="2.78754682"><ele></ele><time>2014-4-15T15:39:46Z</time></trkpt>
<trkpt lat="45.72513713" lon="2.78706235"><ele></ele><time>2014-4-15T15:39:49Z</time></trkpt>
<trkpt lat="45.72518122" lon="2.78676596"><ele></ele><time>2014-4-15T15:39:52Z</time></trkpt>
<trkpt lat="45.72541701" lon="2.78658131"><ele></ele><time>2014-4-15T15:39:55Z</time></trkpt>
<trkpt lat="45.72575865" lon="2.78666798"><ele></ele><time>2014-4-15T15:39:58Z</time></trkpt>
<trkpt lat="45.72588807" lon="2.78665767"><ele></ele><time>2014-4-15T15:40:1Z</time></trkpt>
<trkpt lat="45.72605973" lon="2.78612567"><ele></ele><time>2014-4-15T15:40:4Z</time></trkpt>
<trkpt lat="45.72592973" lon="2.78572510"><ele></ele><time>2014-4-15T15:40:7Z</time></trkpt>
<trkpt lat="45.72559663" lon="2.78530475"><ele></ele><time>2014-4-15T15:40:10Z</time></trkpt>
<trkpt lat="45.72544089" lon="2.78507777"><ele></ele><time>2014-4-15T15:40:13Z</time></trkpt>
<trkpt lat="45.72508936" lon="2.78494609"><ele></ele><time>2014-4-15T15:40:16Z</time></trkpt>
<trkpt lat="45.72483555" lon="2.78491943"><ele></ele><time>2014-4-15T15:40:19Z</time></trkpt>
<trkpt lat="45.72456222" lon="2.78490057"><ele></ele><time>2014-4-15T15:40:22Z</time></trkpt>
<trkpt lat="45.72452643" lon="2.78490351"><ele></ele><time>2014-4-15T15:40:25Z</time></trkpt>
<trkpt lat="45.72423206" lon="2.78487434"><ele></ele><time>2014-4-15T15:40:28Z</time></trkpt>
<trkpt lat="45.72406760" lon="2.78483511"><ele></ele><time>2014-4-15T15:40:31Z</time></trkpt>
<trkpt lat="45.72393425" lon="2.78482849"><ele></ele><time>2014-4-15T15:40:34Z</time></trkpt>
<trkpt lat="45.72361850" lon="2.78485288"><ele></ele><time>2014-4-15T15:40:37Z</time></trkpt>
<trkpt lat="45.72335447" lon="2.78490904"><ele></ele><time>2014-4-15T15:40:40Z</time></trkpt>
<trkpt lat="45.72308290" lon="2.78502882"><ele></ele><time>2014-4-15T15:40:43Z</time></trkpt>
<trkpt lat="45.72280638" lon="2.78515237"><ele></ele><time>2014-4-15T15:40:46Z</time></trkpt>
<trkpt lat="45.72243934" lon="2.78520433"><ele></ele><time>2014-4-15T15:40:49Z</time></trkpt>
<trkpt lat="45.72229441" lon="2.78521959"><ele></ele><time>2014-4-15T15:40:52Z</time></trkpt>
<trkpt lat="45.72196794" lon="2.78523602"><ele></ele><time>2014-4-15T15:40:55Z</time></trkpt>
<trkpt lat="45.72157089" lon="2.78534398"><ele></ele><time>2014-4-15T15:40:58Z</time></trkpt>
<trkpt lat="45.72124341" lon="2.78551639"><ele></ele><time>2014-4-15T15:41:1Z</time></trkpt>
<trkpt lat="45.72090059" lon="2.78562242"><ele></ele><time>2014-4-15T15:41:4Z</time></trkpt>
<trkpt lat="45.72056824" lon="2.78568520"><ele></ele><time>2014-4-15T15:41:7Z</time></trkpt>
<trkpt lat="45.72004161" lon="2.78569032"><ele></ele><time>2014-4-15T15:41:10Z</time></trkpt>
<trkpt lat="45.71956778" lon="2.78560071"><ele></ele><time>2014-4-15T15:41:13Z</time></trkpt>
<trkpt lat="45.71939000" lon="2.78551832"><ele></ele><time>2014-4-15T15:41:16Z</time></trkpt>
<trkpt lat="45.71926938" lon="2.78545068"><ele></ele><time>2014-4-15T15:41:19Z</time></trkpt>
<trkpt lat="45.71886647" lon="2.78546291"><ele></ele><time>2014-4-15T15:41:22Z</time></trkpt>
<trkpt lat="45.71841585" lon="2.78552293"><ele></ele><time>2014-4-15T15:41:25Z</time></trkpt>
<trkpt lat="45.71823724" lon="2.78549703"><ele></ele><time>2014-4-15T15:41:28Z</time></trkpt>
<trkpt lat="45.71740324" lon="2.78521271"><ele></ele><time>2014-4-15T15:41:31Z</time></trkpt>
<trkpt lat="45.71673612" lon="2.78511448"><ele></ele><time>2014-4-15T15:41:34Z</time></trkpt>
<trkpt lat="45.71661601" lon="2.78511574"><ele></ele><time>2014-4-15T15:41:37Z</time></trkpt>
<trkpt lat="45.71649355" lon="2.78524272"><ele></ele><time>2014-4-15T15:41:40Z</time></trkpt>
<trkpt lat="45.71604914" lon="2.78567724"><ele></ele><time>2014-4-15T15:41:43Z</time></trkpt>
<trkpt lat="45.71555536" lon="2.78604638"><ele></ele><time>2014-4-15T15:41:46Z</time></trkpt>
<trkpt lat="45.71511716" lon="2.78680142"><ele></ele><time>2014-4-15T15:41:49Z</time></trkpt>
<trkpt lat="45.71513501" lon="2.78669874"><ele></ele><time>2014-4-15T15:41:52Z</time></trkpt>
<trkpt lat="45.71532855" lon="2.78614948"><ele></ele><time>2014-4-15T15:41:55Z</time></trkpt>
<trkpt lat="45.71553282" lon="2.78542310"><ele></ele><time>2014-4-15T15:41:58Z</time></trkpt>
<trkpt lat="45.71569484" lon="2.78447159"><ele></ele><time>2014-4-15T15:42:1Z</time></trkpt>
<trkpt lat="45.71591956" lon="2.78348973"><ele></ele><time>2014-4-15T15:42:4Z</time></trkpt>
<trkpt lat="45.71618920" lon="2.78274039"><ele></ele><time>2014-4-15T15:42:7Z</time></trkpt>
<trkpt lat="45.71644912" lon="2.78233646"><ele></ele><time>2014-4-15T15:42:10Z</time></trkpt>
<trkpt lat="45.71656899" lon="2.78192349"><ele></ele><time>2014-4-15T15:42:13Z</time></trkpt>
<trkpt lat="45.71654468" lon="2.78172660"><ele></ele><time>2014-4-15T15:42:16Z</time></trkpt>
<trkpt lat="45.71649841" lon="2.78161805"><ele></ele><time>2014-4-15T15:42:19Z</time></trkpt>
<trkpt lat="45.71628140" lon="2.78107499"><ele></ele><time>2014-4-15T15:42:22Z</time></trkpt>
<trkpt lat="45.71596524" lon="2.78049236"><ele></ele><time>2014-4-15T15:42:25Z</time></trkpt>
<trkpt lat="45.71559233" lon="2.78005650"><ele></ele><time>2014-4-15T15:42:28Z</time></trkpt>
<trkpt lat="45.71525185" lon="2.77970824"><ele></ele><time>2014-4-15T15:42:31Z</time></trkpt>
<trkpt lat="45.71474325" lon="2.77936707"><ele></ele><time>2014-4-15T15:42:34Z</time></trkpt>
<trkpt lat="45.71437033" lon="2.77922753"><ele></ele><time>2014-4-15T15:42:37Z</time></trkpt>
<trkpt lat="45.71399046" lon="2.77899812"><ele></ele><time>2014-4-15T15:42:40Z</time></trkpt>
<trkpt lat="45.71352619" lon="2.77880022"><ele></ele><time>2014-4-15T15:42:43Z</time></trkpt>
<trkpt lat="45.71314749" lon="2.77899292"><ele></ele><time>2014-4-15T15:42:46Z</time></trkpt>
<trkpt lat="45.71296418" lon="2.77913416"><ele></ele><time>2014-4-15T15:42:49Z</time></trkpt>
<trkpt lat="45.71292043" lon="2.77918177"><ele></ele><time>2014-4-15T15:42:52Z</time></trkpt>
<trkpt lat="45.71267073" lon="2.77928914"><ele></ele><time>2014-4-15T15:42:55Z</time></trkpt>
<trkpt lat="45.71247049" lon="2.77923818"><ele></ele><time>2014-4-15T15:42:58Z</time></trkpt>
<trkpt lat="45.71224325" lon="2.77898789"><ele></ele><time>2014-4-15T15:43:1Z</time></trkpt>
<trkpt lat="45.71203270" lon="2.77886326"><ele></ele><time>2014-4-15T15:43:4Z</time></trkpt>
<trkpt lat="45.71150548" lon="2.77863041"><ele></ele><time>2014-4-15T15:43:7Z</time></trkpt>
<trkpt lat="45.71101832" lon="2.77851147"><ele></ele><time>2014-4-15T15:43:10Z</time></trkpt>
<trkpt lat="45.71067148" lon="2.77846084"><ele></ele><time>2014-4-15T15:43:13Z</time></trkpt>
<trkpt lat="45.71046294" lon="2.77858841"><ele></ele><time>2014-4-15T15:43:16Z</time></trkpt>
<trkpt lat="45.71040753" lon="2.77862395"><ele></ele><time>2014-4-15T15:43:19Z</time></trkpt>
<trkpt lat="45.71028683" lon="2.77866670"><ele></ele><time>2014-4-15T15:43:22Z</time></trkpt>
<trkpt lat="45.70994032" lon="2.77866201"><ele></ele><time>2014-4-15T15:43:25Z</time></trkpt>
<trkpt lat="45.70945627" lon="2.77864365"><ele></ele><time>2014-4-15T15:43:28Z</time></trkpt>
<trkpt lat="45.70910021" lon="2.77856528"><ele></ele><time>2014-4-15T15:43:31Z</time></trkpt>
<trkpt lat="45.70871833" lon="2.77850686"><ele></ele><time>2014-4-15T15:43:34Z</time></trkpt>
<trkpt lat="45.70837693" lon="2.77850694"><ele></ele><time>2014-4-15T15:43:37Z</time></trkpt>
<trkpt lat="45.70794786" lon="2.77847358"><ele></ele><time>2014-4-15T15:43:40Z</time></trkpt>
<trkpt lat="45.70787863" lon="2.77844860"><ele></ele><time>2014-4-15T15:43:43Z</time></trkpt>
<trkpt lat="45.70783563" lon="2.77841667"><ele></ele><time>2014-4-15T15:43:46Z</time></trkpt>
<trkpt lat="45.70756766" lon="2.77828717"><ele></ele><time>2014-4-15T15:43:49Z</time></trkpt>
<trkpt lat="45.70735400" lon="2.77809799"><ele></ele><time>2014-4-15T15:43:52Z</time></trkpt>
<trkpt lat="45.70712090" lon="2.77786128"><ele></ele><time>2014-4-15T15:43:55Z</time></trkpt>
<trkpt lat="45.70702057" lon="2.77774896"><ele></ele><time>2014-4-15T15:43:58Z</time></trkpt>
<trkpt lat="45.70696936" lon="2.77768996"><ele></ele><time>2014-4-15T15:44:1Z</time></trkpt>
<trkpt lat="45.70659494" lon="2.77754151"><ele></ele><time>2014-4-15T15:44:4Z</time></trkpt>
<trkpt lat="45.70613796" lon="2.77767981"><ele></ele><time>2014-4-15T15:44:7Z</time></trkpt>
<trkpt lat="45.70609655" lon="2.77769457"><ele></ele><time>2014-4-15T15:44:10Z</time></trkpt>
<trkpt lat="45.70583269" lon="2.77777134"><ele></ele><time>2014-4-15T15:44:13Z</time></trkpt>
<trkpt lat="45.70549356" lon="2.77809069"><ele></ele><time>2014-4-15T15:44:16Z</time></trkpt>
<trkpt lat="45.70478881" lon="2.77852647"><ele></ele><time>2014-4-15T15:44:19Z</time></trkpt>
<trkpt lat="45.70412815" lon="2.77889787"><ele></ele><time>2014-4-15T15:44:22Z</time></trkpt>
<trkpt lat="45.70361643" lon="2.77911798"><ele></ele><time>2014-4-15T15:44:25Z</time></trkpt>
<trkpt lat="45.70329473" lon="2.77912628"><ele></ele><time>2014-4-15T15:44:28Z</time></trkpt>
<trkpt lat="45.70256660" lon="2.77891631"><ele></ele><time>2014-4-15T15:44:31Z</time></trkpt>
<trkpt lat="45.70220911" lon="2.77861146"><ele></ele><time>2014-4-15T15:44:34Z</time></trkpt>
<trkpt lat="45.70212043" lon="2.77853787"><ele></ele><time>2014-4-15T15:44:37Z</time></trkpt>
<trkpt lat="45.70162422" lon="2.77825825"><ele></ele><time>2014-4-15T15:44:40Z</time></trkpt>
<trkpt lat="45.70110060" lon="2.77814845"><ele></ele><time>2014-4-15T15:44:43Z</time></trkpt>
<trkpt lat="45.70080346" lon="2.77829010"><ele></ele><time>2014-4-15T15:44:46Z</time></trkpt>
<trkpt lat="45.70075183" lon="2.77847115"><ele></ele><time>2014-4-15T15:44:49Z</time></trkpt>
<trkpt lat="45.70071093" lon="2.77851264"><ele></ele><time>2014-4-15T15:44:52Z</time></trkpt>
<trkpt lat="45.70033785" lon="2.77851499"><ele></ele><time>2014-4-15T15:44:55Z</time></trkpt>
<trkpt lat="45.70029552" lon="2.77852287"><ele></ele><time>2014-4-15T15:44:58Z</time></trkpt>
<trkpt lat="45.70005764" lon="2.77881489"><ele></ele><time>2014-4-15T15:45:1Z</time></trkpt>
<trkpt lat="45.69967576" lon="2.77880726"><ele></ele><time>2014-4-15T15:45:4Z</time></trkpt>
<trkpt lat="45.69932230" lon="2.77893819"><ele></ele><time>2014-4-15T15:45:7Z</time></trkpt>
<trkpt lat="45.69914628" lon="2.77934019"><ele></ele><time>2014-4-15T15:45:10Z</time></trkpt>
<trkpt lat="45.69891527" lon="2.77987336"><ele></ele><time>2014-4-15T15:45:13Z</time></trkpt>
<trkpt lat="45.69879818" lon="2.78016756"><ele></ele><time>2014-4-15T15:45:16Z</time></trkpt>
<trkpt lat="45.69864571" lon="2.78053494"><ele></ele><time>2014-4-15T15:45:19Z</time></trkpt>
<trkpt lat="45.69834044" lon="2.78072714"><ele></ele><time>2014-4-15T15:45:22Z</time></trkpt>
<trkpt lat="45.69788824" lon="2.78057132"><ele></ele><time>2014-4-15T15:45:25Z</time></trkpt>
<trkpt lat="45.69743176" lon="2.78039371"><ele></ele><time>2014-4-15T15:45:28Z</time></trkpt>
<trkpt lat="45.69688803" lon="2.78013638"><ele></ele><time>2014-4-15T15:45:31Z</time></trkpt>
<trkpt lat="45.69626332" lon="2.77973497"><ele></ele><time>2014-4-15T15:45:34Z</time></trkpt>
<trkpt lat="45.69548372" lon="2.77923449"><ele></ele><time>2014-4-15T15:45:37Z</time></trkpt>
<trkpt lat="45.69520192" lon="2.77915679"><ele></ele><time>2014-4-15T15:45:40Z</time></trkpt>
<trkpt lat="45.69472876" lon="2.77950791"><ele></ele><time>2014-4-15T15:45:43Z</time></trkpt>
<trkpt lat="45.69417036" lon="2.78029095"><ele></ele><time>2014-4-15T15:45:46Z</time></trkpt>
<trkpt lat="45.69385210" lon="2.78022858"><ele></ele><time>2014-4-15T15:45:49Z</time></trkpt>
<trkpt lat="45.69299103" lon="2.77999951"><ele></ele><time>2014-4-15T15:45:52Z</time></trkpt>
<trkpt lat="45.69206416" lon="2.77975517"><ele></ele><time>2014-4-15T15:45:55Z</time></trkpt>
<trkpt lat="45.69136192" lon="2.77953121"><ele></ele><time>2014-4-15T15:45:58Z</time></trkpt>
<trkpt lat="45.69056681" lon="2.77914673"><ele></ele><time>2014-4-15T15:46:1Z</time></trkpt>
<trkpt lat="45.69000673" lon="2.77918973"><ele></ele><time>2014-4-15T15:46:4Z</time></trkpt>
<trkpt lat="45.68960181" lon="2.77926450"><ele></ele><time>2014-4-15T15:46:7Z</time></trkpt>
<trkpt lat="45.68927617" lon="2.77936793"><ele></ele><time>2014-4-15T15:46:10Z</time></trkpt>
<trkpt lat="45.68884333" lon="2.77933138"><ele></ele><time>2014-4-15T15:46:13Z</time></trkpt>
<trkpt lat="45.68829314" lon="2.77923600"><ele></ele><time>2014-4-15T15:46:16Z</time></trkpt>
<trkpt lat="45.68761504" lon="2.77909351"><ele></ele><time>2014-4-15T15:46:19Z</time></trkpt>
<trkpt lat="45.68719142" lon="2.77897390"><ele></ele><time>2014-4-15T15:46:22Z</time></trkpt>
<trkpt lat="45.68630101" lon="2.77875873"><ele></ele><time>2014-4-15T15:46:25Z</time></trkpt>
<trkpt lat="45.68563742" lon="2.77857416"><ele></ele><time>2014-4-15T15:46:28Z</time></trkpt>
<trkpt lat="45.68500341" lon="2.77823905"><ele></ele><time>2014-4-15T15:46:31Z</time></trkpt>
<trkpt lat="45.68431458" lon="2.77778014"><ele></ele><time>2014-4-15T15:46:34Z</time></trkpt>
<trkpt lat="45.68306191" lon="2.77724119"><ele></ele><time>2014-4-15T15:46:37Z</time></trkpt>
<trkpt lat="45.68242002" lon="2.77726692"><ele></ele><time>2014-4-15T15:46:40Z</time></trkpt>
<trkpt lat="45.68204762" lon="2.77733674"><ele></ele><time>2014-4-15T15:46:43Z</time></trkpt>
<trkpt lat="45.68184609" lon="2.77720985"><ele></ele><time>2014-4-15T15:46:46Z</time></trkpt>
<trkpt lat="45.68166729" lon="2.77691963"><ele></ele><time>2014-4-15T15:46:49Z</time></trkpt>
<trkpt lat="45.68153386" lon="2.77653351"><ele></ele><time>2014-4-15T15:46:52Z</time></trkpt>
<trkpt lat="45.68126685" lon="2.77579336"><ele></ele><time>2014-4-15T15:46:55Z</time></trkpt>
<trkpt lat="45.68065287" lon="2.77544905"><ele></ele><time>2014-4-15T15:46:58Z</time></trkpt>
<trkpt lat="45.68047592" lon="2.77528913"><ele></ele><time>2014-4-15T15:47:1Z</time></trkpt>
<trkpt lat="45.68024425" lon="2.77503021"><ele></ele><time>2014-4-15T15:47:4Z</time></trkpt>
<trkpt lat="45.67999648" lon="2.77480960"><ele></ele><time>2014-4-15T15:47:7Z</time></trkpt>
<trkpt lat="45.67963363" lon="2.77456141"><ele></ele><time>2014-4-15T15:47:10Z</time></trkpt>
<trkpt lat="45.67939541" lon="2.77422178"><ele></ele><time>2014-4-15T15:47:13Z</time></trkpt>
<trkpt lat="45.67932199" lon="2.77404961"><ele></ele><time>2014-4-15T15:47:16Z</time></trkpt>
<trkpt lat="45.67926281" lon="2.77390284"><ele></ele><time>2014-4-15T15:47:19Z</time></trkpt>
<trkpt lat="45.67912677" lon="2.77372498"><ele></ele><time>2014-4-15T15:47:22Z</time></trkpt>
<trkpt lat="45.67886702" lon="2.77348124"><ele></ele><time>2014-4-15T15:47:25Z</time></trkpt>
<trkpt lat="45.67886333" lon="2.77346439"><ele></ele><time>2014-4-15T15:47:28Z</time></trkpt>
<trkpt lat="45.67891337" lon="2.77341032"><ele></ele><time>2014-4-15T15:47:31Z</time></trkpt>
<trkpt lat="45.67892812" lon="2.77340027"><ele></ele><time>2014-4-15T15:47:34Z</time></trkpt>
<trkpt lat="45.67890901" lon="2.77341904"><ele></ele><time>2014-4-15T15:47:37Z</time></trkpt>
<trkpt lat="45.67891303" lon="2.77341904"><ele></ele><time>2014-4-15T15:47:40Z</time></trkpt>
<trkpt lat="45.67882578" lon="2.77346104"><ele></ele><time>2014-4-15T15:47:43Z</time></trkpt>
<trkpt lat="45.67852076" lon="2.77316792"><ele></ele><time>2014-4-15T15:47:46Z</time></trkpt>
<trkpt lat="45.67822111" lon="2.77299433"><ele></ele><time>2014-4-15T15:47:49Z</time></trkpt>
<trkpt lat="45.67799161" lon="2.77268076"><ele></ele><time>2014-4-15T15:47:52Z</time></trkpt>
<trkpt lat="45.67797602" lon="2.77261379"><ele></ele><time>2014-4-15T15:47:55Z</time></trkpt>
<trkpt lat="45.67793378" lon="2.77244976"><ele></ele><time>2014-4-15T15:47:58Z</time></trkpt>
<trkpt lat="45.67787737" lon="2.77234633"><ele></ele><time>2014-4-15T15:48:1Z</time></trkpt>
<trkpt lat="45.67757050" lon="2.77188557"><ele></ele><time>2014-4-15T15:48:4Z</time></trkpt>
<trkpt lat="45.67707673" lon="2.77146287"><ele></ele><time>2014-4-15T15:48:7Z</time></trkpt>
<trkpt lat="45.67651221" lon="2.77113715"><ele></ele><time>2014-4-15T15:48:10Z</time></trkpt>
<trkpt lat="45.67630760" lon="2.77108057"><ele></ele><time>2014-4-15T15:48:13Z</time></trkpt>
<trkpt lat="45.67615790" lon="2.77134938"><ele></ele><time>2014-4-15T15:48:16Z</time></trkpt>
<trkpt lat="45.67614919" lon="2.77157678"><ele></ele><time>2014-4-15T15:48:19Z</time></trkpt>
<trkpt lat="45.67615857" lon="2.77164937"><ele></ele><time>2014-4-15T15:48:22Z</time></trkpt>
<trkpt lat="45.67644088" lon="2.77194844"><ele></ele><time>2014-4-15T15:48:25Z</time></trkpt>
<trkpt lat="45.67671957" lon="2.77221406"><ele></ele><time>2014-4-15T15:48:28Z</time></trkpt>
<trkpt lat="45.67663299" lon="2.77249024"><ele></ele><time>2014-4-15T15:48:31Z</time></trkpt>
<trkpt lat="45.67627969" lon="2.77255654"><ele></ele><time>2014-4-15T15:48:34Z</time></trkpt>
<trkpt lat="45.67572682" lon="2.77255872"><ele></ele><time>2014-4-15T15:48:37Z</time></trkpt>
<trkpt lat="45.67521796" lon="2.77253659"><ele></ele><time>2014-4-15T15:48:40Z</time></trkpt>
<trkpt lat="45.67492467" lon="2.77247164"><ele></ele><time>2014-4-15T15:48:43Z</time></trkpt>
<trkpt lat="45.67444271" lon="2.77231758"><ele></ele><time>2014-4-15T15:48:46Z</time></trkpt>
<trkpt lat="45.67373796" lon="2.77221599"><ele></ele><time>2014-4-15T15:48:49Z</time></trkpt>
<trkpt lat="45.67331082" lon="2.77217710"><ele></ele><time>2014-4-15T15:48:52Z</time></trkpt>
<trkpt lat="45.67270825" lon="2.77209152"><ele></ele><time>2014-4-15T15:48:55Z</time></trkpt>
<trkpt lat="45.67223132" lon="2.77189764"><ele></ele><time>2014-4-15T15:48:58Z</time></trkpt>
<trkpt lat="45.67192546" lon="2.77179589"><ele></ele><time>2014-4-15T15:49:1Z</time></trkpt>
<trkpt lat="45.67131853" lon="2.77152951"><ele></ele><time>2014-4-15T15:49:4Z</time></trkpt>
<trkpt lat="45.67101879" lon="2.77135684"><ele></ele><time>2014-4-15T15:49:7Z</time></trkpt>
<trkpt lat="45.67054974" lon="2.77111595"><ele></ele><time>2014-4-15T15:49:10Z</time></trkpt>
<trkpt lat="45.67006937" lon="2.77079492"><ele></ele><time>2014-4-15T15:49:13Z</time></trkpt>
<trkpt lat="45.66947241" lon="2.77061689"><ele></ele><time>2014-4-15T15:49:16Z</time></trkpt>
<trkpt lat="45.66907251" lon="2.77063424"><ele></ele><time>2014-4-15T15:49:19Z</time></trkpt>
<trkpt lat="45.66892013" lon="2.77059568"><ele></ele><time>2014-4-15T15:49:22Z</time></trkpt>
<trkpt lat="45.66865861" lon="2.77052846"><ele></ele><time>2014-4-15T15:49:25Z</time></trkpt>
<trkpt lat="45.66856164" lon="2.77048445"><ele></ele><time>2014-4-15T15:49:28Z</time></trkpt>
<trkpt lat="45.66838352" lon="2.77028848"><ele></ele><time>2014-4-15T15:49:31Z</time></trkpt>
<trkpt lat="45.66827808" lon="2.77024607"><ele></ele><time>2014-4-15T15:49:34Z</time></trkpt>
<trkpt lat="45.66820415" lon="2.76998699"><ele></ele><time>2014-4-15T15:49:37Z</time></trkpt>
<trkpt lat="45.66818780" lon="2.76958072"><ele></ele><time>2014-4-15T15:49:40Z</time></trkpt>
<trkpt lat="45.66796920" lon="2.76884671"><ele></ele><time>2014-4-15T15:49:43Z</time></trkpt>
<trkpt lat="45.66782864" lon="2.76838780"><ele></ele><time>2014-4-15T15:49:46Z</time></trkpt>
<trkpt lat="45.66743863" lon="2.76840549"><ele></ele><time>2014-4-15T15:49:49Z</time></trkpt>
<trkpt lat="45.66728516" lon="2.76845142"><ele></ele><time>2014-4-15T15:49:52Z</time></trkpt>
<trkpt lat="45.66717971" lon="2.76847087"><ele></ele><time>2014-4-15T15:49:55Z</time></trkpt>
<trkpt lat="45.66701082" lon="2.76859316"><ele></ele><time>2014-4-15T15:49:58Z</time></trkpt>
<trkpt lat="45.66686254" lon="2.76846081"><ele></ele><time>2014-4-15T15:50:1Z</time></trkpt>
<trkpt lat="45.66677629" lon="2.76818572"><ele></ele><time>2014-4-15T15:50:4Z</time></trkpt>
<trkpt lat="45.66678685" lon="2.76787517"><ele></ele><time>2014-4-15T15:50:7Z</time></trkpt>
<trkpt lat="45.66678375" lon="2.76780082"><ele></ele><time>2014-4-15T15:50:10Z</time></trkpt>
<trkpt lat="45.66668845" lon="2.76767987"><ele></ele><time>2014-4-15T15:50:13Z</time></trkpt>
<trkpt lat="45.66626726" lon="2.76728408"><ele></ele><time>2014-4-15T15:50:16Z</time></trkpt>
<trkpt lat="45.66617480" lon="2.76718659"><ele></ele><time>2014-4-15T15:50:19Z</time></trkpt>
<trkpt lat="45.66539789" lon="2.76662861"><ele></ele><time>2014-4-15T15:50:22Z</time></trkpt>
<trkpt lat="45.66535933" lon="2.76674638"><ele></ele><time>2014-4-15T15:50:25Z</time></trkpt>
<trkpt lat="45.66528222" lon="2.76692256"><ele></ele><time>2014-4-15T15:50:28Z</time></trkpt>
<trkpt lat="45.66520192" lon="2.76714963"><ele></ele><time>2014-4-15T15:50:31Z</time></trkpt>
<trkpt lat="45.66514995" lon="2.76730956"><ele></ele><time>2014-4-15T15:50:34Z</time></trkpt>
<trkpt lat="45.66486119" lon="2.76744274"><ele></ele><time>2014-4-15T15:50:37Z</time></trkpt>
<trkpt lat="45.66482725" lon="2.76741316"><ele></ele><time>2014-4-15T15:50:40Z</time></trkpt>
<trkpt lat="45.66429877" lon="2.76708165"><ele></ele><time>2014-4-15T15:50:43Z</time></trkpt>
<trkpt lat="45.66362176" lon="2.76701560"><ele></ele><time>2014-4-15T15:50:46Z</time></trkpt>
<trkpt lat="45.66306604" lon="2.76698778"><ele></ele><time>2014-4-15T15:50:49Z</time></trkpt>
<trkpt lat="45.66247922" lon="2.76702583"><ele></ele><time>2014-4-15T15:50:52Z</time></trkpt>
<trkpt lat="45.66177204" lon="2.76720302"><ele></ele><time>2014-4-15T15:50:55Z</time></trkpt>
<trkpt lat="45.66126192" lon="2.76738449"><ele></ele><time>2014-4-15T15:50:58Z</time></trkpt>
<trkpt lat="45.66071056" lon="2.76778716"><ele></ele><time>2014-4-15T15:51:1Z</time></trkpt>
<trkpt lat="45.65972476" lon="2.76851194"><ele></ele><time>2014-4-15T15:51:4Z</time></trkpt>
<trkpt lat="45.65914281" lon="2.76927520"><ele></ele><time>2014-4-15T15:51:7Z</time></trkpt>
<trkpt lat="45.65866630" lon="2.76986377"><ele></ele><time>2014-4-15T15:51:10Z</time></trkpt>
<trkpt lat="45.65847611" lon="2.77019125"><ele></ele><time>2014-4-15T15:51:13Z</time></trkpt>
<trkpt lat="45.65808853" lon="2.77008170"><ele></ele><time>2014-4-15T15:51:16Z</time></trkpt>
<trkpt lat="45.65769415" lon="2.77034565"><ele></ele><time>2014-4-15T15:51:19Z</time></trkpt>
<trkpt lat="45.65722109" lon="2.77053437"><ele></ele><time>2014-4-15T15:51:22Z</time></trkpt>
<trkpt lat="45.65688410" lon="2.77043550"><ele></ele><time>2014-4-15T15:51:25Z</time></trkpt>
<trkpt lat="45.65641303" lon="2.77011107"><ele></ele><time>2014-4-15T15:51:28Z</time></trkpt>
<trkpt lat="45.65609840" lon="2.77004445"><ele></ele><time>2014-4-15T15:51:31Z</time></trkpt>
<trkpt lat="45.65587324" lon="2.77010683"><ele></ele><time>2014-4-15T15:51:34Z</time></trkpt>
<trkpt lat="45.65562869" lon="2.77044430"><ele></ele><time>2014-4-15T15:51:37Z</time></trkpt>
<trkpt lat="45.65559081" lon="2.77080271"><ele></ele><time>2014-4-15T15:51:40Z</time></trkpt>
<trkpt lat="45.65558678" lon="2.77082870"><ele></ele><time>2014-4-15T15:51:43Z</time></trkpt>
<trkpt lat="45.65553825" lon="2.77126682"><ele></ele><time>2014-4-15T15:51:46Z</time></trkpt>
<trkpt lat="45.65546215" lon="2.77181248"><ele></ele><time>2014-4-15T15:51:49Z</time></trkpt>
<trkpt lat="45.65541177" lon="2.77225396"><ele></ele><time>2014-4-15T15:51:52Z</time></trkpt>
<trkpt lat="45.65536944" lon="2.77261128"><ele></ele><time>2014-4-15T15:51:55Z</time></trkpt>
<trkpt lat="45.65547019" lon="2.77268722"><ele></ele><time>2014-4-15T15:51:58Z</time></trkpt>
<trkpt lat="45.65611870" lon="2.77288428"><ele></ele><time>2014-4-15T15:52:1Z</time></trkpt>
<trkpt lat="45.65672848" lon="2.77309198"><ele></ele><time>2014-4-15T15:52:4Z</time></trkpt>
<trkpt lat="45.65735327" lon="2.77328828"><ele></ele><time>2014-4-15T15:52:7Z</time></trkpt>
<trkpt lat="45.65787312" lon="2.77344008"><ele></ele><time>2014-4-15T15:52:10Z</time></trkpt>
<trkpt lat="45.65839439" lon="2.77362088"><ele></ele><time>2014-4-15T15:52:13Z</time></trkpt>
<trkpt lat="45.65869806" lon="2.77397962"><ele></ele><time>2014-4-15T15:52:16Z</time></trkpt>
<trkpt lat="45.65869379" lon="2.77402312"><ele></ele><time>2014-4-15T15:52:19Z</time></trkpt>
<trkpt lat="45.65857963" lon="2.77410694"><ele></ele><time>2014-4-15T15:52:22Z</time></trkpt>
<trkpt lat="45.65801871" lon="2.77409303"><ele></ele><time>2014-4-15T15:52:25Z</time></trkpt>
<trkpt lat="45.65752476" lon="2.77462243"><ele></ele><time>2014-4-15T15:52:28Z</time></trkpt>
<trkpt lat="45.65696427" lon="2.77504287"><ele></ele><time>2014-4-15T15:52:31Z</time></trkpt>
<trkpt lat="45.65627117" lon="2.77525459"><ele></ele><time>2014-4-15T15:52:34Z</time></trkpt>
<trkpt lat="45.65591116" lon="2.77565206"><ele></ele><time>2014-4-15T15:52:37Z</time></trkpt>
<trkpt lat="45.65572550" lon="2.77649034"><ele></ele><time>2014-4-15T15:52:40Z</time></trkpt>
<trkpt lat="45.65541579" lon="2.77719978"><ele></ele><time>2014-4-15T15:52:43Z</time></trkpt>
<trkpt lat="45.65514632" lon="2.77771594"><ele></ele><time>2014-4-15T15:52:46Z</time></trkpt>
<trkpt lat="45.65498153" lon="2.77853896"><ele></ele><time>2014-4-15T15:52:49Z</time></trkpt>
<trkpt lat="45.65474709" lon="2.77929291"><ele></ele><time>2014-4-15T15:52:52Z</time></trkpt>
<trkpt lat="45.65476041" lon="2.77970379"><ele></ele><time>2014-4-15T15:52:55Z</time></trkpt>
<trkpt lat="45.65479168" lon="2.77979189"><ele></ele><time>2014-4-15T15:52:58Z</time></trkpt>
<trkpt lat="45.65486108" lon="2.77999666"><ele></ele><time>2014-4-15T15:53:1Z</time></trkpt>
<trkpt lat="45.65492277" lon="2.78039052"><ele></ele><time>2014-4-15T15:53:4Z</time></trkpt>
<trkpt lat="45.65488136" lon="2.78068967"><ele></ele><time>2014-4-15T15:53:7Z</time></trkpt>
<trkpt lat="45.65479713" lon="2.78132359"><ele></ele><time>2014-4-15T15:53:10Z</time></trkpt>
<trkpt lat="45.65478539" lon="2.78165200"><ele></ele><time>2014-4-15T15:53:13Z</time></trkpt>
<trkpt lat="45.65479184" lon="2.78195961"><ele></ele><time>2014-4-15T15:53:16Z</time></trkpt>
<trkpt lat="45.65476703" lon="2.78222214"><ele></ele><time>2014-4-15T15:53:19Z</time></trkpt>
<trkpt lat="45.65431944" lon="2.78280275"><ele></ele><time>2014-4-15T15:53:22Z</time></trkpt>
<trkpt lat="45.65419681" lon="2.78269571"><ele></ele><time>2014-4-15T15:53:25Z</time></trkpt>
<trkpt lat="45.65401048" lon="2.78246756"><ele></ele><time>2014-4-15T15:53:28Z</time></trkpt>
<trkpt lat="45.65372592" lon="2.78237678"><ele></ele><time>2014-4-15T15:53:31Z</time></trkpt>
<trkpt lat="45.65371021" lon="2.78256573"><ele></ele><time>2014-4-15T15:53:34Z</time></trkpt>
<trkpt lat="45.65359660" lon="2.78285346"><ele></ele><time>2014-4-15T15:53:37Z</time></trkpt>
<trkpt lat="45.65361795" lon="2.78314228"><ele></ele><time>2014-4-15T15:53:40Z</time></trkpt>
<trkpt lat="45.65354971" lon="2.78333416"><ele></ele><time>2014-4-15T15:53:43Z</time></trkpt>
<trkpt lat="45.65354856" lon="2.78362279"><ele></ele><time>2014-4-15T15:53:46Z</time></trkpt>
<trkpt lat="45.65341259" lon="2.78387826"><ele></ele><time>2014-4-15T15:53:49Z</time></trkpt>
<trkpt lat="45.65321030" lon="2.78384455"><ele></ele><time>2014-4-15T15:53:52Z</time></trkpt>
<trkpt lat="45.65300698" lon="2.78406741"><ele></ele><time>2014-4-15T15:53:55Z</time></trkpt>
<trkpt lat="45.65282616" lon="2.78429044"><ele></ele><time>2014-4-15T15:53:58Z</time></trkpt>
<trkpt lat="45.65270886" lon="2.78457175"><ele></ele><time>2014-4-15T15:54:1Z</time></trkpt>
<trkpt lat="45.65263728" lon="2.78498070"><ele></ele><time>2014-4-15T15:54:4Z</time></trkpt>
<trkpt lat="45.65250032" lon="2.78558412"><ele></ele><time>2014-4-15T15:54:7Z</time></trkpt>
<trkpt lat="45.65214551" lon="2.78630404"><ele></ele><time>2014-4-15T15:54:10Z</time></trkpt>
<trkpt lat="45.65177386" lon="2.78696386"><ele></ele><time>2014-4-15T15:54:13Z</time></trkpt>
<trkpt lat="45.65176170" lon="2.78703796"><ele></ele><time>2014-4-15T15:54:16Z</time></trkpt>
<trkpt lat="45.65192750" lon="2.78713812"><ele></ele><time>2014-4-15T15:54:19Z</time></trkpt>
<trkpt lat="45.65223168" lon="2.78723653"><ele></ele><time>2014-4-15T15:54:22Z</time></trkpt>
<trkpt lat="45.65239169" lon="2.78729386"><ele></ele><time>2014-4-15T15:54:25Z</time></trkpt>
<trkpt lat="45.65275320" lon="2.78737868"><ele></ele><time>2014-4-15T15:54:28Z</time></trkpt>
<trkpt lat="45.65284574" lon="2.78739888"><ele></ele><time>2014-4-15T15:54:31Z</time></trkpt>
<trkpt lat="45.65317422" lon="2.78777037"><ele></ele><time>2014-4-15T15:54:34Z</time></trkpt>
<trkpt lat="45.65315729" lon="2.78818167"><ele></ele><time>2014-4-15T15:54:37Z</time></trkpt>
<trkpt lat="45.65309535" lon="2.78861929"><ele></ele><time>2014-4-15T15:54:40Z</time></trkpt>
<trkpt lat="45.65302854" lon="2.78892933"><ele></ele><time>2014-4-15T15:54:43Z</time></trkpt>
<trkpt lat="45.65293467" lon="2.78944666"><ele></ele><time>2014-4-15T15:54:46Z</time></trkpt>
<trkpt lat="45.65269754" lon="2.78975663"><ele></ele><time>2014-4-15T15:54:49Z</time></trkpt>
<trkpt lat="45.65212950" lon="2.78987884"><ele></ele><time>2014-4-15T15:54:52Z</time></trkpt>
<trkpt lat="45.65178341" lon="2.78987691"><ele></ele><time>2014-4-15T15:54:55Z</time></trkpt>
<trkpt lat="45.65143883" lon="2.78985972"><ele></ele><time>2014-4-15T15:54:58Z</time></trkpt>
<trkpt lat="45.65120364" lon="2.78991538"><ele></ele><time>2014-4-15T15:55:1Z</time></trkpt>
<trkpt lat="45.65096802" lon="2.78994774"><ele></ele><time>2014-4-15T15:55:4Z</time></trkpt>
<trkpt lat="45.65067910" lon="2.78968697"><ele></ele><time>2014-4-15T15:55:7Z</time></trkpt>
<trkpt lat="45.65037735" lon="2.78954398"><ele></ele><time>2014-4-15T15:55:10Z</time></trkpt>
<trkpt lat="45.65009538" lon="2.78975017"><ele></ele><time>2014-4-15T15:55:13Z</time></trkpt>
<trkpt lat="45.64970495" lon="2.79013130"><ele></ele><time>2014-4-15T15:55:16Z</time></trkpt>
<trkpt lat="45.64949063" lon="2.79047429"><ele></ele><time>2014-4-15T15:55:19Z</time></trkpt>
<trkpt lat="45.64930220" lon="2.79065818"><ele></ele><time>2014-4-15T15:55:22Z</time></trkpt>
<trkpt lat="45.64889953" lon="2.79088911"><ele></ele><time>2014-4-15T15:55:25Z</time></trkpt>
<trkpt lat="45.64848388" lon="2.79105649"><ele></ele><time>2014-4-15T15:55:28Z</time></trkpt>
<trkpt lat="45.64841397" lon="2.79107292"><ele></ele><time>2014-4-15T15:55:31Z</time></trkpt>
<trkpt lat="45.64826963" lon="2.79113051"><ele></ele><time>2014-4-15T15:55:34Z</time></trkpt>
<trkpt lat="45.64782556" lon="2.79141541"><ele></ele><time>2014-4-15T15:55:37Z</time></trkpt>
<trkpt lat="45.64758299" lon="2.79157852"><ele></ele><time>2014-4-15T15:55:40Z</time></trkpt>
<trkpt lat="45.64750353" lon="2.79163551"><ele></ele><time>2014-4-15T15:55:43Z</time></trkpt>
<trkpt lat="45.64713196" lon="2.79182939"><ele></ele><time>2014-4-15T15:55:46Z</time></trkpt>
<trkpt lat="45.64707538" lon="2.79185730"><ele></ele><time>2014-4-15T15:55:49Z</time></trkpt>
<trkpt lat="45.64690925" lon="2.79212628"><ele></ele><time>2014-4-15T15:55:52Z</time></trkpt>
<trkpt lat="45.64675804" lon="2.79235695"><ele></ele><time>2014-4-15T15:55:55Z</time></trkpt>
<trkpt lat="45.64679333" lon="2.79272332"><ele></ele><time>2014-4-15T15:55:58Z</time></trkpt>
<trkpt lat="45.64700665" lon="2.79302666"><ele></ele><time>2014-4-15T15:56:1Z</time></trkpt>
<trkpt lat="45.64709893" lon="2.79319136"><ele></ele><time>2014-4-15T15:56:4Z</time></trkpt>
<trkpt lat="45.64714411" lon="2.79369168"><ele></ele><time>2014-4-15T15:56:7Z</time></trkpt>
<trkpt lat="45.64708091" lon="2.79433323"><ele></ele><time>2014-4-15T15:56:10Z</time></trkpt>
<trkpt lat="45.64712198" lon="2.79468594"><ele></ele><time>2014-4-15T15:56:13Z</time></trkpt>
<trkpt lat="45.64726213" lon="2.79529681"><ele></ele><time>2014-4-15T15:56:16Z</time></trkpt>
<trkpt lat="45.64722776" lon="2.79554911"><ele></ele><time>2014-4-15T15:56:19Z</time></trkpt>
<trkpt lat="45.64690255" lon="2.79623634"><ele></ele><time>2014-4-15T15:56:22Z</time></trkpt>
<trkpt lat="45.64689308" lon="2.79675200"><ele></ele><time>2014-4-15T15:56:25Z</time></trkpt>
<trkpt lat="45.64697958" lon="2.79747083"><ele></ele><time>2014-4-15T15:56:28Z</time></trkpt>
<trkpt lat="45.64723640" lon="2.79783947"><ele></ele><time>2014-4-15T15:56:31Z</time></trkpt>
<trkpt lat="45.64771961" lon="2.79798464"><ele></ele><time>2014-4-15T15:56:34Z</time></trkpt>
<trkpt lat="45.64810200" lon="2.79799143"><ele></ele><time>2014-4-15T15:56:37Z</time></trkpt>
<trkpt lat="45.64860885" lon="2.79786679"><ele></ele><time>2014-4-15T15:56:40Z</time></trkpt>
<trkpt lat="45.64912249" lon="2.79780049"><ele></ele><time>2014-4-15T15:56:43Z</time></trkpt>
<trkpt lat="45.64982632" lon="2.79804105"><ele></ele><time>2014-4-15T15:56:46Z</time></trkpt>
<trkpt lat="45.64981132" lon="2.79832042"><ele></ele><time>2014-4-15T15:56:49Z</time></trkpt>
<trkpt lat="45.64968743" lon="2.79878176"><ele></ele><time>2014-4-15T15:56:52Z</time></trkpt>
<trkpt lat="45.64954151" lon="2.79897940"><ele></ele><time>2014-4-15T15:56:55Z</time></trkpt>
<trkpt lat="45.64941427" lon="2.79910756"><ele></ele><time>2014-4-15T15:56:58Z</time></trkpt>
<trkpt lat="45.64921671" lon="2.79933153"><ele></ele><time>2014-4-15T15:57:1Z</time></trkpt>
<trkpt lat="45.64914211" lon="2.79942012"><ele></ele><time>2014-4-15T15:57:4Z</time></trkpt>
<trkpt lat="45.64892518" lon="2.79969262"><ele></ele><time>2014-4-15T15:57:7Z</time></trkpt>
<trkpt lat="45.64873441" lon="2.79992203"><ele></ele><time>2014-4-15T15:57:10Z</time></trkpt>
<trkpt lat="45.64851204" lon="2.80021976"><ele></ele><time>2014-4-15T15:57:13Z</time></trkpt>
<trkpt lat="45.64836167" lon="2.80039921"><ele></ele><time>2014-4-15T15:57:16Z</time></trkpt>
<trkpt lat="45.64813376" lon="2.80070934"><ele></ele><time>2014-4-15T15:57:19Z</time></trkpt>
<trkpt lat="45.64804978" lon="2.80084832"><ele></ele><time>2014-4-15T15:57:22Z</time></trkpt>
<trkpt lat="45.64792447" lon="2.80105979"><ele></ele><time>2014-4-15T15:57:25Z</time></trkpt>
<trkpt lat="45.64775993" lon="2.80109692"><ele></ele><time>2014-4-15T15:57:28Z</time></trkpt>
<trkpt lat="45.64761836" lon="2.80139021"><ele></ele><time>2014-4-15T15:57:31Z</time></trkpt>
<trkpt lat="45.64767276" lon="2.80171065"><ele></ele><time>2014-4-15T15:57:34Z</time></trkpt>
<trkpt lat="45.64778248" lon="2.80197979"><ele></ele><time>2014-4-15T15:57:37Z</time></trkpt>
<trkpt lat="45.64776111" lon="2.80219948"><ele></ele><time>2014-4-15T15:57:40Z</time></trkpt>
<trkpt lat="45.64764527" lon="2.80229822"><ele></ele><time>2014-4-15T15:57:43Z</time></trkpt>
<trkpt lat="45.64744226" lon="2.80246753"><ele></ele><time>2014-4-15T15:57:46Z</time></trkpt>
<trkpt lat="45.64741845" lon="2.80251958"><ele></ele><time>2014-4-15T15:57:49Z</time></trkpt>
<trkpt lat="45.64735550" lon="2.80260055"><ele></ele><time>2014-4-15T15:57:52Z</time></trkpt>
<trkpt lat="45.64718938" lon="2.80271086"><ele></ele><time>2014-4-15T15:57:55Z</time></trkpt>
<trkpt lat="45.64689240" lon="2.80290951"><ele></ele><time>2014-4-15T15:57:58Z</time></trkpt>
<trkpt lat="45.64664782" lon="2.80322475"><ele></ele><time>2014-4-15T15:58:1Z</time></trkpt>
<trkpt lat="45.64656526" lon="2.80336800"><ele></ele><time>2014-4-15T15:58:4Z</time></trkpt>
<trkpt lat="45.64642562" lon="2.80350513"><ele></ele><time>2014-4-15T15:58:7Z</time></trkpt>
<trkpt lat="45.64628430" lon="2.80358383"><ele></ele><time>2014-4-15T15:58:10Z</time></trkpt>
<trkpt lat="45.64618271" lon="2.80365240"><ele></ele><time>2014-4-15T15:58:13Z</time></trkpt>
<trkpt lat="45.64590694" lon="2.80381224"><ele></ele><time>2014-4-15T15:58:16Z</time></trkpt>
<trkpt lat="45.64564199" lon="2.80394317"><ele></ele><time>2014-4-15T15:58:19Z</time></trkpt>
<trkpt lat="45.64540252" lon="2.80415280"><ele></ele><time>2014-4-15T15:58:22Z</time></trkpt>
<trkpt lat="45.64507093" lon="2.80422228"><ele></ele><time>2014-4-15T15:58:25Z</time></trkpt>
<trkpt lat="45.64481319" lon="2.80426662"><ele></ele><time>2014-4-15T15:58:28Z</time></trkpt>
<trkpt lat="45.64449468" lon="2.80421466"><ele></ele><time>2014-4-15T15:58:31Z</time></trkpt>
<trkpt lat="45.64446853" lon="2.80418004"><ele></ele><time>2014-4-15T15:58:34Z</time></trkpt>
<trkpt lat="45.64445218" lon="2.80413821"><ele></ele><time>2014-4-15T15:58:37Z</time></trkpt>
<trkpt lat="45.64439837" lon="2.80402766"><ele></ele><time>2014-4-15T15:58:40Z</time></trkpt>
<trkpt lat="45.64439258" lon="2.80400704"><ele></ele><time>2014-4-15T15:58:43Z</time></trkpt>
<trkpt lat="45.64440583" lon="2.80401265"><ele></ele><time>2014-4-15T15:58:46Z</time></trkpt>
<trkpt lat="45.64438588" lon="2.80401098"><ele></ele><time>2014-4-15T15:58:49Z</time></trkpt>
<trkpt lat="45.64434037" lon="2.80396521"><ele></ele><time>2014-4-15T15:58:52Z</time></trkpt>
<trkpt lat="45.64402169" lon="2.80370638"><ele></ele><time>2014-4-15T15:58:55Z</time></trkpt>
<trkpt lat="45.64357024" lon="2.80356087"><ele></ele><time>2014-4-15T15:58:58Z</time></trkpt>
<trkpt lat="45.64315290" lon="2.80341410"><ele></ele><time>2014-4-15T15:59:1Z</time></trkpt>
<trkpt lat="45.64247740" lon="2.80324085"><ele></ele><time>2014-4-15T15:59:4Z</time></trkpt>
<trkpt lat="45.64186771" lon="2.80321394"><ele></ele><time>2014-4-15T15:59:7Z</time></trkpt>
<trkpt lat="45.64139547" lon="2.80334361"><ele></ele><time>2014-4-15T15:59:10Z</time></trkpt>
<trkpt lat="45.64094503" lon="2.80342567"><ele></ele><time>2014-4-15T15:59:13Z</time></trkpt>
<trkpt lat="45.64024908" lon="2.80375483"><ele></ele><time>2014-4-15T15:59:16Z</time></trkpt>
<trkpt lat="45.63988723" lon="2.80406445"><ele></ele><time>2014-4-15T15:59:19Z</time></trkpt>
<trkpt lat="45.63942438" lon="2.80473610"><ele></ele><time>2014-4-15T15:59:22Z</time></trkpt>
<trkpt lat="45.63906547" lon="2.80507196"><ele></ele><time>2014-4-15T15:59:25Z</time></trkpt>
<trkpt lat="45.63866066" lon="2.80527303"><ele></ele><time>2014-4-15T15:59:28Z</time></trkpt>
<trkpt lat="45.63824672" lon="2.80572432"><ele></ele><time>2014-4-15T15:59:31Z</time></trkpt>
<trkpt lat="45.63808026" lon="2.80575475"><ele></ele><time>2014-4-15T15:59:34Z</time></trkpt>
<trkpt lat="45.63775888" lon="2.80577837"><ele></ele><time>2014-4-15T15:59:37Z</time></trkpt>
<trkpt lat="45.63753370" lon="2.80584058"><ele></ele><time>2014-4-15T15:59:40Z</time></trkpt>
<trkpt lat="45.63705777" lon="2.80670222"><ele></ele><time>2014-4-15T15:59:43Z</time></trkpt>
<trkpt lat="45.63621151" lon="2.80704841"><ele></ele><time>2014-4-15T15:59:46Z</time></trkpt>
<trkpt lat="45.63550509" lon="2.80725486"><ele></ele><time>2014-4-15T15:59:49Z</time></trkpt>
<trkpt lat="45.63469866" lon="2.80754789"><ele></ele><time>2014-4-15T15:59:52Z</time></trkpt>
<trkpt lat="45.63437001" lon="2.80766674"><ele></ele><time>2014-4-15T15:59:55Z</time></trkpt>
<trkpt lat="45.63420564" lon="2.80772760"><ele></ele><time>2014-4-15T15:59:58Z</time></trkpt>
<trkpt lat="45.63393231" lon="2.80782960"><ele></ele><time>2014-4-15T16:0:1Z</time></trkpt>
<trkpt lat="45.63244762" lon="2.80856906"><ele></ele><time>2014-4-15T16:0:4Z</time></trkpt>
<trkpt lat="45.63229113" lon="2.80863846"><ele></ele><time>2014-4-15T16:0:7Z</time></trkpt>
<trkpt lat="45.63089261" lon="2.80923047"><ele></ele><time>2014-4-15T16:0:10Z</time></trkpt>
<trkpt lat="45.63010085" lon="2.80957044"><ele></ele><time>2014-4-15T16:0:13Z</time></trkpt>
<trkpt lat="45.62969710" lon="2.80955678"><ele></ele><time>2014-4-15T16:0:16Z</time></trkpt>
<trkpt lat="45.62951789" lon="2.80945301"><ele></ele><time>2014-4-15T16:0:19Z</time></trkpt>
<trkpt lat="45.62928890" lon="2.80944647"><ele></ele><time>2014-4-15T16:0:22Z</time></trkpt>
<trkpt lat="45.62891532" lon="2.80978745"><ele></ele><time>2014-4-15T16:0:25Z</time></trkpt>
<trkpt lat="45.62867023" lon="2.81017176"><ele></ele><time>2014-4-15T16:0:28Z</time></trkpt>
<trkpt lat="45.62852045" lon="2.81067518"><ele></ele><time>2014-4-15T16:0:31Z</time></trkpt>
<trkpt lat="45.62842567" lon="2.81092438"><ele></ele><time>2014-4-15T16:0:34Z</time></trkpt>
<trkpt lat="45.62831213" lon="2.81117986"><ele></ele><time>2014-4-15T16:0:37Z</time></trkpt>
<trkpt lat="45.62826010" lon="2.81145637"><ele></ele><time>2014-4-15T16:0:40Z</time></trkpt>
<trkpt lat="45.62817515" lon="2.81165953"><ele></ele><time>2014-4-15T16:0:43Z</time></trkpt>
<trkpt lat="45.62810687" lon="2.81185129"><ele></ele><time>2014-4-15T16:0:46Z</time></trkpt>
<trkpt lat="45.62797002" lon="2.81229891"><ele></ele><time>2014-4-15T16:0:49Z</time></trkpt>
<trkpt lat="45.62798660" lon="2.81266713"><ele></ele><time>2014-4-15T16:0:52Z</time></trkpt>
<trkpt lat="45.62788225" lon="2.81291189"><ele></ele><time>2014-4-15T16:0:55Z</time></trkpt>
<trkpt lat="45.62782047" lon="2.81308958"><ele></ele><time>2014-4-15T16:0:58Z</time></trkpt>
<trkpt lat="45.62781192" lon="2.81333350"><ele></ele><time>2014-4-15T16:1:1Z</time></trkpt>
<trkpt lat="45.62782508" lon="2.81355671"><ele></ele><time>2014-4-15T16:1:4Z</time></trkpt>
<trkpt lat="45.62782089" lon="2.81373440"><ele></ele><time>2014-4-15T16:1:7Z</time></trkpt>
<trkpt lat="45.62769346" lon="2.81386730"><ele></ele><time>2014-4-15T16:1:10Z</time></trkpt>
<trkpt lat="45.62755824" lon="2.81393024"><ele></ele><time>2014-4-15T16:1:13Z</time></trkpt>
<trkpt lat="45.62737845" lon="2.81389663"><ele></ele><time>2014-4-15T16:1:16Z</time></trkpt>
<trkpt lat="45.62724405" lon="2.81376725"><ele></ele><time>2014-4-15T16:1:19Z</time></trkpt>
<trkpt lat="45.62697443" lon="2.81370080"><ele></ele><time>2014-4-15T16:1:22Z</time></trkpt>
<trkpt lat="45.62674938" lon="2.81373091"><ele></ele><time>2014-4-15T16:1:25Z</time></trkpt>
<trkpt lat="45.62647977" lon="2.81366447"><ele></ele><time>2014-4-15T16:1:28Z</time></trkpt>
<trkpt lat="45.62618780" lon="2.81356578"><ele></ele><time>2014-4-15T16:1:31Z</time></trkpt>
<trkpt lat="45.62591777" lon="2.81359551"><ele></ele><time>2014-4-15T16:1:34Z</time></trkpt>
<trkpt lat="45.62578160" lon="2.81388283"><ele></ele><time>2014-4-15T16:1:37Z</time></trkpt>
<trkpt lat="45.62575829" lon="2.81407496"><ele></ele><time>2014-4-15T16:1:40Z</time></trkpt>
<trkpt lat="45.62591490" lon="2.81426865"><ele></ele><time>2014-4-15T16:1:43Z</time></trkpt>
<trkpt lat="45.62604876" lon="2.81452625"><ele></ele><time>2014-4-15T16:1:46Z</time></trkpt>
<trkpt lat="45.62613790" lon="2.81471936"><ele></ele><time>2014-4-15T16:1:49Z</time></trkpt>
<trkpt lat="45.62620401" lon="2.81504049"><ele></ele><time>2014-4-15T16:1:52Z</time></trkpt>
<trkpt lat="45.62579876" lon="2.81513315"><ele></ele><time>2014-4-15T16:1:55Z</time></trkpt>
<trkpt lat="45.62555232" lon="2.81490662"><ele></ele><time>2014-4-15T16:1:58Z</time></trkpt>
<trkpt lat="45.62544027" lon="2.81480949"><ele></ele><time>2014-4-15T16:2:1Z</time></trkpt>
<trkpt lat="45.62525452" lon="2.81476110"><ele></ele><time>2014-4-15T16:2:4Z</time></trkpt>
<trkpt lat="45.62511195" lon="2.81482958"><ele></ele><time>2014-4-15T16:2:7Z</time></trkpt>
<trkpt lat="45.62510382" lon="2.81483268"><ele></ele><time>2014-4-15T16:2:10Z</time></trkpt>
<trkpt lat="45.62499267" lon="2.81487778"><ele></ele><time>2014-4-15T16:2:13Z</time></trkpt>
<trkpt lat="45.62480810" lon="2.81494601"><ele></ele><time>2014-4-15T16:2:16Z</time></trkpt>
<trkpt lat="45.62463820" lon="2.81492589"><ele></ele><time>2014-4-15T16:2:19Z</time></trkpt>
<trkpt lat="45.62461892" lon="2.81493980"><ele></ele><time>2014-4-15T16:2:22Z</time></trkpt>
<trkpt lat="45.62449252" lon="2.81510048"><ele></ele><time>2014-4-15T16:2:25Z</time></trkpt>
<trkpt lat="45.62448104" lon="2.81511968"><ele></ele><time>2014-4-15T16:2:28Z</time></trkpt>
<trkpt lat="45.62426870" lon="2.81528016"><ele></ele><time>2014-4-15T16:2:31Z</time></trkpt>
<trkpt lat="45.62411017" lon="2.81553522"><ele></ele><time>2014-4-15T16:2:34Z</time></trkpt>
<trkpt lat="45.62390611" lon="2.81591811"><ele></ele><time>2014-4-15T16:2:37Z</time></trkpt>
<trkpt lat="45.62360723" lon="2.81594153"><ele></ele><time>2014-4-15T16:2:40Z</time></trkpt>
<trkpt lat="45.62313809" lon="2.81570331"><ele></ele><time>2014-4-15T16:2:43Z</time></trkpt>
<trkpt lat="45.62284498" lon="2.81540156"><ele></ele><time>2014-4-15T16:2:46Z</time></trkpt>
<trkpt lat="45.62253828" lon="2.81491793"><ele></ele><time>2014-4-15T16:2:49Z</time></trkpt>
<trkpt lat="45.62234877" lon="2.81468231"><ele></ele><time>2014-4-15T16:2:52Z</time></trkpt>
<trkpt lat="45.62215473" lon="2.81472020"><ele></ele><time>2014-4-15T16:2:55Z</time></trkpt>
<trkpt lat="45.62201525" lon="2.81505313"><ele></ele><time>2014-4-15T16:2:58Z</time></trkpt>
<trkpt lat="45.62204844" lon="2.81542378"><ele></ele><time>2014-4-15T16:3:1Z</time></trkpt>
<trkpt lat="45.62202824" lon="2.81583633"><ele></ele><time>2014-4-15T16:3:4Z</time></trkpt>
<trkpt lat="45.62181878" lon="2.81613615"><ele></ele><time>2014-4-15T16:3:7Z</time></trkpt>
<trkpt lat="45.62149465" lon="2.81633715"><ele></ele><time>2014-4-15T16:3:10Z</time></trkpt>
<trkpt lat="45.62120405" lon="2.81651661"><ele></ele><time>2014-4-15T16:3:13Z</time></trkpt>
<trkpt lat="45.62082963" lon="2.81676974"><ele></ele><time>2014-4-15T16:3:16Z</time></trkpt>
<trkpt lat="45.62026243" lon="2.81712555"><ele></ele><time>2014-4-15T16:3:19Z</time></trkpt>
<trkpt lat="45.62003285" lon="2.81718791"><ele></ele><time>2014-4-15T16:3:22Z</time></trkpt>
<trkpt lat="45.61979824" lon="2.81737056"><ele></ele><time>2014-4-15T16:3:25Z</time></trkpt>
<trkpt lat="45.61977200" lon="2.81756066"><ele></ele><time>2014-4-15T16:3:28Z</time></trkpt>
<trkpt lat="45.61968475" lon="2.81792343"><ele></ele><time>2014-4-15T16:3:31Z</time></trkpt>
<trkpt lat="45.61945081" lon="2.81891626"><ele></ele><time>2014-4-15T16:3:34Z</time></trkpt>
<trkpt lat="45.61943438" lon="2.81903059"><ele></ele><time>2014-4-15T16:3:37Z</time></trkpt>
<trkpt lat="45.61941125" lon="2.81938288"><ele></ele><time>2014-4-15T16:3:40Z</time></trkpt>
<trkpt lat="45.61948568" lon="2.81973358"><ele></ele><time>2014-4-15T16:3:43Z</time></trkpt>
<trkpt lat="45.61977125" lon="2.82003307"><ele></ele><time>2014-4-15T16:3:46Z</time></trkpt>
<trkpt lat="45.62030844" lon="2.82034948"><ele></ele><time>2014-4-15T16:3:49Z</time></trkpt>
<trkpt lat="45.62049402" lon="2.82035300"><ele></ele><time>2014-4-15T16:3:52Z</time></trkpt>
<trkpt lat="45.62046342" lon="2.82033934"><ele></ele><time>2014-4-15T16:3:55Z</time></trkpt>
<trkpt lat="45.62045638" lon="2.82035929"><ele></ele><time>2014-4-15T16:3:58Z</time></trkpt>
<trkpt lat="45.62051011" lon="2.82046851"><ele></ele><time>2014-4-15T16:4:1Z</time></trkpt>
<trkpt lat="45.62050274" lon="2.82051126"><ele></ele><time>2014-4-15T16:4:4Z</time></trkpt>
<trkpt lat="45.62038908" lon="2.82086170"><ele></ele><time>2014-4-15T16:4:7Z</time></trkpt>
<trkpt lat="45.62003964" lon="2.82112640"><ele></ele><time>2014-4-15T16:4:10Z</time></trkpt>
<trkpt lat="45.61992925" lon="2.82117527"><ele></ele><time>2014-4-15T16:4:13Z</time></trkpt>
<trkpt lat="45.61976387" lon="2.82124551"><ele></ele><time>2014-4-15T16:4:16Z</time></trkpt>
<trkpt lat="45.61974116" lon="2.82125238"><ele></ele><time>2014-4-15T16:4:19Z</time></trkpt>
<trkpt lat="45.61968684" lon="2.82132212"><ele></ele><time>2014-4-15T16:4:22Z</time></trkpt>
<trkpt lat="45.61967242" lon="2.82146478"><ele></ele><time>2014-4-15T16:4:25Z</time></trkpt>
<trkpt lat="45.61967092" lon="2.82153946"><ele></ele><time>2014-4-15T16:4:28Z</time></trkpt>
<trkpt lat="45.61966295" lon="2.82177634"><ele></ele><time>2014-4-15T16:4:31Z</time></trkpt>
<trkpt lat="45.61940186" lon="2.82217414"><ele></ele><time>2014-4-15T16:4:34Z</time></trkpt>
<trkpt lat="45.61932709" lon="2.82216802"><ele></ele><time>2014-4-15T16:4:37Z</time></trkpt>
<trkpt lat="45.61913833" lon="2.82217666"><ele></ele><time>2014-4-15T16:4:40Z</time></trkpt>
<trkpt lat="45.61905736" lon="2.82221932"><ele></ele><time>2014-4-15T16:4:43Z</time></trkpt>
<trkpt lat="45.61898553" lon="2.82229744"><ele></ele><time>2014-4-15T16:4:46Z</time></trkpt>
<trkpt lat="45.61899961" lon="2.82239065"><ele></ele><time>2014-4-15T16:4:49Z</time></trkpt>
<trkpt lat="45.61901612" lon="2.82254127"><ele></ele><time>2014-4-15T16:4:52Z</time></trkpt>
<trkpt lat="45.61902962" lon="2.82266750"><ele></ele><time>2014-4-15T16:4:55Z</time></trkpt>
<trkpt lat="45.61904336" lon="2.82287579"><ele></ele><time>2014-4-15T16:4:58Z</time></trkpt>
<trkpt lat="45.61902425" lon="2.82300839"><ele></ele><time>2014-4-15T16:5:1Z</time></trkpt>
<trkpt lat="45.61905275" lon="2.82322808"><ele></ele><time>2014-4-15T16:5:4Z</time></trkpt>
<trkpt lat="45.61904755" lon="2.82331601"><ele></ele><time>2014-4-15T16:5:7Z</time></trkpt>
<trkpt lat="45.61898125" lon="2.82348926"><ele></ele><time>2014-4-15T16:5:10Z</time></trkpt>
<trkpt lat="45.61897287" lon="2.82353947"><ele></ele><time>2014-4-15T16:5:13Z</time></trkpt>
<trkpt lat="45.61896918" lon="2.82355095"><ele></ele><time>2014-4-15T16:5:16Z</time></trkpt>
<trkpt lat="45.61893524" lon="2.82360602"><ele></ele><time>2014-4-15T16:5:19Z</time></trkpt>
<trkpt lat="45.61879501" lon="2.82368816"><ele></ele><time>2014-4-15T16:5:22Z</time></trkpt>
<trkpt lat="45.61848152" lon="2.82385890"><ele></ele><time>2014-4-15T16:5:25Z</time></trkpt>
<trkpt lat="45.61836284" lon="2.82395328"><ele></ele><time>2014-4-15T16:5:28Z</time></trkpt>
<trkpt lat="45.61745960" lon="2.82433994"><ele></ele><time>2014-4-15T16:5:31Z</time></trkpt>
<trkpt lat="45.61634540" lon="2.82471637"><ele></ele><time>2014-4-15T16:5:34Z</time></trkpt>
<trkpt lat="45.61627105" lon="2.82475149"><ele></ele><time>2014-4-15T16:5:37Z</time></trkpt>
<trkpt lat="45.61489994" lon="2.82535046"><ele></ele><time>2014-4-15T16:5:40Z</time></trkpt>
<trkpt lat="45.61401514" lon="2.82589629"><ele></ele><time>2014-4-15T16:5:43Z</time></trkpt>
<trkpt lat="45.61290781" lon="2.82639401"><ele></ele><time>2014-4-15T16:5:46Z</time></trkpt>
<trkpt lat="45.61283187" lon="2.82640415"><ele></ele><time>2014-4-15T16:5:49Z</time></trkpt>
<trkpt lat="45.61252610" lon="2.82632796"><ele></ele><time>2014-4-15T16:5:52Z</time></trkpt>
<trkpt lat="45.61211413" lon="2.82606267"><ele></ele><time>2014-4-15T16:5:55Z</time></trkpt>
<trkpt lat="45.61198974" lon="2.82550134"><ele></ele><time>2014-4-15T16:5:58Z</time></trkpt>
<trkpt lat="45.61202830" lon="2.82511384"><ele></ele><time>2014-4-15T16:6:1Z</time></trkpt>
<trkpt lat="45.61175329" lon="2.82452661"><ele></ele><time>2014-4-15T16:6:4Z</time></trkpt>
<trkpt lat="45.61115038" lon="2.82448931"><ele></ele><time>2014-4-15T16:6:7Z</time></trkpt>
<trkpt lat="45.61084351" lon="2.82465569"><ele></ele><time>2014-4-15T16:6:10Z</time></trkpt>
<trkpt lat="45.61051285" lon="2.82482970"><ele></ele><time>2014-4-15T16:6:13Z</time></trkpt>
<trkpt lat="45.61025200" lon="2.82495484"><ele></ele><time>2014-4-15T16:6:16Z</time></trkpt>
<trkpt lat="45.60903001" lon="2.82527427"><ele></ele><time>2014-4-15T16:6:19Z</time></trkpt>
<trkpt lat="45.60864461" lon="2.82536672"><ele></ele><time>2014-4-15T16:6:22Z</time></trkpt>
<trkpt lat="45.60844906" lon="2.82534988"><ele></ele><time>2014-4-15T16:6:25Z</time></trkpt>
<trkpt lat="45.60796266" lon="2.82529078"><ele></ele><time>2014-4-15T16:6:28Z</time></trkpt>
<trkpt lat="45.60738531" lon="2.82510605"><ele></ele><time>2014-4-15T16:6:31Z</time></trkpt>
<trkpt lat="45.60700326" lon="2.82517545"><ele></ele><time>2014-4-15T16:6:34Z</time></trkpt>
<trkpt lat="45.60622400" lon="2.82546915"><ele></ele><time>2014-4-15T16:6:37Z</time></trkpt>
<trkpt lat="45.60531565" lon="2.82567082"><ele></ele><time>2014-4-15T16:6:40Z</time></trkpt>
<trkpt lat="45.60500527" lon="2.82573360"><ele></ele><time>2014-4-15T16:6:43Z</time></trkpt>
<trkpt lat="45.60469128" lon="2.82576872"><ele></ele><time>2014-4-15T16:6:46Z</time></trkpt>
<trkpt lat="45.60370063" lon="2.82537720"><ele></ele><time>2014-4-15T16:6:49Z</time></trkpt>
<trkpt lat="45.60317097" lon="2.82540151"><ele></ele><time>2014-4-15T16:6:52Z</time></trkpt>
<trkpt lat="45.60251693" lon="2.82554015"><ele></ele><time>2014-4-15T16:6:55Z</time></trkpt>
<trkpt lat="45.60218828" lon="2.82551735"><ele></ele><time>2014-4-15T16:6:58Z</time></trkpt>
<trkpt lat="45.60175795" lon="2.82541241"><ele></ele><time>2014-4-15T16:7:1Z</time></trkpt>
<trkpt lat="45.60142209" lon="2.82546781"><ele></ele><time>2014-4-15T16:7:4Z</time></trkpt>
<trkpt lat="45.60108346" lon="2.82588883"><ele></ele><time>2014-4-15T16:7:7Z</time></trkpt>
<trkpt lat="45.60103853" lon="2.82604205"><ele></ele><time>2014-4-15T16:7:10Z</time></trkpt>
<trkpt lat="45.60100911" lon="2.82620290"><ele></ele><time>2014-4-15T16:7:13Z</time></trkpt>
<trkpt lat="45.60072061" lon="2.82688578"><ele></ele><time>2014-4-15T16:7:16Z</time></trkpt>
<trkpt lat="45.60019280" lon="2.82691930"><ele></ele><time>2014-4-15T16:7:19Z</time></trkpt>
<trkpt lat="45.59994696" lon="2.82663340"><ele></ele><time>2014-4-15T16:7:22Z</time></trkpt>
<trkpt lat="45.59980086" lon="2.82641463"><ele></ele><time>2014-4-15T16:7:25Z</time></trkpt>
<trkpt lat="45.59964043" lon="2.82622377"><ele></ele><time>2014-4-15T16:7:28Z</time></trkpt>
<trkpt lat="45.59834870" lon="2.82538198"><ele></ele><time>2014-4-15T16:7:31Z</time></trkpt>
<trkpt lat="45.59760170" lon="2.82467614"><ele></ele><time>2014-4-15T16:7:34Z</time></trkpt>
<trkpt lat="45.59633846" lon="2.82338147"><ele></ele><time>2014-4-15T16:7:37Z</time></trkpt>
<trkpt lat="45.59471816" lon="2.82167316"><ele></ele><time>2014-4-15T16:7:40Z</time></trkpt>
<trkpt lat="45.59440442" lon="2.82176846"><ele></ele><time>2014-4-15T16:7:43Z</time></trkpt>
<trkpt lat="45.59426914" lon="2.82244597"><ele></ele><time>2014-4-15T16:7:46Z</time></trkpt>
<trkpt lat="45.59443904" lon="2.82412025"><ele></ele><time>2014-4-15T16:7:49Z</time></trkpt>
<trkpt lat="45.59446486" lon="2.82428940"><ele></ele><time>2014-4-15T16:7:52Z</time></trkpt>
<trkpt lat="45.59441758" lon="2.82431396"><ele></ele><time>2014-4-15T16:7:55Z</time></trkpt>
<trkpt lat="45.59434148" lon="2.82415504"><ele></ele><time>2014-4-15T16:7:58Z</time></trkpt>
<trkpt lat="45.59427006" lon="2.82402034"><ele></ele><time>2014-4-15T16:8:1Z</time></trkpt>
<trkpt lat="45.59419638" lon="2.82387374"><ele></ele><time>2014-4-15T16:8:4Z</time></trkpt>
<trkpt lat="45.59416437" lon="2.82381230"><ele></ele><time>2014-4-15T16:8:7Z</time></trkpt>
<trkpt lat="45.59401852" lon="2.82343419"><ele></ele><time>2014-4-15T16:8:10Z</time></trkpt>
<trkpt lat="45.59385457" lon="2.82297897"><ele></ele><time>2014-4-15T16:8:13Z</time></trkpt>
<trkpt lat="45.59379992" lon="2.82282718"><ele></ele><time>2014-4-15T16:8:16Z</time></trkpt>
<trkpt lat="45.59377268" lon="2.82275132"><ele></ele><time>2014-4-15T16:8:19Z</time></trkpt>
<trkpt lat="45.59369071" lon="2.82252367"><ele></ele><time>2014-4-15T16:8:22Z</time></trkpt>
<trkpt lat="45.59358576" lon="2.82217456"><ele></ele><time>2014-4-15T16:8:25Z</time></trkpt>
<trkpt lat="45.59352994" lon="2.82201648"><ele></ele><time>2014-4-15T16:8:28Z</time></trkpt>
<trkpt lat="45.59347252" lon="2.82186376"><ele></ele><time>2014-4-15T16:8:31Z</time></trkpt>
<trkpt lat="45.59337756" lon="2.82155925"><ele></ele><time>2014-4-15T16:8:34Z</time></trkpt>
<trkpt lat="45.59329960" lon="2.82135733"><ele></ele><time>2014-4-15T16:8:37Z</time></trkpt>
<trkpt lat="45.59321193" lon="2.82114761"><ele></ele><time>2014-4-15T16:8:40Z</time></trkpt>
<trkpt lat="45.59311562" lon="2.82086522"><ele></ele><time>2014-4-15T16:8:43Z</time></trkpt>
<trkpt lat="45.59309358" lon="2.82078073"><ele></ele><time>2014-4-15T16:8:46Z</time></trkpt>
<trkpt lat="45.59299677" lon="2.82051168"><ele></ele><time>2014-4-15T16:8:49Z</time></trkpt>
<trkpt lat="45.59291236" lon="2.82021856"><ele></ele><time>2014-4-15T16:8:52Z</time></trkpt>
<trkpt lat="45.59291856" lon="2.81988312"><ele></ele><time>2014-4-15T16:8:55Z</time></trkpt>
<trkpt lat="45.59292301" lon="2.81974314"><ele></ele><time>2014-4-15T16:8:58Z</time></trkpt>
<trkpt lat="45.59294840" lon="2.81952261"><ele></ele><time>2014-4-15T16:9:1Z</time></trkpt>
<trkpt lat="45.59308997" lon="2.81905850"><ele></ele><time>2014-4-15T16:9:4Z</time></trkpt>
<trkpt lat="45.59308754" lon="2.81915263"><ele></ele><time>2014-4-15T16:9:7Z</time></trkpt>
<trkpt lat="45.59291873" lon="2.81931147"><ele></ele><time>2014-4-15T16:9:10Z</time></trkpt>
<trkpt lat="45.59288847" lon="2.81933796"><ele></ele><time>2014-4-15T16:9:13Z</time></trkpt>
<trkpt lat="45.59281035" lon="2.81995067"><ele></ele><time>2014-4-15T16:9:16Z</time></trkpt>
<trkpt lat="45.59277557" lon="2.82011881"><ele></ele><time>2014-4-15T16:9:19Z</time></trkpt>
<trkpt lat="45.59271329" lon="2.82052131"><ele></ele><time>2014-4-15T16:9:22Z</time></trkpt>
<trkpt lat="45.59264355" lon="2.82051310"><ele></ele><time>2014-4-15T16:9:25Z</time></trkpt>
<trkpt lat="45.59259812" lon="2.82019811"><ele></ele><time>2014-4-15T16:9:28Z</time></trkpt>
<trkpt lat="45.59257851" lon="2.82003701"><ele></ele><time>2014-4-15T16:9:31Z</time></trkpt>
<trkpt lat="45.59251179" lon="2.81969620"><ele></ele><time>2014-4-15T16:9:34Z</time></trkpt>
<trkpt lat="45.59240894" lon="2.81932144"><ele></ele><time>2014-4-15T16:9:37Z</time></trkpt>
<trkpt lat="45.59230559" lon="2.81900486"><ele></ele><time>2014-4-15T16:9:40Z</time></trkpt>
<trkpt lat="45.59223007" lon="2.81867461"><ele></ele><time>2014-4-15T16:9:43Z</time></trkpt>
<trkpt lat="45.59220493" lon="2.81857043"><ele></ele><time>2014-4-15T16:9:46Z</time></trkpt>
<trkpt lat="45.59207987" lon="2.81782569"><ele></ele><time>2014-4-15T16:9:49Z</time></trkpt>
<trkpt lat="45.59201575" lon="2.81717283"><ele></ele><time>2014-4-15T16:9:52Z</time></trkpt>
<trkpt lat="45.59198105" lon="2.81693671"><ele></ele><time>2014-4-15T16:9:55Z</time></trkpt>
<trkpt lat="45.59196370" lon="2.81681861"><ele></ele><time>2014-4-15T16:9:58Z</time></trkpt>
<trkpt lat="45.59176178" lon="2.81630714"><ele></ele><time>2014-4-15T16:10:1Z</time></trkpt>
<trkpt lat="45.59157763" lon="2.81593616"><ele></ele><time>2014-4-15T16:10:4Z</time></trkpt>
<trkpt lat="45.59139348" lon="2.81556518"><ele></ele><time>2014-4-15T16:10:7Z</time></trkpt>
<trkpt lat="45.59133204" lon="2.81544146"><ele></ele><time>2014-4-15T16:10:10Z</time></trkpt>
<trkpt lat="45.59108645" lon="2.81494676"><ele></ele><time>2014-4-15T16:10:13Z</time></trkpt>
<trkpt lat="45.59066777" lon="2.81465608"><ele></ele><time>2014-4-15T16:10:16Z</time></trkpt>
<trkpt lat="45.59061287" lon="2.81462330"><ele></ele><time>2014-4-15T16:10:19Z</time></trkpt>
<trkpt lat="45.59022864" lon="2.81439389"><ele></ele><time>2014-4-15T16:10:22Z</time></trkpt>
<trkpt lat="45.59015565" lon="2.81370324"><ele></ele><time>2014-4-15T16:10:25Z</time></trkpt>
<trkpt lat="45.58995541" lon="2.81318895"><ele></ele><time>2014-4-15T16:10:28Z</time></trkpt>
<trkpt lat="45.58953638" lon="2.81383306"><ele></ele><time>2014-4-15T16:10:31Z</time></trkpt>
<trkpt lat="45.58947477" lon="2.81384228"><ele></ele><time>2014-4-15T16:10:34Z</time></trkpt>
<trkpt lat="45.58905156" lon="2.81417422"><ele></ele><time>2014-4-15T16:10:37Z</time></trkpt>
<trkpt lat="45.58869020" lon="2.81452347"><ele></ele><time>2014-4-15T16:10:40Z</time></trkpt>
<trkpt lat="45.58853413" lon="2.81420178"><ele></ele><time>2014-4-15T16:10:43Z</time></trkpt>
<trkpt lat="45.58835475" lon="2.81407209"><ele></ele><time>2014-4-15T16:10:46Z</time></trkpt>
<trkpt lat="45.58808473" lon="2.81410179"><ele></ele><time>2014-4-15T16:10:49Z</time></trkpt>
<trkpt lat="45.58792606" lon="2.81438872"><ele></ele><time>2014-4-15T16:10:52Z</time></trkpt>
<trkpt lat="45.58790194" lon="2.81477292"><ele></ele><time>2014-4-15T16:10:55Z</time></trkpt>
<trkpt lat="45.58774341" lon="2.81502781"><ele></ele><time>2014-4-15T16:10:58Z</time></trkpt>
<trkpt lat="45.58758707" lon="2.81477019"><ele></ele><time>2014-4-15T16:11:1Z</time></trkpt>
<trkpt lat="45.58754318" lon="2.81451355"><ele></ele><time>2014-4-15T16:11:4Z</time></trkpt>
<trkpt lat="45.58752178" lon="2.81425709"><ele></ele><time>2014-4-15T16:11:7Z</time></trkpt>
<trkpt lat="45.58752287" lon="2.81400084"><ele></ele><time>2014-4-15T16:11:10Z</time></trkpt>
<trkpt lat="45.58754659" lon="2.81371274"><ele></ele><time>2014-4-15T16:11:13Z</time></trkpt>
<trkpt lat="45.58759252" lon="2.81348890"><ele></ele><time>2014-4-15T16:11:16Z</time></trkpt>
<trkpt lat="45.58770566" lon="2.81332971"><ele></ele><time>2014-4-15T16:11:19Z</time></trkpt>
<trkpt lat="45.58783888" lon="2.81317743"><ele></ele><time>2014-4-15T16:11:22Z</time></trkpt>
<trkpt lat="45.58787576" lon="2.81309277"><ele></ele><time>2014-4-15T16:11:25Z</time></trkpt>
<trkpt lat="45.58793108" lon="2.81296578"><ele></ele><time>2014-4-15T16:11:28Z</time></trkpt>
<trkpt lat="45.58794952" lon="2.81292345"><ele></ele><time>2014-4-15T16:11:31Z</time></trkpt>
<trkpt lat="45.58807868" lon="2.81262715"><ele></ele><time>2014-4-15T16:11:34Z</time></trkpt>
<trkpt lat="45.58814616" lon="2.81231116"><ele></ele><time>2014-4-15T16:11:37Z</time></trkpt>
<trkpt lat="45.58819092" lon="2.81195979"><ele></ele><time>2014-4-15T16:11:40Z</time></trkpt>
<trkpt lat="45.58820014" lon="2.81181746"><ele></ele><time>2014-4-15T16:11:43Z</time></trkpt>
<trkpt lat="45.58830374" lon="2.81126484"><ele></ele><time>2014-4-15T16:11:46Z</time></trkpt>
<trkpt lat="45.58832905" lon="2.81117147"><ele></ele><time>2014-4-15T16:11:49Z</time></trkpt>
<trkpt lat="45.58836870" lon="2.81093359"><ele></ele><time>2014-4-15T16:11:52Z</time></trkpt>
<trkpt lat="45.58827398" lon="2.80934606"><ele></ele><time>2014-4-15T16:11:55Z</time></trkpt>
<trkpt lat="45.58837197" lon="2.80907188"><ele></ele><time>2014-4-15T16:11:58Z</time></trkpt>
<trkpt lat="45.58850935" lon="2.80856528"><ele></ele><time>2014-4-15T16:12:1Z</time></trkpt>
<trkpt lat="45.58867145" lon="2.80860350"><ele></ele><time>2014-4-15T16:12:4Z</time></trkpt>
<trkpt lat="45.58872166" lon="2.80860619"><ele></ele><time>2014-4-15T16:12:7Z</time></trkpt>
<trkpt lat="45.58858755" lon="2.80820134"><ele></ele><time>2014-4-15T16:12:10Z</time></trkpt>
<trkpt lat="45.58852167" lon="2.80756909"><ele></ele><time>2014-4-15T16:12:13Z</time></trkpt>
<trkpt lat="45.58849703" lon="2.80726936"><ele></ele><time>2014-4-15T16:12:16Z</time></trkpt>
<trkpt lat="45.58846886" lon="2.80705788"><ele></ele><time>2014-4-15T16:12:19Z</time></trkpt>
<trkpt lat="45.58844179" lon="2.80687096"><ele></ele><time>2014-4-15T16:12:22Z</time></trkpt>
<trkpt lat="45.58842821" lon="2.80677751"><ele></ele><time>2014-4-15T16:12:25Z</time></trkpt>
<trkpt lat="45.58841463" lon="2.80668405"><ele></ele><time>2014-4-15T16:12:28Z</time></trkpt>
<trkpt lat="45.58838991" lon="2.80648632"><ele></ele><time>2014-4-15T16:12:31Z</time></trkpt>
<trkpt lat="45.58836384" lon="2.80626001"><ele></ele><time>2014-4-15T16:12:34Z</time></trkpt>
<trkpt lat="45.58821372" lon="2.80351561"><ele></ele><time>2014-4-15T16:12:37Z</time></trkpt>
<trkpt lat="45.58828203" lon="2.80311596"><ele></ele><time>2014-4-15T16:12:40Z</time></trkpt>
<trkpt lat="45.58822855" lon="2.80288437"><ele></ele><time>2014-4-15T16:12:43Z</time></trkpt>
<trkpt lat="45.58820198" lon="2.80276534"><ele></ele><time>2014-4-15T16:12:46Z</time></trkpt>
<trkpt lat="45.58782170" lon="2.80207593"><ele></ele><time>2014-4-15T16:12:49Z</time></trkpt>
<trkpt lat="45.58759178" lon="2.80174124"><ele></ele><time>2014-4-15T16:12:52Z</time></trkpt>
<trkpt lat="45.58733689" lon="2.80158358"><ele></ele><time>2014-4-15T16:12:55Z</time></trkpt>
<trkpt lat="45.58724971" lon="2.80154930"><ele></ele><time>2014-4-15T16:12:58Z</time></trkpt>
<trkpt lat="45.58663733" lon="2.80156287"><ele></ele><time>2014-4-15T16:13:1Z</time></trkpt>
<trkpt lat="45.58651647" lon="2.80157637"><ele></ele><time>2014-4-15T16:13:4Z</time></trkpt>
<trkpt lat="45.58622913" lon="2.80168910"><ele></ele><time>2014-4-15T16:13:7Z</time></trkpt>
<trkpt lat="45.58592169" lon="2.80178927"><ele></ele><time>2014-4-15T16:13:10Z</time></trkpt>
<trkpt lat="45.58520243" lon="2.80233652"><ele></ele><time>2014-4-15T16:13:13Z</time></trkpt>
<trkpt lat="45.58476297" lon="2.80266970"><ele></ele><time>2014-4-15T16:13:16Z</time></trkpt>
<trkpt lat="45.58469181" lon="2.80272494"><ele></ele><time>2014-4-15T16:13:19Z</time></trkpt>
<trkpt lat="45.58422066" lon="2.80303951"><ele></ele><time>2014-4-15T16:13:22Z</time></trkpt>
<trkpt lat="45.58389435" lon="2.80326649"><ele></ele><time>2014-4-15T16:13:25Z</time></trkpt>
<trkpt lat="45.58327217" lon="2.80356330"><ele></ele><time>2014-4-15T16:13:28Z</time></trkpt>
<trkpt lat="45.58312724" lon="2.80357160"><ele></ele><time>2014-4-15T16:13:31Z</time></trkpt>
<trkpt lat="45.58293329" lon="2.80372909"><ele></ele><time>2014-4-15T16:13:34Z</time></trkpt>
<trkpt lat="45.58258904" lon="2.80419161"><ele></ele><time>2014-4-15T16:13:37Z</time></trkpt>
<trkpt lat="45.58202704" lon="2.80500130"><ele></ele><time>2014-4-15T16:13:40Z</time></trkpt>
<trkpt lat="45.58140929" lon="2.80564872"><ele></ele><time>2014-4-15T16:13:43Z</time></trkpt>
<trkpt lat="45.58092590" lon="2.80602775"><ele></ele><time>2014-4-15T16:13:46Z</time></trkpt>
<trkpt lat="45.58031134" lon="2.80651138"><ele></ele><time>2014-4-15T16:13:49Z</time></trkpt>
<trkpt lat="45.57971296" lon="2.80679620"><ele></ele><time>2014-4-15T16:13:52Z</time></trkpt>
<trkpt lat="45.57907266" lon="2.80707959"><ele></ele><time>2014-4-15T16:13:55Z</time></trkpt>
<trkpt lat="45.57839373" lon="2.80762047"><ele></ele><time>2014-4-15T16:13:58Z</time></trkpt>
<trkpt lat="45.57801101" lon="2.80805030"><ele></ele><time>2014-4-15T16:14:1Z</time></trkpt>
<trkpt lat="45.57734189" lon="2.80873091"><ele></ele><time>2014-4-15T16:14:4Z</time></trkpt>
<trkpt lat="45.57676521" lon="2.80929459"><ele></ele><time>2014-4-15T16:14:7Z</time></trkpt>
<trkpt lat="45.57666664" lon="2.80920826"><ele></ele><time>2014-4-15T16:14:10Z</time></trkpt>
<trkpt lat="45.57663714" lon="2.80898128"><ele></ele><time>2014-4-15T16:14:13Z</time></trkpt>
<trkpt lat="45.57660981" lon="2.80840645"><ele></ele><time>2014-4-15T16:14:16Z</time></trkpt>
<trkpt lat="45.57656958" lon="2.80813177"><ele></ele><time>2014-4-15T16:14:19Z</time></trkpt>
<trkpt lat="45.57647411" lon="2.80788040"><ele></ele><time>2014-4-15T16:14:22Z</time></trkpt>
<trkpt lat="45.57634075" lon="2.80788568"><ele></ele><time>2014-4-15T16:14:25Z</time></trkpt>
<trkpt lat="45.57622693" lon="2.80801090"><ele></ele><time>2014-4-15T16:14:28Z</time></trkpt>
<trkpt lat="45.57584136" lon="2.80843310"><ele></ele><time>2014-4-15T16:14:31Z</time></trkpt>
<trkpt lat="45.57522328" lon="2.80883007"><ele></ele><time>2014-4-15T16:14:34Z</time></trkpt>
<trkpt lat="45.57470662" lon="2.80906241"><ele></ele><time>2014-4-15T16:14:37Z</time></trkpt>
<trkpt lat="45.57401779" lon="2.80945284"><ele></ele><time>2014-4-15T16:14:40Z</time></trkpt>
<trkpt lat="45.57365695" lon="2.80965904"><ele></ele><time>2014-4-15T16:14:43Z</time></trkpt>
<trkpt lat="45.57354178" lon="2.80951638"><ele></ele><time>2014-4-15T16:14:46Z</time></trkpt>
<trkpt lat="45.57352552" lon="2.80944262"><ele></ele><time>2014-4-15T16:14:49Z</time></trkpt>
<trkpt lat="45.57325403" lon="2.80950406"><ele></ele><time>2014-4-15T16:14:52Z</time></trkpt>
<trkpt lat="45.57284617" lon="2.80956097"><ele></ele><time>2014-4-15T16:14:55Z</time></trkpt>
<trkpt lat="45.57275296" lon="2.80962090"><ele></ele><time>2014-4-15T16:14:58Z</time></trkpt>
<trkpt lat="45.57263553" lon="2.80949274"><ele></ele><time>2014-4-15T16:15:1Z</time></trkpt>
<trkpt lat="45.57262933" lon="2.80953088"><ele></ele><time>2014-4-15T16:15:4Z</time></trkpt>
<trkpt lat="45.57261894" lon="2.80954178"><ele></ele><time>2014-4-15T16:15:7Z</time></trkpt>
</trkseg></trk></gpx>